<?xml version="1.0" encoding="UTF-8" standalone="no" ?>
<gpx xmlns="http://www.topografix.com/GPX/1/1" xmlns:xsi="http://www.w3.org/2001/XMLSchema-instance" xsi:schemaLocation="http://www.topografix.com/GPX/1/1 http://www.topografix.com/GPX/1/1/gpx.xsd" version="1.1" creator="VisuGPX - https://www.visugpx.com">
  <metadata>
    <name>Boucle entrainement vélo de route La Roquebrussanne</name>
    <desc><![CDATA[*#gpxviewerandrecorder#*]]></desc>
  </metadata>
  <trk>
    <name><![CDATA[Boucle entrainement vélo de route La Roquebrussanne_1]]></name>
    <trkseg>
      <trkpt lat="43.34328" lon="5.96862">
        <ele>395</ele>
        <time>2018-05-18T08:52:33</time>
      </trkpt>
      <trkpt lat="43.34333" lon="5.96867">
        <ele>399</ele>
        <time>2018-05-18T08:54:31</time>
      </trkpt>
      <trkpt lat="43.3434" lon="5.96882">
        <ele>397</ele>
        <time>2018-05-18T08:54:36</time>
      </trkpt>
      <trkpt lat="43.34338" lon="5.96896">
        <ele>396</ele>
        <time>2018-05-18T08:54:41</time>
      </trkpt>
      <trkpt lat="43.3433" lon="5.96909">
        <ele>397</ele>
        <time>2018-05-18T08:54:46</time>
      </trkpt>
      <trkpt lat="43.3433" lon="5.96927">
        <ele>398</ele>
        <time>2018-05-18T08:54:51</time>
      </trkpt>
      <trkpt lat="43.34321" lon="5.96943">
        <ele>396</ele>
        <time>2018-05-18T08:54:56</time>
      </trkpt>
      <trkpt lat="43.34307" lon="5.96953">
        <ele>396</ele>
        <time>2018-05-18T08:55:01</time>
      </trkpt>
      <trkpt lat="43.34295" lon="5.96964">
        <ele>396</ele>
        <time>2018-05-18T08:55:06</time>
      </trkpt>
      <trkpt lat="43.34284" lon="5.96974">
        <ele>397</ele>
        <time>2018-05-18T08:55:11</time>
      </trkpt>
      <trkpt lat="43.3427" lon="5.96989">
        <ele>400</ele>
        <time>2018-05-18T08:55:17</time>
      </trkpt>
      <trkpt lat="43.3426" lon="5.97005">
        <ele>399</ele>
        <time>2018-05-18T08:55:22</time>
      </trkpt>
      <trkpt lat="43.34263" lon="5.97024">
        <ele>392</ele>
        <time>2018-05-18T08:55:27</time>
      </trkpt>
      <trkpt lat="43.34282" lon="5.9705">
        <ele>391</ele>
        <time>2018-05-18T08:55:32</time>
      </trkpt>
      <trkpt lat="43.34304" lon="5.97083">
        <ele>388</ele>
        <time>2018-05-18T08:55:37</time>
      </trkpt>
      <trkpt lat="43.34327" lon="5.97124">
        <ele>386</ele>
        <time>2018-05-18T08:55:42</time>
      </trkpt>
      <trkpt lat="43.34347" lon="5.97164">
        <ele>387</ele>
        <time>2018-05-18T08:55:47</time>
      </trkpt>
      <trkpt lat="43.34357" lon="5.97211">
        <ele>385</ele>
        <time>2018-05-18T08:55:52</time>
      </trkpt>
      <trkpt lat="43.34368" lon="5.97249">
        <ele>384</ele>
        <time>2018-05-18T08:55:57</time>
      </trkpt>
      <trkpt lat="43.34378" lon="5.97288">
        <ele>382</ele>
        <time>2018-05-18T08:56:02</time>
      </trkpt>
      <trkpt lat="43.34387" lon="5.97318">
        <ele>381</ele>
        <time>2018-05-18T08:56:07</time>
      </trkpt>
      <trkpt lat="43.34369" lon="5.97325">
        <ele>382</ele>
        <time>2018-05-18T08:56:12</time>
      </trkpt>
      <trkpt lat="43.34334" lon="5.97325">
        <ele>382</ele>
        <time>2018-05-18T08:56:17</time>
      </trkpt>
      <trkpt lat="43.34295" lon="5.97323">
        <ele>385</ele>
        <time>2018-05-18T08:56:22</time>
      </trkpt>
      <trkpt lat="43.34252" lon="5.97322">
        <ele>385</ele>
        <time>2018-05-18T08:56:28</time>
      </trkpt>
      <trkpt lat="43.34213" lon="5.97322">
        <ele>386</ele>
        <time>2018-05-18T08:56:33</time>
      </trkpt>
      <trkpt lat="43.34183" lon="5.97323">
        <ele>390</ele>
        <time>2018-05-18T08:56:38</time>
      </trkpt>
      <trkpt lat="43.34154" lon="5.97319">
        <ele>387</ele>
        <time>2018-05-18T08:56:43</time>
      </trkpt>
      <trkpt lat="43.34116" lon="5.97319">
        <ele>389</ele>
        <time>2018-05-18T08:56:48</time>
      </trkpt>
      <trkpt lat="43.34091" lon="5.97296">
        <ele>386</ele>
        <time>2018-05-18T08:56:53</time>
      </trkpt>
      <trkpt lat="43.34103" lon="5.97241">
        <ele>385</ele>
        <time>2018-05-18T08:56:59</time>
      </trkpt>
      <trkpt lat="43.34113" lon="5.97198">
        <ele>384</ele>
        <time>2018-05-18T08:57:04</time>
      </trkpt>
      <trkpt lat="43.34113" lon="5.9716">
        <ele>384</ele>
        <time>2018-05-18T08:57:09</time>
      </trkpt>
      <trkpt lat="43.34113" lon="5.97121">
        <ele>385</ele>
        <time>2018-05-18T08:57:14</time>
      </trkpt>
      <trkpt lat="43.34113" lon="5.97086">
        <ele>386</ele>
        <time>2018-05-18T08:57:19</time>
      </trkpt>
      <trkpt lat="43.34117" lon="5.97051">
        <ele>386</ele>
        <time>2018-05-18T08:57:24</time>
      </trkpt>
      <trkpt lat="43.34125" lon="5.97017">
        <ele>386</ele>
        <time>2018-05-18T08:57:29</time>
      </trkpt>
      <trkpt lat="43.34131" lon="5.96986">
        <ele>386</ele>
        <time>2018-05-18T08:57:34</time>
      </trkpt>
      <trkpt lat="43.34139" lon="5.96961">
        <ele>385</ele>
        <time>2018-05-18T08:57:39</time>
      </trkpt>
      <trkpt lat="43.34147" lon="5.96939">
        <ele>384</ele>
        <time>2018-05-18T08:57:44</time>
      </trkpt>
      <trkpt lat="43.34155" lon="5.96918">
        <ele>385</ele>
        <time>2018-05-18T08:57:49</time>
      </trkpt>
      <trkpt lat="43.34166" lon="5.969">
        <ele>386</ele>
        <time>2018-05-18T08:57:54</time>
      </trkpt>
      <trkpt lat="43.34178" lon="5.96882">
        <ele>388</ele>
        <time>2018-05-18T08:57:59</time>
      </trkpt>
      <trkpt lat="43.34191" lon="5.96864">
        <ele>391</ele>
        <time>2018-05-18T08:58:04</time>
      </trkpt>
      <trkpt lat="43.34203" lon="5.9684">
        <ele>393</ele>
        <time>2018-05-18T08:58:09</time>
      </trkpt>
      <trkpt lat="43.34218" lon="5.96813">
        <ele>394</ele>
        <time>2018-05-18T08:58:14</time>
      </trkpt>
      <trkpt lat="43.34231" lon="5.96778">
        <ele>393</ele>
        <time>2018-05-18T08:58:20</time>
      </trkpt>
      <trkpt lat="43.3423" lon="5.96739">
        <ele>391</ele>
        <time>2018-05-18T08:58:25</time>
      </trkpt>
      <trkpt lat="43.34218" lon="5.96704">
        <ele>391</ele>
        <time>2018-05-18T08:58:30</time>
      </trkpt>
      <trkpt lat="43.34206" lon="5.96677">
        <ele>392</ele>
        <time>2018-05-18T08:58:35</time>
      </trkpt>
      <trkpt lat="43.34195" lon="5.96656">
        <ele>393</ele>
        <time>2018-05-18T08:58:40</time>
      </trkpt>
      <trkpt lat="43.34185" lon="5.96642">
        <ele>400</ele>
        <time>2018-05-18T08:58:45</time>
      </trkpt>
      <trkpt lat="43.34177" lon="5.96624">
        <ele>402</ele>
        <time>2018-05-18T08:58:50</time>
      </trkpt>
      <trkpt lat="43.34173" lon="5.96614">
        <ele>405</ele>
        <time>2018-05-18T08:58:55</time>
      </trkpt>
      <trkpt lat="43.3417" lon="5.96597">
        <ele>404</ele>
        <time>2018-05-18T08:59:00</time>
      </trkpt>
      <trkpt lat="43.34166" lon="5.96574">
        <ele>402</ele>
        <time>2018-05-18T08:59:05</time>
      </trkpt>
      <trkpt lat="43.34162" lon="5.96546">
        <ele>400</ele>
        <time>2018-05-18T08:59:10</time>
      </trkpt>
      <trkpt lat="43.34159" lon="5.96513">
        <ele>398</ele>
        <time>2018-05-18T08:59:15</time>
      </trkpt>
      <trkpt lat="43.34157" lon="5.96481">
        <ele>398</ele>
        <time>2018-05-18T08:59:20</time>
      </trkpt>
      <trkpt lat="43.34157" lon="5.96455">
        <ele>398</ele>
        <time>2018-05-18T08:59:25</time>
      </trkpt>
      <trkpt lat="43.34158" lon="5.96434">
        <ele>400</ele>
        <time>2018-05-18T08:59:31</time>
      </trkpt>
      <trkpt lat="43.3416" lon="5.96415">
        <ele>401</ele>
        <time>2018-05-18T08:59:36</time>
      </trkpt>
      <trkpt lat="43.34168" lon="5.96381">
        <ele>404</ele>
        <time>2018-05-18T08:59:41</time>
      </trkpt>
      <trkpt lat="43.34178" lon="5.96343">
        <ele>402</ele>
        <time>2018-05-18T08:59:46</time>
      </trkpt>
      <trkpt lat="43.34185" lon="5.96304">
        <ele>401</ele>
        <time>2018-05-18T08:59:51</time>
      </trkpt>
      <trkpt lat="43.34175" lon="5.96263">
        <ele>401</ele>
        <time>2018-05-18T08:59:56</time>
      </trkpt>
      <trkpt lat="43.34162" lon="5.96223">
        <ele>398</ele>
        <time>2018-05-18T09:00:01</time>
      </trkpt>
      <trkpt lat="43.34143" lon="5.96186">
        <ele>398</ele>
        <time>2018-05-18T09:00:06</time>
      </trkpt>
      <trkpt lat="43.34118" lon="5.96155">
        <ele>398</ele>
        <time>2018-05-18T09:00:11</time>
      </trkpt>
      <trkpt lat="43.34096" lon="5.96117">
        <ele>396</ele>
        <time>2018-05-18T09:00:16</time>
      </trkpt>
      <trkpt lat="43.3408" lon="5.96076">
        <ele>396</ele>
        <time>2018-05-18T09:00:21</time>
      </trkpt>
      <trkpt lat="43.34062" lon="5.9604">
        <ele>399</ele>
        <time>2018-05-18T09:00:26</time>
      </trkpt>
      <trkpt lat="43.34041" lon="5.96011">
        <ele>400</ele>
        <time>2018-05-18T09:00:31</time>
      </trkpt>
      <trkpt lat="43.34016" lon="5.9599">
        <ele>403</ele>
        <time>2018-05-18T09:00:36</time>
      </trkpt>
      <trkpt lat="43.33983" lon="5.95998">
        <ele>407</ele>
        <time>2018-05-18T09:00:41</time>
      </trkpt>
      <trkpt lat="43.33964" lon="5.96007">
        <ele>401</ele>
        <time>2018-05-18T09:00:46</time>
      </trkpt>
      <trkpt lat="43.33938" lon="5.95994">
        <ele>402</ele>
        <time>2018-05-18T09:00:52</time>
      </trkpt>
      <trkpt lat="43.33927" lon="5.95969">
        <ele>405</ele>
        <time>2018-05-18T09:00:57</time>
      </trkpt>
      <trkpt lat="43.33916" lon="5.95933">
        <ele>404</ele>
        <time>2018-05-18T09:01:02</time>
      </trkpt>
      <trkpt lat="43.33911" lon="5.95902">
        <ele>408</ele>
        <time>2018-05-18T09:01:07</time>
      </trkpt>
      <trkpt lat="43.33918" lon="5.95868">
        <ele>410</ele>
        <time>2018-05-18T09:01:12</time>
      </trkpt>
      <trkpt lat="43.33944" lon="5.9585">
        <ele>412</ele>
        <time>2018-05-18T09:01:17</time>
      </trkpt>
      <trkpt lat="43.33964" lon="5.95837">
        <ele>415</ele>
        <time>2018-05-18T09:01:22</time>
      </trkpt>
      <trkpt lat="43.33984" lon="5.95821">
        <ele>415</ele>
        <time>2018-05-18T09:01:27</time>
      </trkpt>
      <trkpt lat="43.33995" lon="5.95797">
        <ele>413</ele>
        <time>2018-05-18T09:01:32</time>
      </trkpt>
      <trkpt lat="43.34" lon="5.95761">
        <ele>412</ele>
        <time>2018-05-18T09:01:37</time>
      </trkpt>
      <trkpt lat="43.34009" lon="5.95726">
        <ele>411</ele>
        <time>2018-05-18T09:01:42</time>
      </trkpt>
      <trkpt lat="43.34015" lon="5.95692">
        <ele>410</ele>
        <time>2018-05-18T09:01:47</time>
      </trkpt>
      <trkpt lat="43.34017" lon="5.95657">
        <ele>409</ele>
        <time>2018-05-18T09:01:52</time>
      </trkpt>
      <trkpt lat="43.34016" lon="5.95618">
        <ele>406</ele>
        <time>2018-05-18T09:01:57</time>
      </trkpt>
      <trkpt lat="43.34015" lon="5.95582">
        <ele>407</ele>
        <time>2018-05-18T09:02:02</time>
      </trkpt>
      <trkpt lat="43.34019" lon="5.95529">
        <ele>405</ele>
        <time>2018-05-18T09:02:08</time>
      </trkpt>
      <trkpt lat="43.34025" lon="5.95486">
        <ele>406</ele>
        <time>2018-05-18T09:02:13</time>
      </trkpt>
      <trkpt lat="43.34029" lon="5.95441">
        <ele>406</ele>
        <time>2018-05-18T09:02:18</time>
      </trkpt>
      <trkpt lat="43.34031" lon="5.95397">
        <ele>408</ele>
        <time>2018-05-18T09:02:23</time>
      </trkpt>
      <trkpt lat="43.34033" lon="5.95352">
        <ele>408</ele>
        <time>2018-05-18T09:02:28</time>
      </trkpt>
      <trkpt lat="43.34034" lon="5.95308">
        <ele>407</ele>
        <time>2018-05-18T09:02:33</time>
      </trkpt>
      <trkpt lat="43.34035" lon="5.9527">
        <ele>408</ele>
        <time>2018-05-18T09:02:38</time>
      </trkpt>
      <trkpt lat="43.34038" lon="5.95239">
        <ele>407</ele>
        <time>2018-05-18T09:02:43</time>
      </trkpt>
      <trkpt lat="43.34044" lon="5.95198">
        <ele>407</ele>
        <time>2018-05-18T09:02:48</time>
      </trkpt>
      <trkpt lat="43.34051" lon="5.95157">
        <ele>410</ele>
        <time>2018-05-18T09:02:53</time>
      </trkpt>
      <trkpt lat="43.34053" lon="5.95114">
        <ele>409</ele>
        <time>2018-05-18T09:02:58</time>
      </trkpt>
      <trkpt lat="43.34055" lon="5.95079">
        <ele>410</ele>
        <time>2018-05-18T09:03:03</time>
      </trkpt>
      <trkpt lat="43.34057" lon="5.95052">
        <ele>414</ele>
        <time>2018-05-18T09:03:08</time>
      </trkpt>
      <trkpt lat="43.34061" lon="5.95021">
        <ele>416</ele>
        <time>2018-05-18T09:03:13</time>
      </trkpt>
      <trkpt lat="43.34069" lon="5.9499">
        <ele>418</ele>
        <time>2018-05-18T09:03:18</time>
      </trkpt>
      <trkpt lat="43.34083" lon="5.94953">
        <ele>420</ele>
        <time>2018-05-18T09:03:24</time>
      </trkpt>
      <trkpt lat="43.34097" lon="5.9493">
        <ele>421</ele>
        <time>2018-05-18T09:03:29</time>
      </trkpt>
      <trkpt lat="43.34116" lon="5.94909">
        <ele>422</ele>
        <time>2018-05-18T09:03:34</time>
      </trkpt>
      <trkpt lat="43.34136" lon="5.94888">
        <ele>422</ele>
        <time>2018-05-18T09:03:39</time>
      </trkpt>
      <trkpt lat="43.34158" lon="5.94868">
        <ele>423</ele>
        <time>2018-05-18T09:03:44</time>
      </trkpt>
      <trkpt lat="43.34177" lon="5.94848">
        <ele>424</ele>
        <time>2018-05-18T09:03:49</time>
      </trkpt>
      <trkpt lat="43.34199" lon="5.94824">
        <ele>423</ele>
        <time>2018-05-18T09:03:54</time>
      </trkpt>
      <trkpt lat="43.34218" lon="5.94789">
        <ele>424</ele>
        <time>2018-05-18T09:03:59</time>
      </trkpt>
      <trkpt lat="43.34231" lon="5.94751">
        <ele>424</ele>
        <time>2018-05-18T09:04:04</time>
      </trkpt>
      <trkpt lat="43.34241" lon="5.94722">
        <ele>425</ele>
        <time>2018-05-18T09:04:09</time>
      </trkpt>
      <trkpt lat="43.34251" lon="5.94693">
        <ele>427</ele>
        <time>2018-05-18T09:04:14</time>
      </trkpt>
      <trkpt lat="43.34263" lon="5.94658">
        <ele>428</ele>
        <time>2018-05-18T09:04:19</time>
      </trkpt>
      <trkpt lat="43.34271" lon="5.94624">
        <ele>430</ele>
        <time>2018-05-18T09:04:24</time>
      </trkpt>
      <trkpt lat="43.34274" lon="5.94586">
        <ele>432</ele>
        <time>2018-05-18T09:04:29</time>
      </trkpt>
      <trkpt lat="43.34274" lon="5.9455">
        <ele>434</ele>
        <time>2018-05-18T09:04:34</time>
      </trkpt>
      <trkpt lat="43.34272" lon="5.94507">
        <ele>435</ele>
        <time>2018-05-18T09:04:39</time>
      </trkpt>
      <trkpt lat="43.3427" lon="5.94457">
        <ele>435</ele>
        <time>2018-05-18T09:04:45</time>
      </trkpt>
      <trkpt lat="43.3427" lon="5.94415">
        <ele>435</ele>
        <time>2018-05-18T09:04:50</time>
      </trkpt>
      <trkpt lat="43.34269" lon="5.94379">
        <ele>436</ele>
        <time>2018-05-18T09:04:55</time>
      </trkpt>
      <trkpt lat="43.34267" lon="5.94337">
        <ele>433</ele>
        <time>2018-05-18T09:05:00</time>
      </trkpt>
      <trkpt lat="43.34268" lon="5.94286">
        <ele>429</ele>
        <time>2018-05-18T09:05:05</time>
      </trkpt>
      <trkpt lat="43.34302" lon="5.9425">
        <ele>428</ele>
        <time>2018-05-18T09:05:10</time>
      </trkpt>
      <trkpt lat="43.3433" lon="5.94241">
        <ele>435</ele>
        <time>2018-05-18T09:05:15</time>
      </trkpt>
      <trkpt lat="43.34354" lon="5.94214">
        <ele>431</ele>
        <time>2018-05-18T09:05:20</time>
      </trkpt>
      <trkpt lat="43.34369" lon="5.94185">
        <ele>435</ele>
        <time>2018-05-18T09:05:25</time>
      </trkpt>
      <trkpt lat="43.34388" lon="5.94158">
        <ele>433</ele>
        <time>2018-05-18T09:05:30</time>
      </trkpt>
      <trkpt lat="43.34399" lon="5.94126">
        <ele>437</ele>
        <time>2018-05-18T09:05:35</time>
      </trkpt>
      <trkpt lat="43.34413" lon="5.94092">
        <ele>436</ele>
        <time>2018-05-18T09:05:40</time>
      </trkpt>
      <trkpt lat="43.34426" lon="5.94067">
        <ele>438</ele>
        <time>2018-05-18T09:05:45</time>
      </trkpt>
      <trkpt lat="43.34453" lon="5.94047">
        <ele>437</ele>
        <time>2018-05-18T09:05:51</time>
      </trkpt>
      <trkpt lat="43.34459" lon="5.94026">
        <ele>440</ele>
        <time>2018-05-18T09:05:56</time>
      </trkpt>
      <trkpt lat="43.34467" lon="5.94004">
        <ele>442</ele>
        <time>2018-05-18T09:06:01</time>
      </trkpt>
      <trkpt lat="43.34475" lon="5.93982">
        <ele>444</ele>
        <time>2018-05-18T09:06:06</time>
      </trkpt>
      <trkpt lat="43.34481" lon="5.93965">
        <ele>449</ele>
        <time>2018-05-18T09:06:11</time>
      </trkpt>
      <trkpt lat="43.34488" lon="5.93942">
        <ele>449</ele>
        <time>2018-05-18T09:06:16</time>
      </trkpt>
      <trkpt lat="43.34495" lon="5.93919">
        <ele>450</ele>
        <time>2018-05-18T09:06:21</time>
      </trkpt>
      <trkpt lat="43.34501" lon="5.93897">
        <ele>453</ele>
        <time>2018-05-18T09:06:26</time>
      </trkpt>
      <trkpt lat="43.34508" lon="5.93877">
        <ele>455</ele>
        <time>2018-05-18T09:06:31</time>
      </trkpt>
      <trkpt lat="43.34515" lon="5.93853">
        <ele>454</ele>
        <time>2018-05-18T09:06:36</time>
      </trkpt>
      <trkpt lat="43.34524" lon="5.93832">
        <ele>455</ele>
        <time>2018-05-18T09:06:41</time>
      </trkpt>
      <trkpt lat="43.34531" lon="5.93811">
        <ele>456</ele>
        <time>2018-05-18T09:06:46</time>
      </trkpt>
      <trkpt lat="43.34537" lon="5.93791">
        <ele>457</ele>
        <time>2018-05-18T09:06:51</time>
      </trkpt>
      <trkpt lat="43.34543" lon="5.93774">
        <ele>458</ele>
        <time>2018-05-18T09:06:56</time>
      </trkpt>
      <trkpt lat="43.3455" lon="5.93752">
        <ele>459</ele>
        <time>2018-05-18T09:07:01</time>
      </trkpt>
      <trkpt lat="43.34557" lon="5.93731">
        <ele>460</ele>
        <time>2018-05-18T09:07:06</time>
      </trkpt>
      <trkpt lat="43.34565" lon="5.93706">
        <ele>460</ele>
        <time>2018-05-18T09:07:12</time>
      </trkpt>
      <trkpt lat="43.34574" lon="5.93685">
        <ele>461</ele>
        <time>2018-05-18T09:07:17</time>
      </trkpt>
      <trkpt lat="43.34586" lon="5.93672">
        <ele>463</ele>
        <time>2018-05-18T09:07:22</time>
      </trkpt>
      <trkpt lat="43.34599" lon="5.93661">
        <ele>466</ele>
        <time>2018-05-18T09:07:27</time>
      </trkpt>
      <trkpt lat="43.34607" lon="5.93644">
        <ele>467</ele>
        <time>2018-05-18T09:07:32</time>
      </trkpt>
      <trkpt lat="43.3461" lon="5.93628">
        <ele>466</ele>
        <time>2018-05-18T09:07:37</time>
      </trkpt>
      <trkpt lat="43.34613" lon="5.93606">
        <ele>466</ele>
        <time>2018-05-18T09:07:42</time>
      </trkpt>
      <trkpt lat="43.34614" lon="5.93583">
        <ele>469</ele>
        <time>2018-05-18T09:07:47</time>
      </trkpt>
      <trkpt lat="43.34614" lon="5.93561">
        <ele>472</ele>
        <time>2018-05-18T09:07:52</time>
      </trkpt>
      <trkpt lat="43.34617" lon="5.93542">
        <ele>468</ele>
        <time>2018-05-18T09:07:57</time>
      </trkpt>
      <trkpt lat="43.34617" lon="5.93523">
        <ele>470</ele>
        <time>2018-05-18T09:08:02</time>
      </trkpt>
      <trkpt lat="43.34616" lon="5.93504">
        <ele>475</ele>
        <time>2018-05-18T09:08:07</time>
      </trkpt>
      <trkpt lat="43.34615" lon="5.93486">
        <ele>477</ele>
        <time>2018-05-18T09:08:12</time>
      </trkpt>
      <trkpt lat="43.34613" lon="5.9347">
        <ele>485</ele>
        <time>2018-05-18T09:08:17</time>
      </trkpt>
      <trkpt lat="43.34611" lon="5.93455">
        <ele>487</ele>
        <time>2018-05-18T09:08:22</time>
      </trkpt>
      <trkpt lat="43.34612" lon="5.93442">
        <ele>490</ele>
        <time>2018-05-18T09:08:27</time>
      </trkpt>
      <trkpt lat="43.34615" lon="5.93419">
        <ele>489</ele>
        <time>2018-05-18T09:08:33</time>
      </trkpt>
      <trkpt lat="43.34615" lon="5.934">
        <ele>490</ele>
        <time>2018-05-18T09:08:38</time>
      </trkpt>
      <trkpt lat="43.34617" lon="5.93378">
        <ele>489</ele>
        <time>2018-05-18T09:08:43</time>
      </trkpt>
      <trkpt lat="43.34621" lon="5.93359">
        <ele>487</ele>
        <time>2018-05-18T09:08:48</time>
      </trkpt>
      <trkpt lat="43.34624" lon="5.93343">
        <ele>489</ele>
        <time>2018-05-18T09:08:53</time>
      </trkpt>
      <trkpt lat="43.3463" lon="5.93328">
        <ele>494</ele>
        <time>2018-05-18T09:08:58</time>
      </trkpt>
      <trkpt lat="43.34634" lon="5.93306">
        <ele>493</ele>
        <time>2018-05-18T09:09:03</time>
      </trkpt>
      <trkpt lat="43.34641" lon="5.93289">
        <ele>495</ele>
        <time>2018-05-18T09:09:08</time>
      </trkpt>
      <trkpt lat="43.34652" lon="5.93279">
        <ele>501</ele>
        <time>2018-05-18T09:09:13</time>
      </trkpt>
      <trkpt lat="43.34665" lon="5.93272">
        <ele>504</ele>
        <time>2018-05-18T09:09:18</time>
      </trkpt>
      <trkpt lat="43.34681" lon="5.93263">
        <ele>503</ele>
        <time>2018-05-18T09:09:23</time>
      </trkpt>
      <trkpt lat="43.34694" lon="5.93247">
        <ele>505</ele>
        <time>2018-05-18T09:09:28</time>
      </trkpt>
      <trkpt lat="43.34707" lon="5.93229">
        <ele>504</ele>
        <time>2018-05-18T09:09:33</time>
      </trkpt>
      <trkpt lat="43.34703" lon="5.93198">
        <ele>503</ele>
        <time>2018-05-18T09:09:39</time>
      </trkpt>
      <trkpt lat="43.34694" lon="5.93173">
        <ele>503</ele>
        <time>2018-05-18T09:09:44</time>
      </trkpt>
      <trkpt lat="43.34693" lon="5.93145">
        <ele>501</ele>
        <time>2018-05-18T09:09:49</time>
      </trkpt>
      <trkpt lat="43.34691" lon="5.93135">
        <ele>501</ele>
        <time>2018-05-18T09:09:53</time>
      </trkpt>
      <trkpt lat="43.34705" lon="5.93119">
        <ele>493</ele>
        <time>2018-05-18T09:11:25</time>
      </trkpt>
      <trkpt lat="43.34718" lon="5.93079">
        <ele>491</ele>
        <time>2018-05-18T09:11:30</time>
      </trkpt>
      <trkpt lat="43.34736" lon="5.93033">
        <ele>491</ele>
        <time>2018-05-18T09:11:35</time>
      </trkpt>
      <trkpt lat="43.34756" lon="5.92977">
        <ele>488</ele>
        <time>2018-05-18T09:11:40</time>
      </trkpt>
      <trkpt lat="43.34778" lon="5.92931">
        <ele>488</ele>
        <time>2018-05-18T09:11:45</time>
      </trkpt>
      <trkpt lat="43.34802" lon="5.92897">
        <ele>488</ele>
        <time>2018-05-18T09:11:50</time>
      </trkpt>
      <trkpt lat="43.34806" lon="5.92843">
        <ele>487</ele>
        <time>2018-05-18T09:11:55</time>
      </trkpt>
      <trkpt lat="43.34806" lon="5.92776">
        <ele>483</ele>
        <time>2018-05-18T09:12:00</time>
      </trkpt>
      <trkpt lat="43.34796" lon="5.9271">
        <ele>477</ele>
        <time>2018-05-18T09:12:05</time>
      </trkpt>
      <trkpt lat="43.34795" lon="5.92637">
        <ele>474</ele>
        <time>2018-05-18T09:12:10</time>
      </trkpt>
      <trkpt lat="43.348" lon="5.92564">
        <ele>467</ele>
        <time>2018-05-18T09:12:15</time>
      </trkpt>
      <trkpt lat="43.34781" lon="5.92506">
        <ele>464</ele>
        <time>2018-05-18T09:12:20</time>
      </trkpt>
      <trkpt lat="43.34786" lon="5.92454">
        <ele>463</ele>
        <time>2018-05-18T09:12:25</time>
      </trkpt>
      <trkpt lat="43.34826" lon="5.92438">
        <ele>463</ele>
        <time>2018-05-18T09:12:30</time>
      </trkpt>
      <trkpt lat="43.34871" lon="5.92427">
        <ele>460</ele>
        <time>2018-05-18T09:12:35</time>
      </trkpt>
      <trkpt lat="43.34932" lon="5.92467">
        <ele>462</ele>
        <time>2018-05-18T09:12:41</time>
      </trkpt>
      <trkpt lat="43.34989" lon="5.9249">
        <ele>460</ele>
        <time>2018-05-18T09:12:46</time>
      </trkpt>
      <trkpt lat="43.35024" lon="5.92518">
        <ele>453</ele>
        <time>2018-05-18T09:12:51</time>
      </trkpt>
      <trkpt lat="43.35052" lon="5.92535">
        <ele>450</ele>
        <time>2018-05-18T09:12:56</time>
      </trkpt>
      <trkpt lat="43.35022" lon="5.92498">
        <ele>453</ele>
        <time>2018-05-18T09:13:01</time>
      </trkpt>
      <trkpt lat="43.34984" lon="5.92466">
        <ele>448</ele>
        <time>2018-05-18T09:13:06</time>
      </trkpt>
      <trkpt lat="43.34965" lon="5.92434">
        <ele>446</ele>
        <time>2018-05-18T09:13:11</time>
      </trkpt>
      <trkpt lat="43.34987" lon="5.92442">
        <ele>450</ele>
        <time>2018-05-18T09:13:16</time>
      </trkpt>
      <trkpt lat="43.35018" lon="5.92439">
        <ele>447</ele>
        <time>2018-05-18T09:13:21</time>
      </trkpt>
      <trkpt lat="43.34969" lon="5.92409">
        <ele>445</ele>
        <time>2018-05-18T09:13:26</time>
      </trkpt>
      <trkpt lat="43.34931" lon="5.92383">
        <ele>440</ele>
        <time>2018-05-18T09:13:31</time>
      </trkpt>
      <trkpt lat="43.34917" lon="5.92331">
        <ele>435</ele>
        <time>2018-05-18T09:13:36</time>
      </trkpt>
      <trkpt lat="43.34894" lon="5.92294">
        <ele>431</ele>
        <time>2018-05-18T09:13:41</time>
      </trkpt>
      <trkpt lat="43.34849" lon="5.92292">
        <ele>429</ele>
        <time>2018-05-18T09:13:46</time>
      </trkpt>
      <trkpt lat="43.34811" lon="5.92278">
        <ele>422</ele>
        <time>2018-05-18T09:13:51</time>
      </trkpt>
      <trkpt lat="43.34782" lon="5.92271">
        <ele>421</ele>
        <time>2018-05-18T09:13:56</time>
      </trkpt>
      <trkpt lat="43.34756" lon="5.92263">
        <ele>421</ele>
        <time>2018-05-18T09:14:02</time>
      </trkpt>
      <trkpt lat="43.34765" lon="5.92238">
        <ele>419</ele>
        <time>2018-05-18T09:14:07</time>
      </trkpt>
      <trkpt lat="43.3478" lon="5.92218">
        <ele>420</ele>
        <time>2018-05-18T09:14:12</time>
      </trkpt>
      <trkpt lat="43.34815" lon="5.92206">
        <ele>420</ele>
        <time>2018-05-18T09:14:17</time>
      </trkpt>
      <trkpt lat="43.3485" lon="5.92193">
        <ele>417</ele>
        <time>2018-05-18T09:14:22</time>
      </trkpt>
      <trkpt lat="43.3488" lon="5.9218">
        <ele>417</ele>
        <time>2018-05-18T09:14:27</time>
      </trkpt>
      <trkpt lat="43.3491" lon="5.92173">
        <ele>417</ele>
        <time>2018-05-18T09:14:32</time>
      </trkpt>
      <trkpt lat="43.34944" lon="5.92166">
        <ele>414</ele>
        <time>2018-05-18T09:14:37</time>
      </trkpt>
      <trkpt lat="43.34983" lon="5.92158">
        <ele>413</ele>
        <time>2018-05-18T09:14:42</time>
      </trkpt>
      <trkpt lat="43.3502" lon="5.92167">
        <ele>411</ele>
        <time>2018-05-18T09:14:47</time>
      </trkpt>
      <trkpt lat="43.35054" lon="5.92196">
        <ele>410</ele>
        <time>2018-05-18T09:14:52</time>
      </trkpt>
      <trkpt lat="43.35091" lon="5.92231">
        <ele>408</ele>
        <time>2018-05-18T09:14:57</time>
      </trkpt>
      <trkpt lat="43.3513" lon="5.92268">
        <ele>405</ele>
        <time>2018-05-18T09:15:02</time>
      </trkpt>
      <trkpt lat="43.35164" lon="5.92313">
        <ele>400</ele>
        <time>2018-05-18T09:15:07</time>
      </trkpt>
      <trkpt lat="43.35208" lon="5.92369">
        <ele>388</ele>
        <time>2018-05-18T09:15:12</time>
      </trkpt>
      <trkpt lat="43.3525" lon="5.92384">
        <ele>394</ele>
        <time>2018-05-18T09:15:18</time>
      </trkpt>
      <trkpt lat="43.353" lon="5.92379">
        <ele>393</ele>
        <time>2018-05-18T09:15:23</time>
      </trkpt>
      <trkpt lat="43.35341" lon="5.92395">
        <ele>391</ele>
        <time>2018-05-18T09:15:28</time>
      </trkpt>
      <trkpt lat="43.3538" lon="5.92424">
        <ele>389</ele>
        <time>2018-05-18T09:15:33</time>
      </trkpt>
      <trkpt lat="43.35414" lon="5.92465">
        <ele>388</ele>
        <time>2018-05-18T09:15:38</time>
      </trkpt>
      <trkpt lat="43.35444" lon="5.92511">
        <ele>388</ele>
        <time>2018-05-18T09:15:43</time>
      </trkpt>
      <trkpt lat="43.35472" lon="5.92558">
        <ele>386</ele>
        <time>2018-05-18T09:15:48</time>
      </trkpt>
      <trkpt lat="43.355" lon="5.92599">
        <ele>388</ele>
        <time>2018-05-18T09:15:53</time>
      </trkpt>
      <trkpt lat="43.35528" lon="5.92645">
        <ele>384</ele>
        <time>2018-05-18T09:15:58</time>
      </trkpt>
      <trkpt lat="43.35549" lon="5.92693">
        <ele>385</ele>
        <time>2018-05-18T09:16:03</time>
      </trkpt>
      <trkpt lat="43.35565" lon="5.92745">
        <ele>384</ele>
        <time>2018-05-18T09:16:08</time>
      </trkpt>
      <trkpt lat="43.35577" lon="5.92794">
        <ele>383</ele>
        <time>2018-05-18T09:16:13</time>
      </trkpt>
      <trkpt lat="43.35589" lon="5.92845">
        <ele>384</ele>
        <time>2018-05-18T09:16:18</time>
      </trkpt>
      <trkpt lat="43.35601" lon="5.92892">
        <ele>385</ele>
        <time>2018-05-18T09:16:23</time>
      </trkpt>
      <trkpt lat="43.35622" lon="5.92953">
        <ele>383</ele>
        <time>2018-05-18T09:16:29</time>
      </trkpt>
      <trkpt lat="43.35637" lon="5.93003">
        <ele>384</ele>
        <time>2018-05-18T09:16:34</time>
      </trkpt>
      <trkpt lat="43.35653" lon="5.93056">
        <ele>384</ele>
        <time>2018-05-18T09:16:39</time>
      </trkpt>
      <trkpt lat="43.35662" lon="5.93111">
        <ele>382</ele>
        <time>2018-05-18T09:16:44</time>
      </trkpt>
      <trkpt lat="43.3566" lon="5.93164">
        <ele>381</ele>
        <time>2018-05-18T09:16:49</time>
      </trkpt>
      <trkpt lat="43.35665" lon="5.93214">
        <ele>381</ele>
        <time>2018-05-18T09:16:54</time>
      </trkpt>
      <trkpt lat="43.35671" lon="5.9326">
        <ele>381</ele>
        <time>2018-05-18T09:16:59</time>
      </trkpt>
      <trkpt lat="43.35685" lon="5.93311">
        <ele>377</ele>
        <time>2018-05-18T09:17:04</time>
      </trkpt>
      <trkpt lat="43.35696" lon="5.93354">
        <ele>379</ele>
        <time>2018-05-18T09:17:09</time>
      </trkpt>
      <trkpt lat="43.35706" lon="5.93395">
        <ele>380</ele>
        <time>2018-05-18T09:17:14</time>
      </trkpt>
      <trkpt lat="43.35707" lon="5.93433">
        <ele>384</ele>
        <time>2018-05-18T09:17:19</time>
      </trkpt>
      <trkpt lat="43.35718" lon="5.93472">
        <ele>382</ele>
        <time>2018-05-18T09:17:24</time>
      </trkpt>
      <trkpt lat="43.35721" lon="5.93511">
        <ele>382</ele>
        <time>2018-05-18T09:17:29</time>
      </trkpt>
      <trkpt lat="43.35724" lon="5.93544">
        <ele>382</ele>
        <time>2018-05-18T09:17:34</time>
      </trkpt>
      <trkpt lat="43.35724" lon="5.93576">
        <ele>382</ele>
        <time>2018-05-18T09:17:39</time>
      </trkpt>
      <trkpt lat="43.35735" lon="5.93608">
        <ele>385</ele>
        <time>2018-05-18T09:17:44</time>
      </trkpt>
      <trkpt lat="43.35737" lon="5.93643">
        <ele>391</ele>
        <time>2018-05-18T09:17:50</time>
      </trkpt>
      <trkpt lat="43.35745" lon="5.93678">
        <ele>388</ele>
        <time>2018-05-18T09:17:55</time>
      </trkpt>
      <trkpt lat="43.35749" lon="5.93706">
        <ele>387</ele>
        <time>2018-05-18T09:18:00</time>
      </trkpt>
      <trkpt lat="43.35754" lon="5.93735">
        <ele>391</ele>
        <time>2018-05-18T09:18:05</time>
      </trkpt>
      <trkpt lat="43.35759" lon="5.93763">
        <ele>395</ele>
        <time>2018-05-18T09:18:10</time>
      </trkpt>
      <trkpt lat="43.3577" lon="5.93794">
        <ele>393</ele>
        <time>2018-05-18T09:18:15</time>
      </trkpt>
      <trkpt lat="43.3578" lon="5.93828">
        <ele>394</ele>
        <time>2018-05-18T09:18:20</time>
      </trkpt>
      <trkpt lat="43.35789" lon="5.93863">
        <ele>391</ele>
        <time>2018-05-18T09:18:25</time>
      </trkpt>
      <trkpt lat="43.358" lon="5.9389">
        <ele>389</ele>
        <time>2018-05-18T09:18:30</time>
      </trkpt>
      <trkpt lat="43.35812" lon="5.93916">
        <ele>391</ele>
        <time>2018-05-18T09:18:35</time>
      </trkpt>
      <trkpt lat="43.35829" lon="5.93939">
        <ele>391</ele>
        <time>2018-05-18T09:18:40</time>
      </trkpt>
      <trkpt lat="43.35848" lon="5.93966">
        <ele>395</ele>
        <time>2018-05-18T09:18:45</time>
      </trkpt>
      <trkpt lat="43.35866" lon="5.94">
        <ele>395</ele>
        <time>2018-05-18T09:18:50</time>
      </trkpt>
      <trkpt lat="43.35888" lon="5.94037">
        <ele>397</ele>
        <time>2018-05-18T09:18:55</time>
      </trkpt>
      <trkpt lat="43.35914" lon="5.94091">
        <ele>394</ele>
        <time>2018-05-18T09:19:01</time>
      </trkpt>
      <trkpt lat="43.35936" lon="5.94135">
        <ele>394</ele>
        <time>2018-05-18T09:19:06</time>
      </trkpt>
      <trkpt lat="43.3596" lon="5.94185">
        <ele>392</ele>
        <time>2018-05-18T09:19:11</time>
      </trkpt>
      <trkpt lat="43.35985" lon="5.94232">
        <ele>390</ele>
        <time>2018-05-18T09:19:16</time>
      </trkpt>
      <trkpt lat="43.36007" lon="5.9428">
        <ele>392</ele>
        <time>2018-05-18T09:19:21</time>
      </trkpt>
      <trkpt lat="43.36025" lon="5.94335">
        <ele>391</ele>
        <time>2018-05-18T09:19:26</time>
      </trkpt>
      <trkpt lat="43.36045" lon="5.94386">
        <ele>388</ele>
        <time>2018-05-18T09:19:31</time>
      </trkpt>
      <trkpt lat="43.36056" lon="5.94436">
        <ele>386</ele>
        <time>2018-05-18T09:19:36</time>
      </trkpt>
      <trkpt lat="43.36065" lon="5.94487">
        <ele>386</ele>
        <time>2018-05-18T09:19:41</time>
      </trkpt>
      <trkpt lat="43.36071" lon="5.94529">
        <ele>389</ele>
        <time>2018-05-18T09:19:46</time>
      </trkpt>
      <trkpt lat="43.36081" lon="5.94568">
        <ele>389</ele>
        <time>2018-05-18T09:19:51</time>
      </trkpt>
      <trkpt lat="43.36093" lon="5.94604">
        <ele>388</ele>
        <time>2018-05-18T09:19:56</time>
      </trkpt>
      <trkpt lat="43.36106" lon="5.94645">
        <ele>384</ele>
        <time>2018-05-18T09:20:01</time>
      </trkpt>
      <trkpt lat="43.36119" lon="5.94688">
        <ele>384</ele>
        <time>2018-05-18T09:20:06</time>
      </trkpt>
      <trkpt lat="43.36127" lon="5.94723">
        <ele>387</ele>
        <time>2018-05-18T09:20:11</time>
      </trkpt>
      <trkpt lat="43.36132" lon="5.94751">
        <ele>391</ele>
        <time>2018-05-18T09:20:16</time>
      </trkpt>
      <trkpt lat="43.36136" lon="5.94789">
        <ele>393</ele>
        <time>2018-05-18T09:20:22</time>
      </trkpt>
      <trkpt lat="43.36145" lon="5.94821">
        <ele>396</ele>
        <time>2018-05-18T09:20:27</time>
      </trkpt>
      <trkpt lat="43.36156" lon="5.94853">
        <ele>397</ele>
        <time>2018-05-18T09:20:32</time>
      </trkpt>
      <trkpt lat="43.36168" lon="5.94883">
        <ele>399</ele>
        <time>2018-05-18T09:20:37</time>
      </trkpt>
      <trkpt lat="43.36181" lon="5.94921">
        <ele>396</ele>
        <time>2018-05-18T09:20:42</time>
      </trkpt>
      <trkpt lat="43.36191" lon="5.94945">
        <ele>396</ele>
        <time>2018-05-18T09:20:47</time>
      </trkpt>
      <trkpt lat="43.362" lon="5.94973">
        <ele>396</ele>
        <time>2018-05-18T09:20:52</time>
      </trkpt>
      <trkpt lat="43.36208" lon="5.95003">
        <ele>397</ele>
        <time>2018-05-18T09:20:57</time>
      </trkpt>
      <trkpt lat="43.36217" lon="5.95027">
        <ele>399</ele>
        <time>2018-05-18T09:21:02</time>
      </trkpt>
      <trkpt lat="43.36227" lon="5.9506">
        <ele>400</ele>
        <time>2018-05-18T09:21:07</time>
      </trkpt>
      <trkpt lat="43.36227" lon="5.95088">
        <ele>395</ele>
        <time>2018-05-18T09:21:12</time>
      </trkpt>
      <trkpt lat="43.36236" lon="5.9512">
        <ele>398</ele>
        <time>2018-05-18T09:21:17</time>
      </trkpt>
      <trkpt lat="43.36243" lon="5.95155">
        <ele>401</ele>
        <time>2018-05-18T09:21:22</time>
      </trkpt>
      <trkpt lat="43.36251" lon="5.95191">
        <ele>401</ele>
        <time>2018-05-18T09:21:27</time>
      </trkpt>
      <trkpt lat="43.36258" lon="5.95222">
        <ele>400</ele>
        <time>2018-05-18T09:21:32</time>
      </trkpt>
      <trkpt lat="43.36259" lon="5.95249">
        <ele>401</ele>
        <time>2018-05-18T09:21:38</time>
      </trkpt>
      <trkpt lat="43.36259" lon="5.95267">
        <ele>402</ele>
        <time>2018-05-18T09:21:43</time>
      </trkpt>
      <trkpt lat="43.36265" lon="5.95274">
        <ele>405</ele>
        <time>2018-05-18T09:22:59</time>
      </trkpt>
      <trkpt lat="43.36268" lon="5.95298">
        <ele>409</ele>
        <time>2018-05-18T09:24:45</time>
      </trkpt>
      <trkpt lat="43.36284" lon="5.95334">
        <ele>407</ele>
        <time>2018-05-18T09:24:50</time>
      </trkpt>
      <trkpt lat="43.36299" lon="5.95364">
        <ele>406</ele>
        <time>2018-05-18T09:24:55</time>
      </trkpt>
      <trkpt lat="43.36319" lon="5.95386">
        <ele>405</ele>
        <time>2018-05-18T09:25:00</time>
      </trkpt>
      <trkpt lat="43.36345" lon="5.95407">
        <ele>404</ele>
        <time>2018-05-18T09:25:05</time>
      </trkpt>
      <trkpt lat="43.36373" lon="5.9542">
        <ele>398</ele>
        <time>2018-05-18T09:25:10</time>
      </trkpt>
      <trkpt lat="43.36398" lon="5.95441">
        <ele>401</ele>
        <time>2018-05-18T09:25:15</time>
      </trkpt>
      <trkpt lat="43.3642" lon="5.95464">
        <ele>407</ele>
        <time>2018-05-18T09:25:20</time>
      </trkpt>
      <trkpt lat="43.36442" lon="5.95495">
        <ele>408</ele>
        <time>2018-05-18T09:25:26</time>
      </trkpt>
      <trkpt lat="43.3646" lon="5.95518">
        <ele>410</ele>
        <time>2018-05-18T09:25:31</time>
      </trkpt>
      <trkpt lat="43.36479" lon="5.95538">
        <ele>413</ele>
        <time>2018-05-18T09:25:36</time>
      </trkpt>
      <trkpt lat="43.36494" lon="5.95547">
        <ele>414</ele>
        <time>2018-05-18T09:25:41</time>
      </trkpt>
      <trkpt lat="43.36508" lon="5.95558">
        <ele>420</ele>
        <time>2018-05-18T09:25:46</time>
      </trkpt>
      <trkpt lat="43.36528" lon="5.95577">
        <ele>420</ele>
        <time>2018-05-18T09:25:51</time>
      </trkpt>
      <trkpt lat="43.36548" lon="5.95596">
        <ele>420</ele>
        <time>2018-05-18T09:25:56</time>
      </trkpt>
      <trkpt lat="43.36567" lon="5.95618">
        <ele>419</ele>
        <time>2018-05-18T09:26:01</time>
      </trkpt>
      <trkpt lat="43.36583" lon="5.95642">
        <ele>419</ele>
        <time>2018-05-18T09:26:06</time>
      </trkpt>
      <trkpt lat="43.36598" lon="5.95668">
        <ele>417</ele>
        <time>2018-05-18T09:26:11</time>
      </trkpt>
      <trkpt lat="43.36611" lon="5.95693">
        <ele>418</ele>
        <time>2018-05-18T09:26:16</time>
      </trkpt>
      <trkpt lat="43.36628" lon="5.95719">
        <ele>416</ele>
        <time>2018-05-18T09:26:21</time>
      </trkpt>
      <trkpt lat="43.36645" lon="5.95738">
        <ele>416</ele>
        <time>2018-05-18T09:26:26</time>
      </trkpt>
      <trkpt lat="43.36662" lon="5.95756">
        <ele>418</ele>
        <time>2018-05-18T09:26:31</time>
      </trkpt>
      <trkpt lat="43.36685" lon="5.95788">
        <ele>418</ele>
        <time>2018-05-18T09:26:36</time>
      </trkpt>
      <trkpt lat="43.36718" lon="5.9583">
        <ele>418</ele>
        <time>2018-05-18T09:26:42</time>
      </trkpt>
      <trkpt lat="43.36744" lon="5.9587">
        <ele>420</ele>
        <time>2018-05-18T09:26:47</time>
      </trkpt>
      <trkpt lat="43.36767" lon="5.95914">
        <ele>422</ele>
        <time>2018-05-18T09:26:52</time>
      </trkpt>
      <trkpt lat="43.3679" lon="5.95957">
        <ele>425</ele>
        <time>2018-05-18T09:26:57</time>
      </trkpt>
      <trkpt lat="43.36828" lon="5.96">
        <ele>424</ele>
        <time>2018-05-18T09:27:02</time>
      </trkpt>
      <trkpt lat="43.36863" lon="5.96066">
        <ele>421</ele>
        <time>2018-05-18T09:27:07</time>
      </trkpt>
      <trkpt lat="43.36893" lon="5.96142">
        <ele>412</ele>
        <time>2018-05-18T09:27:12</time>
      </trkpt>
      <trkpt lat="43.36914" lon="5.96212">
        <ele>408</ele>
        <time>2018-05-18T09:27:17</time>
      </trkpt>
      <trkpt lat="43.3696" lon="5.96266">
        <ele>398</ele>
        <time>2018-05-18T09:27:22</time>
      </trkpt>
      <trkpt lat="43.37004" lon="5.96327">
        <ele>393</ele>
        <time>2018-05-18T09:27:27</time>
      </trkpt>
      <trkpt lat="43.37046" lon="5.96392">
        <ele>390</ele>
        <time>2018-05-18T09:27:32</time>
      </trkpt>
      <trkpt lat="43.37075" lon="5.96475">
        <ele>385</ele>
        <time>2018-05-18T09:27:37</time>
      </trkpt>
      <trkpt lat="43.37094" lon="5.96559">
        <ele>379</ele>
        <time>2018-05-18T09:27:42</time>
      </trkpt>
      <trkpt lat="43.37107" lon="5.96634">
        <ele>373</ele>
        <time>2018-05-18T09:27:47</time>
      </trkpt>
      <trkpt lat="43.37141" lon="5.9673">
        <ele>365</ele>
        <time>2018-05-18T09:27:53</time>
      </trkpt>
      <trkpt lat="43.3717" lon="5.96807">
        <ele>362</ele>
        <time>2018-05-18T09:27:58</time>
      </trkpt>
      <trkpt lat="43.37196" lon="5.96885">
        <ele>357</ele>
        <time>2018-05-18T09:28:03</time>
      </trkpt>
      <trkpt lat="43.37218" lon="5.96961">
        <ele>346</ele>
        <time>2018-05-18T09:28:08</time>
      </trkpt>
      <trkpt lat="43.37226" lon="5.97045">
        <ele>335</ele>
        <time>2018-05-18T09:28:13</time>
      </trkpt>
      <trkpt lat="43.37231" lon="5.97113">
        <ele>334</ele>
        <time>2018-05-18T09:28:18</time>
      </trkpt>
      <trkpt lat="43.37231" lon="5.97168">
        <ele>329</ele>
        <time>2018-05-18T09:28:23</time>
      </trkpt>
      <trkpt lat="43.3723" lon="5.97208">
        <ele>329</ele>
        <time>2018-05-18T09:28:28</time>
      </trkpt>
      <trkpt lat="43.37248" lon="5.97261">
        <ele>328</ele>
        <time>2018-05-18T09:28:33</time>
      </trkpt>
      <trkpt lat="43.37208" lon="5.97295">
        <ele>331</ele>
        <time>2018-05-18T09:28:38</time>
      </trkpt>
      <trkpt lat="43.37167" lon="5.97327">
        <ele>333</ele>
        <time>2018-05-18T09:28:43</time>
      </trkpt>
      <trkpt lat="43.37118" lon="5.97338">
        <ele>334</ele>
        <time>2018-05-18T09:28:48</time>
      </trkpt>
      <trkpt lat="43.3709" lon="5.97375">
        <ele>337</ele>
        <time>2018-05-18T09:28:53</time>
      </trkpt>
      <trkpt lat="43.37119" lon="5.974">
        <ele>333</ele>
        <time>2018-05-18T09:28:58</time>
      </trkpt>
      <trkpt lat="43.37169" lon="5.97398">
        <ele>329</ele>
        <time>2018-05-18T09:29:03</time>
      </trkpt>
      <trkpt lat="43.37225" lon="5.97396">
        <ele>328</ele>
        <time>2018-05-18T09:29:08</time>
      </trkpt>
      <trkpt lat="43.37288" lon="5.97384">
        <ele>325</ele>
        <time>2018-05-18T09:29:14</time>
      </trkpt>
      <trkpt lat="43.37339" lon="5.97379">
        <ele>326</ele>
        <time>2018-05-18T09:29:19</time>
      </trkpt>
      <trkpt lat="43.37385" lon="5.9742">
        <ele>322</ele>
        <time>2018-05-18T09:29:24</time>
      </trkpt>
      <trkpt lat="43.37436" lon="5.97461">
        <ele>319</ele>
        <time>2018-05-18T09:29:29</time>
      </trkpt>
      <trkpt lat="43.37502" lon="5.97465">
        <ele>308</ele>
        <time>2018-05-18T09:29:34</time>
      </trkpt>
      <trkpt lat="43.3756" lon="5.97448">
        <ele>309</ele>
        <time>2018-05-18T09:29:39</time>
      </trkpt>
      <trkpt lat="43.37616" lon="5.97445">
        <ele>303</ele>
        <time>2018-05-18T09:29:44</time>
      </trkpt>
      <trkpt lat="43.37663" lon="5.97476">
        <ele>301</ele>
        <time>2018-05-18T09:29:49</time>
      </trkpt>
      <trkpt lat="43.37709" lon="5.97507">
        <ele>303</ele>
        <time>2018-05-18T09:29:54</time>
      </trkpt>
      <trkpt lat="43.37753" lon="5.97542">
        <ele>305</ele>
        <time>2018-05-18T09:29:59</time>
      </trkpt>
      <trkpt lat="43.37802" lon="5.97569">
        <ele>305</ele>
        <time>2018-05-18T09:30:04</time>
      </trkpt>
      <trkpt lat="43.37852" lon="5.97598">
        <ele>301</ele>
        <time>2018-05-18T09:30:09</time>
      </trkpt>
      <trkpt lat="43.37904" lon="5.97629">
        <ele>299</ele>
        <time>2018-05-18T09:30:14</time>
      </trkpt>
      <trkpt lat="43.37955" lon="5.97661">
        <ele>298</ele>
        <time>2018-05-18T09:30:19</time>
      </trkpt>
      <trkpt lat="43.38019" lon="5.97702">
        <ele>292</ele>
        <time>2018-05-18T09:30:25</time>
      </trkpt>
      <trkpt lat="43.38074" lon="5.97736">
        <ele>290</ele>
        <time>2018-05-18T09:30:30</time>
      </trkpt>
      <trkpt lat="43.38128" lon="5.97772">
        <ele>288</ele>
        <time>2018-05-18T09:30:35</time>
      </trkpt>
      <trkpt lat="43.38185" lon="5.97808">
        <ele>282</ele>
        <time>2018-05-18T09:30:40</time>
      </trkpt>
      <trkpt lat="43.38233" lon="5.97845">
        <ele>278</ele>
        <time>2018-05-18T09:30:45</time>
      </trkpt>
      <trkpt lat="43.38284" lon="5.97882">
        <ele>273</ele>
        <time>2018-05-18T09:30:50</time>
      </trkpt>
      <trkpt lat="43.3834" lon="5.97859">
        <ele>270</ele>
        <time>2018-05-18T09:30:55</time>
      </trkpt>
      <trkpt lat="43.38397" lon="5.97845">
        <ele>265</ele>
        <time>2018-05-18T09:31:00</time>
      </trkpt>
      <trkpt lat="43.38456" lon="5.97834">
        <ele>264</ele>
        <time>2018-05-18T09:31:05</time>
      </trkpt>
      <trkpt lat="43.38511" lon="5.97823">
        <ele>264</ele>
        <time>2018-05-18T09:31:10</time>
      </trkpt>
      <trkpt lat="43.38565" lon="5.97808">
        <ele>262</ele>
        <time>2018-05-18T09:31:15</time>
      </trkpt>
      <trkpt lat="43.38619" lon="5.97796">
        <ele>260</ele>
        <time>2018-05-18T09:31:20</time>
      </trkpt>
      <trkpt lat="43.38674" lon="5.97782">
        <ele>260</ele>
        <time>2018-05-18T09:31:25</time>
      </trkpt>
      <trkpt lat="43.3873" lon="5.97773">
        <ele>262</ele>
        <time>2018-05-18T09:31:30</time>
      </trkpt>
      <trkpt lat="43.38782" lon="5.97758">
        <ele>265</ele>
        <time>2018-05-18T09:31:36</time>
      </trkpt>
      <trkpt lat="43.38823" lon="5.9774">
        <ele>262</ele>
        <time>2018-05-18T09:31:41</time>
      </trkpt>
      <trkpt lat="43.38872" lon="5.97718">
        <ele>255</ele>
        <time>2018-05-18T09:31:46</time>
      </trkpt>
      <trkpt lat="43.38907" lon="5.97699">
        <ele>253</ele>
        <time>2018-05-18T09:31:51</time>
      </trkpt>
      <trkpt lat="43.38943" lon="5.97705">
        <ele>254</ele>
        <time>2018-05-18T09:31:56</time>
      </trkpt>
      <trkpt lat="43.38966" lon="5.9776">
        <ele>255</ele>
        <time>2018-05-18T09:32:01</time>
      </trkpt>
      <trkpt lat="43.38974" lon="5.97818">
        <ele>256</ele>
        <time>2018-05-18T09:32:06</time>
      </trkpt>
      <trkpt lat="43.39005" lon="5.97855">
        <ele>256</ele>
        <time>2018-05-18T09:32:11</time>
      </trkpt>
      <trkpt lat="43.39037" lon="5.97892">
        <ele>255</ele>
        <time>2018-05-18T09:32:16</time>
      </trkpt>
      <trkpt lat="43.39068" lon="5.97931">
        <ele>254</ele>
        <time>2018-05-18T09:32:21</time>
      </trkpt>
      <trkpt lat="43.39099" lon="5.97971">
        <ele>254</ele>
        <time>2018-05-18T09:32:26</time>
      </trkpt>
      <trkpt lat="43.3913" lon="5.98008">
        <ele>256</ele>
        <time>2018-05-18T09:32:31</time>
      </trkpt>
      <trkpt lat="43.39162" lon="5.98046">
        <ele>256</ele>
        <time>2018-05-18T09:32:36</time>
      </trkpt>
      <trkpt lat="43.39195" lon="5.98085">
        <ele>253</ele>
        <time>2018-05-18T09:32:41</time>
      </trkpt>
      <trkpt lat="43.3923" lon="5.98127">
        <ele>250</ele>
        <time>2018-05-18T09:32:46</time>
      </trkpt>
      <trkpt lat="43.39265" lon="5.98169">
        <ele>250</ele>
        <time>2018-05-18T09:32:51</time>
      </trkpt>
      <trkpt lat="43.393" lon="5.98208">
        <ele>249</ele>
        <time>2018-05-18T09:32:56</time>
      </trkpt>
      <trkpt lat="43.39343" lon="5.98253">
        <ele>250</ele>
        <time>2018-05-18T09:33:02</time>
      </trkpt>
      <trkpt lat="43.39375" lon="5.98301">
        <ele>248</ele>
        <time>2018-05-18T09:33:07</time>
      </trkpt>
      <trkpt lat="43.39402" lon="5.98355">
        <ele>247</ele>
        <time>2018-05-18T09:33:12</time>
      </trkpt>
      <trkpt lat="43.39428" lon="5.98411">
        <ele>247</ele>
        <time>2018-05-18T09:33:17</time>
      </trkpt>
      <trkpt lat="43.39449" lon="5.98468">
        <ele>247</ele>
        <time>2018-05-18T09:33:22</time>
      </trkpt>
      <trkpt lat="43.39469" lon="5.98523">
        <ele>247</ele>
        <time>2018-05-18T09:33:27</time>
      </trkpt>
      <trkpt lat="43.39492" lon="5.9858">
        <ele>244</ele>
        <time>2018-05-18T09:33:32</time>
      </trkpt>
      <trkpt lat="43.39514" lon="5.98635">
        <ele>242</ele>
        <time>2018-05-18T09:33:37</time>
      </trkpt>
      <trkpt lat="43.39535" lon="5.98689">
        <ele>243</ele>
        <time>2018-05-18T09:33:42</time>
      </trkpt>
      <trkpt lat="43.39553" lon="5.98746">
        <ele>245</ele>
        <time>2018-05-18T09:33:47</time>
      </trkpt>
      <trkpt lat="43.3957" lon="5.98805">
        <ele>241</ele>
        <time>2018-05-18T09:33:52</time>
      </trkpt>
      <trkpt lat="43.39583" lon="5.98863">
        <ele>243</ele>
        <time>2018-05-18T09:33:57</time>
      </trkpt>
      <trkpt lat="43.39599" lon="5.9892">
        <ele>240</ele>
        <time>2018-05-18T09:34:02</time>
      </trkpt>
      <trkpt lat="43.39622" lon="5.98973">
        <ele>239</ele>
        <time>2018-05-18T09:34:07</time>
      </trkpt>
      <trkpt lat="43.39647" lon="5.99026">
        <ele>237</ele>
        <time>2018-05-18T09:34:12</time>
      </trkpt>
      <trkpt lat="43.39662" lon="5.99069">
        <ele>239</ele>
        <time>2018-05-18T09:34:17</time>
      </trkpt>
      <trkpt lat="43.39685" lon="5.99126">
        <ele>242</ele>
        <time>2018-05-18T09:34:23</time>
      </trkpt>
      <trkpt lat="43.39705" lon="5.99184">
        <ele>241</ele>
        <time>2018-05-18T09:34:28</time>
      </trkpt>
      <trkpt lat="43.39728" lon="5.99243">
        <ele>236</ele>
        <time>2018-05-18T09:34:33</time>
      </trkpt>
      <trkpt lat="43.39749" lon="5.99294">
        <ele>238</ele>
        <time>2018-05-18T09:34:38</time>
      </trkpt>
      <trkpt lat="43.39777" lon="5.9934">
        <ele>236</ele>
        <time>2018-05-18T09:34:43</time>
      </trkpt>
      <trkpt lat="43.39803" lon="5.99389">
        <ele>237</ele>
        <time>2018-05-18T09:34:48</time>
      </trkpt>
      <trkpt lat="43.39831" lon="5.9944">
        <ele>238</ele>
        <time>2018-05-18T09:34:53</time>
      </trkpt>
      <trkpt lat="43.39856" lon="5.99493">
        <ele>239</ele>
        <time>2018-05-18T09:34:58</time>
      </trkpt>
      <trkpt lat="43.3988" lon="5.99544">
        <ele>238</ele>
        <time>2018-05-18T09:35:03</time>
      </trkpt>
      <trkpt lat="43.39902" lon="5.99593">
        <ele>239</ele>
        <time>2018-05-18T09:35:08</time>
      </trkpt>
      <trkpt lat="43.39926" lon="5.99644">
        <ele>239</ele>
        <time>2018-05-18T09:35:13</time>
      </trkpt>
      <trkpt lat="43.3995" lon="5.99691">
        <ele>236</ele>
        <time>2018-05-18T09:35:18</time>
      </trkpt>
      <trkpt lat="43.39972" lon="5.9974">
        <ele>234</ele>
        <time>2018-05-18T09:35:23</time>
      </trkpt>
      <trkpt lat="43.39992" lon="5.99787">
        <ele>239</ele>
        <time>2018-05-18T09:35:28</time>
      </trkpt>
      <trkpt lat="43.40007" lon="5.99841">
        <ele>241</ele>
        <time>2018-05-18T09:35:33</time>
      </trkpt>
      <trkpt lat="43.40021" lon="5.99905">
        <ele>241</ele>
        <time>2018-05-18T09:35:39</time>
      </trkpt>
      <trkpt lat="43.40036" lon="5.99962">
        <ele>236</ele>
        <time>2018-05-18T09:35:44</time>
      </trkpt>
      <trkpt lat="43.40057" lon="6.00008">
        <ele>237</ele>
        <time>2018-05-18T09:35:49</time>
      </trkpt>
      <trkpt lat="43.40074" lon="6.00056">
        <ele>237</ele>
        <time>2018-05-18T09:35:54</time>
      </trkpt>
      <trkpt lat="43.40087" lon="6.00104">
        <ele>237</ele>
        <time>2018-05-18T09:35:59</time>
      </trkpt>
      <trkpt lat="43.40095" lon="6.00155">
        <ele>237</ele>
        <time>2018-05-18T09:36:04</time>
      </trkpt>
      <trkpt lat="43.40102" lon="6.00203">
        <ele>237</ele>
        <time>2018-05-18T09:36:09</time>
      </trkpt>
      <trkpt lat="43.40113" lon="6.00253">
        <ele>238</ele>
        <time>2018-05-18T09:36:14</time>
      </trkpt>
      <trkpt lat="43.40123" lon="6.00304">
        <ele>236</ele>
        <time>2018-05-18T09:36:19</time>
      </trkpt>
      <trkpt lat="43.40134" lon="6.00354">
        <ele>235</ele>
        <time>2018-05-18T09:36:24</time>
      </trkpt>
      <trkpt lat="43.40145" lon="6.00405">
        <ele>231</ele>
        <time>2018-05-18T09:36:29</time>
      </trkpt>
      <trkpt lat="43.40154" lon="6.00461">
        <ele>230</ele>
        <time>2018-05-18T09:36:34</time>
      </trkpt>
      <trkpt lat="43.40165" lon="6.00515">
        <ele>228</ele>
        <time>2018-05-18T09:36:39</time>
      </trkpt>
      <trkpt lat="43.40177" lon="6.00562">
        <ele>230</ele>
        <time>2018-05-18T09:36:44</time>
      </trkpt>
      <trkpt lat="43.40202" lon="6.00607">
        <ele>231</ele>
        <time>2018-05-18T09:36:50</time>
      </trkpt>
      <trkpt lat="43.40219" lon="6.00647">
        <ele>233</ele>
        <time>2018-05-18T09:36:55</time>
      </trkpt>
      <trkpt lat="43.40236" lon="6.0069">
        <ele>230</ele>
        <time>2018-05-18T09:37:00</time>
      </trkpt>
      <trkpt lat="43.40245" lon="6.00739">
        <ele>231</ele>
        <time>2018-05-18T09:37:05</time>
      </trkpt>
      <trkpt lat="43.4025" lon="6.00777">
        <ele>236</ele>
        <time>2018-05-18T09:37:10</time>
      </trkpt>
      <trkpt lat="43.40235" lon="6.00812">
        <ele>239</ele>
        <time>2018-05-18T09:37:15</time>
      </trkpt>
      <trkpt lat="43.4023" lon="6.00878">
        <ele>232</ele>
        <time>2018-05-18T09:37:20</time>
      </trkpt>
      <trkpt lat="43.4022" lon="6.0094">
        <ele>233</ele>
        <time>2018-05-18T09:37:25</time>
      </trkpt>
      <trkpt lat="43.40214" lon="6.01008">
        <ele>227</ele>
        <time>2018-05-18T09:37:30</time>
      </trkpt>
      <trkpt lat="43.40206" lon="6.01062">
        <ele>231</ele>
        <time>2018-05-18T09:37:35</time>
      </trkpt>
      <trkpt lat="43.4021" lon="6.01124">
        <ele>227</ele>
        <time>2018-05-18T09:37:40</time>
      </trkpt>
      <trkpt lat="43.40204" lon="6.01176">
        <ele>224</ele>
        <time>2018-05-18T09:37:45</time>
      </trkpt>
      <trkpt lat="43.40183" lon="6.01226">
        <ele>222</ele>
        <time>2018-05-18T09:37:50</time>
      </trkpt>
      <trkpt lat="43.40169" lon="6.01282">
        <ele>213</ele>
        <time>2018-05-18T09:37:55</time>
      </trkpt>
      <trkpt lat="43.40159" lon="6.01339">
        <ele>213</ele>
        <time>2018-05-18T09:38:00</time>
      </trkpt>
      <trkpt lat="43.40147" lon="6.01382">
        <ele>215</ele>
        <time>2018-05-18T09:38:05</time>
      </trkpt>
      <trkpt lat="43.40133" lon="6.01447">
        <ele>216</ele>
        <time>2018-05-18T09:38:11</time>
      </trkpt>
      <trkpt lat="43.40143" lon="6.01505">
        <ele>215</ele>
        <time>2018-05-18T09:38:16</time>
      </trkpt>
      <trkpt lat="43.40167" lon="6.01551">
        <ele>217</ele>
        <time>2018-05-18T09:38:21</time>
      </trkpt>
      <trkpt lat="43.40184" lon="6.016">
        <ele>217</ele>
        <time>2018-05-18T09:38:26</time>
      </trkpt>
      <trkpt lat="43.40197" lon="6.0166">
        <ele>217</ele>
        <time>2018-05-18T09:38:31</time>
      </trkpt>
      <trkpt lat="43.40182" lon="6.01707">
        <ele>216</ele>
        <time>2018-05-18T09:38:36</time>
      </trkpt>
      <trkpt lat="43.40151" lon="6.01741">
        <ele>217</ele>
        <time>2018-05-18T09:38:41</time>
      </trkpt>
      <trkpt lat="43.40124" lon="6.01776">
        <ele>219</ele>
        <time>2018-05-18T09:38:46</time>
      </trkpt>
      <trkpt lat="43.40103" lon="6.01817">
        <ele>216</ele>
        <time>2018-05-18T09:38:51</time>
      </trkpt>
      <trkpt lat="43.40078" lon="6.01861">
        <ele>216</ele>
        <time>2018-05-18T09:38:56</time>
      </trkpt>
      <trkpt lat="43.40056" lon="6.01894">
        <ele>217</ele>
        <time>2018-05-18T09:39:01</time>
      </trkpt>
      <trkpt lat="43.40037" lon="6.01938">
        <ele>218</ele>
        <time>2018-05-18T09:39:06</time>
      </trkpt>
      <trkpt lat="43.40016" lon="6.01985">
        <ele>215</ele>
        <time>2018-05-18T09:39:11</time>
      </trkpt>
      <trkpt lat="43.39997" lon="6.02032">
        <ele>214</ele>
        <time>2018-05-18T09:39:16</time>
      </trkpt>
      <trkpt lat="43.39985" lon="6.02079">
        <ele>216</ele>
        <time>2018-05-18T09:39:21</time>
      </trkpt>
      <trkpt lat="43.39977" lon="6.0214">
        <ele>216</ele>
        <time>2018-05-18T09:39:27</time>
      </trkpt>
      <trkpt lat="43.3997" lon="6.02186">
        <ele>216</ele>
        <time>2018-05-18T09:39:32</time>
      </trkpt>
      <trkpt lat="43.39966" lon="6.02235">
        <ele>219</ele>
        <time>2018-05-18T09:39:37</time>
      </trkpt>
      <trkpt lat="43.39954" lon="6.02278">
        <ele>220</ele>
        <time>2018-05-18T09:39:42</time>
      </trkpt>
      <trkpt lat="43.39931" lon="6.0231">
        <ele>223</ele>
        <time>2018-05-18T09:39:47</time>
      </trkpt>
      <trkpt lat="43.39908" lon="6.02343">
        <ele>224</ele>
        <time>2018-05-18T09:39:52</time>
      </trkpt>
      <trkpt lat="43.39889" lon="6.02382">
        <ele>226</ele>
        <time>2018-05-18T09:39:57</time>
      </trkpt>
      <trkpt lat="43.39877" lon="6.02421">
        <ele>232</ele>
        <time>2018-05-18T09:40:02</time>
      </trkpt>
      <trkpt lat="43.39868" lon="6.02464">
        <ele>231</ele>
        <time>2018-05-18T09:40:07</time>
      </trkpt>
      <trkpt lat="43.39857" lon="6.02504">
        <ele>234</ele>
        <time>2018-05-18T09:40:12</time>
      </trkpt>
      <trkpt lat="43.39855" lon="6.02552">
        <ele>229</ele>
        <time>2018-05-18T09:40:17</time>
      </trkpt>
      <trkpt lat="43.39867" lon="6.02599">
        <ele>225</ele>
        <time>2018-05-18T09:40:22</time>
      </trkpt>
      <trkpt lat="43.39875" lon="6.02634">
        <ele>225</ele>
        <time>2018-05-18T09:40:27</time>
      </trkpt>
      <trkpt lat="43.39892" lon="6.0267">
        <ele>229</ele>
        <time>2018-05-18T09:40:32</time>
      </trkpt>
      <trkpt lat="43.39899" lon="6.02717">
        <ele>231</ele>
        <time>2018-05-18T09:40:37</time>
      </trkpt>
      <trkpt lat="43.39892" lon="6.02768">
        <ele>225</ele>
        <time>2018-05-18T09:40:42</time>
      </trkpt>
      <trkpt lat="43.39883" lon="6.02818">
        <ele>227</ele>
        <time>2018-05-18T09:40:48</time>
      </trkpt>
      <trkpt lat="43.39875" lon="6.02862">
        <ele>230</ele>
        <time>2018-05-18T09:40:53</time>
      </trkpt>
      <trkpt lat="43.39865" lon="6.02916">
        <ele>228</ele>
        <time>2018-05-18T09:40:58</time>
      </trkpt>
      <trkpt lat="43.39849" lon="6.02963">
        <ele>227</ele>
        <time>2018-05-18T09:41:03</time>
      </trkpt>
      <trkpt lat="43.39833" lon="6.0301">
        <ele>229</ele>
        <time>2018-05-18T09:41:08</time>
      </trkpt>
      <trkpt lat="43.39804" lon="6.03056">
        <ele>227</ele>
        <time>2018-05-18T09:41:13</time>
      </trkpt>
      <trkpt lat="43.39771" lon="6.03079">
        <ele>228</ele>
        <time>2018-05-18T09:41:18</time>
      </trkpt>
      <trkpt lat="43.39739" lon="6.03111">
        <ele>226</ele>
        <time>2018-05-18T09:41:23</time>
      </trkpt>
      <trkpt lat="43.39712" lon="6.03145">
        <ele>228</ele>
        <time>2018-05-18T09:41:28</time>
      </trkpt>
      <trkpt lat="43.39689" lon="6.03184">
        <ele>230</ele>
        <time>2018-05-18T09:41:33</time>
      </trkpt>
      <trkpt lat="43.39668" lon="6.0322">
        <ele>229</ele>
        <time>2018-05-18T09:41:38</time>
      </trkpt>
      <trkpt lat="43.39655" lon="6.03263">
        <ele>229</ele>
        <time>2018-05-18T09:41:43</time>
      </trkpt>
      <trkpt lat="43.3964" lon="6.03304">
        <ele>229</ele>
        <time>2018-05-18T09:41:48</time>
      </trkpt>
      <trkpt lat="43.39628" lon="6.03342">
        <ele>224</ele>
        <time>2018-05-18T09:41:53</time>
      </trkpt>
      <trkpt lat="43.39626" lon="6.03395">
        <ele>229</ele>
        <time>2018-05-18T09:41:59</time>
      </trkpt>
      <trkpt lat="43.39627" lon="6.03439">
        <ele>230</ele>
        <time>2018-05-18T09:42:04</time>
      </trkpt>
      <trkpt lat="43.39635" lon="6.03489">
        <ele>229</ele>
        <time>2018-05-18T09:42:09</time>
      </trkpt>
      <trkpt lat="43.39635" lon="6.03537">
        <ele>234</ele>
        <time>2018-05-18T09:42:14</time>
      </trkpt>
      <trkpt lat="43.39634" lon="6.03587">
        <ele>234</ele>
        <time>2018-05-18T09:42:19</time>
      </trkpt>
      <trkpt lat="43.39632" lon="6.03637">
        <ele>231</ele>
        <time>2018-05-18T09:42:24</time>
      </trkpt>
      <trkpt lat="43.39623" lon="6.03688">
        <ele>233</ele>
        <time>2018-05-18T09:42:29</time>
      </trkpt>
      <trkpt lat="43.39614" lon="6.03739">
        <ele>231</ele>
        <time>2018-05-18T09:42:34</time>
      </trkpt>
      <trkpt lat="43.39599" lon="6.03785">
        <ele>232</ele>
        <time>2018-05-18T09:42:39</time>
      </trkpt>
      <trkpt lat="43.3959" lon="6.03834">
        <ele>231</ele>
        <time>2018-05-18T09:42:44</time>
      </trkpt>
      <trkpt lat="43.39588" lon="6.03888">
        <ele>232</ele>
        <time>2018-05-18T09:42:49</time>
      </trkpt>
      <trkpt lat="43.39585" lon="6.03933">
        <ele>235</ele>
        <time>2018-05-18T09:42:54</time>
      </trkpt>
      <trkpt lat="43.39565" lon="6.03955">
        <ele>238</ele>
        <time>2018-05-18T09:42:59</time>
      </trkpt>
      <trkpt lat="43.39541" lon="6.03951">
        <ele>243</ele>
        <time>2018-05-18T09:43:04</time>
      </trkpt>
      <trkpt lat="43.39516" lon="6.03942">
        <ele>243</ele>
        <time>2018-05-18T09:43:09</time>
      </trkpt>
      <trkpt lat="43.3949" lon="6.03934">
        <ele>245</ele>
        <time>2018-05-18T09:43:14</time>
      </trkpt>
      <trkpt lat="43.39452" lon="6.03928">
        <ele>248</ele>
        <time>2018-05-18T09:43:20</time>
      </trkpt>
      <trkpt lat="43.3943" lon="6.03949">
        <ele>244</ele>
        <time>2018-05-18T09:43:25</time>
      </trkpt>
      <trkpt lat="43.39416" lon="6.03974">
        <ele>242</ele>
        <time>2018-05-18T09:43:30</time>
      </trkpt>
      <trkpt lat="43.39409" lon="6.03993">
        <ele>247</ele>
        <time>2018-05-18T09:43:35</time>
      </trkpt>
      <trkpt lat="43.39401" lon="6.04027">
        <ele>246</ele>
        <time>2018-05-18T09:43:40</time>
      </trkpt>
      <trkpt lat="43.394" lon="6.04051">
        <ele>250</ele>
        <time>2018-05-18T09:43:45</time>
      </trkpt>
      <trkpt lat="43.39409" lon="6.04083">
        <ele>247</ele>
        <time>2018-05-18T09:43:50</time>
      </trkpt>
      <trkpt lat="43.3942" lon="6.0411">
        <ele>247</ele>
        <time>2018-05-18T09:43:55</time>
      </trkpt>
      <trkpt lat="43.39432" lon="6.04142">
        <ele>246</ele>
        <time>2018-05-18T09:44:00</time>
      </trkpt>
      <trkpt lat="43.39446" lon="6.04165">
        <ele>246</ele>
        <time>2018-05-18T09:44:05</time>
      </trkpt>
      <trkpt lat="43.39445" lon="6.04202">
        <ele>243</ele>
        <time>2018-05-18T09:44:10</time>
      </trkpt>
      <trkpt lat="43.39442" lon="6.04236">
        <ele>243</ele>
        <time>2018-05-18T09:44:15</time>
      </trkpt>
      <trkpt lat="43.39438" lon="6.04267">
        <ele>244</ele>
        <time>2018-05-18T09:44:20</time>
      </trkpt>
      <trkpt lat="43.3943" lon="6.04304">
        <ele>243</ele>
        <time>2018-05-18T09:44:25</time>
      </trkpt>
      <trkpt lat="43.3942" lon="6.04369">
        <ele>239</ele>
        <time>2018-05-18T09:44:31</time>
      </trkpt>
      <trkpt lat="43.3943" lon="6.04414">
        <ele>239</ele>
        <time>2018-05-18T09:44:36</time>
      </trkpt>
      <trkpt lat="43.39466" lon="6.04452">
        <ele>238</ele>
        <time>2018-05-18T09:44:41</time>
      </trkpt>
      <trkpt lat="43.39505" lon="6.04485">
        <ele>236</ele>
        <time>2018-05-18T09:44:46</time>
      </trkpt>
      <trkpt lat="43.39549" lon="6.04497">
        <ele>235</ele>
        <time>2018-05-18T09:44:51</time>
      </trkpt>
      <trkpt lat="43.39572" lon="6.04524">
        <ele>233</ele>
        <time>2018-05-18T09:44:56</time>
      </trkpt>
      <trkpt lat="43.3958" lon="6.04557">
        <ele>232</ele>
        <time>2018-05-18T09:45:01</time>
      </trkpt>
      <trkpt lat="43.39571" lon="6.04598">
        <ele>230</ele>
        <time>2018-05-18T09:45:06</time>
      </trkpt>
      <trkpt lat="43.39583" lon="6.04633">
        <ele>231</ele>
        <time>2018-05-18T09:45:11</time>
      </trkpt>
      <trkpt lat="43.39612" lon="6.04639">
        <ele>227</ele>
        <time>2018-05-18T09:45:16</time>
      </trkpt>
      <trkpt lat="43.39647" lon="6.04649">
        <ele>224</ele>
        <time>2018-05-18T09:45:21</time>
      </trkpt>
      <trkpt lat="43.39682" lon="6.04655">
        <ele>222</ele>
        <time>2018-05-18T09:45:26</time>
      </trkpt>
      <trkpt lat="43.39723" lon="6.0466">
        <ele>225</ele>
        <time>2018-05-18T09:45:31</time>
      </trkpt>
      <trkpt lat="43.39758" lon="6.04667">
        <ele>225</ele>
        <time>2018-05-18T09:45:36</time>
      </trkpt>
      <trkpt lat="43.39794" lon="6.04675">
        <ele>222</ele>
        <time>2018-05-18T09:45:41</time>
      </trkpt>
      <trkpt lat="43.39835" lon="6.04691">
        <ele>222</ele>
        <time>2018-05-18T09:45:47</time>
      </trkpt>
      <trkpt lat="43.39867" lon="6.0472">
        <ele>221</ele>
        <time>2018-05-18T09:45:52</time>
      </trkpt>
      <trkpt lat="43.39895" lon="6.04758">
        <ele>222</ele>
        <time>2018-05-18T09:45:57</time>
      </trkpt>
      <trkpt lat="43.39919" lon="6.04802">
        <ele>226</ele>
        <time>2018-05-18T09:46:02</time>
      </trkpt>
      <trkpt lat="43.3994" lon="6.04843">
        <ele>226</ele>
        <time>2018-05-18T09:46:07</time>
      </trkpt>
      <trkpt lat="43.39962" lon="6.04885">
        <ele>227</ele>
        <time>2018-05-18T09:46:12</time>
      </trkpt>
      <trkpt lat="43.39985" lon="6.04924">
        <ele>228</ele>
        <time>2018-05-18T09:46:17</time>
      </trkpt>
      <trkpt lat="43.40003" lon="6.04957">
        <ele>227</ele>
        <time>2018-05-18T09:46:22</time>
      </trkpt>
      <trkpt lat="43.40007" lon="6.04965">
        <ele>223</ele>
        <time>2018-05-18T09:46:26</time>
      </trkpt>
      <trkpt lat="43.40011" lon="6.04972">
        <ele>220</ele>
        <time>2018-05-18T09:46:42</time>
      </trkpt>
      <trkpt lat="43.40019" lon="6.04984">
        <ele>219</ele>
        <time>2018-05-18T09:46:47</time>
      </trkpt>
      <trkpt lat="43.40024" lon="6.04992">
        <ele>219</ele>
        <time>2018-05-18T09:46:52</time>
      </trkpt>
      <trkpt lat="43.40032" lon="6.05013">
        <ele>218</ele>
        <time>2018-05-18T09:46:57</time>
      </trkpt>
      <trkpt lat="43.40055" lon="6.05064">
        <ele>219</ele>
        <time>2018-05-18T09:47:03</time>
      </trkpt>
      <trkpt lat="43.40075" lon="6.05122">
        <ele>216</ele>
        <time>2018-05-18T09:47:08</time>
      </trkpt>
      <trkpt lat="43.40087" lon="6.05183">
        <ele>216</ele>
        <time>2018-05-18T09:47:13</time>
      </trkpt>
      <trkpt lat="43.40096" lon="6.0525">
        <ele>214</ele>
        <time>2018-05-18T09:47:18</time>
      </trkpt>
      <trkpt lat="43.40105" lon="6.0532">
        <ele>216</ele>
        <time>2018-05-18T09:47:23</time>
      </trkpt>
      <trkpt lat="43.40131" lon="6.05378">
        <ele>216</ele>
        <time>2018-05-18T09:47:28</time>
      </trkpt>
      <trkpt lat="43.40163" lon="6.05415">
        <ele>217</ele>
        <time>2018-05-18T09:47:33</time>
      </trkpt>
      <trkpt lat="43.40206" lon="6.05444">
        <ele>221</ele>
        <time>2018-05-18T09:47:38</time>
      </trkpt>
      <trkpt lat="43.40252" lon="6.05453">
        <ele>220</ele>
        <time>2018-05-18T09:47:43</time>
      </trkpt>
      <trkpt lat="43.40303" lon="6.05444">
        <ele>218</ele>
        <time>2018-05-18T09:47:48</time>
      </trkpt>
      <trkpt lat="43.40352" lon="6.05427">
        <ele>218</ele>
        <time>2018-05-18T09:47:53</time>
      </trkpt>
      <trkpt lat="43.40398" lon="6.0541">
        <ele>217</ele>
        <time>2018-05-18T09:47:58</time>
      </trkpt>
      <trkpt lat="43.40442" lon="6.05394">
        <ele>222</ele>
        <time>2018-05-18T09:48:03</time>
      </trkpt>
      <trkpt lat="43.40483" lon="6.05383">
        <ele>217</ele>
        <time>2018-05-18T09:48:08</time>
      </trkpt>
      <trkpt lat="43.40517" lon="6.05378">
        <ele>213</ele>
        <time>2018-05-18T09:48:13</time>
      </trkpt>
      <trkpt lat="43.40552" lon="6.05383">
        <ele>210</ele>
        <time>2018-05-18T09:48:18</time>
      </trkpt>
      <trkpt lat="43.40598" lon="6.05394">
        <ele>209</ele>
        <time>2018-05-18T09:48:24</time>
      </trkpt>
      <trkpt lat="43.40637" lon="6.05414">
        <ele>212</ele>
        <time>2018-05-18T09:48:29</time>
      </trkpt>
      <trkpt lat="43.40669" lon="6.05442">
        <ele>212</ele>
        <time>2018-05-18T09:48:34</time>
      </trkpt>
      <trkpt lat="43.40693" lon="6.05468">
        <ele>212</ele>
        <time>2018-05-18T09:48:39</time>
      </trkpt>
      <trkpt lat="43.40709" lon="6.05494">
        <ele>213</ele>
        <time>2018-05-18T09:48:44</time>
      </trkpt>
      <trkpt lat="43.40725" lon="6.05491">
        <ele>216</ele>
        <time>2018-05-18T09:48:49</time>
      </trkpt>
      <trkpt lat="43.40731" lon="6.05452">
        <ele>216</ele>
        <time>2018-05-18T09:48:54</time>
      </trkpt>
      <trkpt lat="43.40735" lon="6.05425">
        <ele>216</ele>
        <time>2018-05-18T09:48:59</time>
      </trkpt>
      <trkpt lat="43.40736" lon="6.05407">
        <ele>216</ele>
        <time>2018-05-18T09:49:04</time>
      </trkpt>
      <trkpt lat="43.40754" lon="6.05425">
        <ele>221</ele>
        <time>2018-05-18T09:49:14</time>
      </trkpt>
      <trkpt lat="43.40781" lon="6.05466">
        <ele>213</ele>
        <time>2018-05-18T09:49:19</time>
      </trkpt>
      <trkpt lat="43.40802" lon="6.05511">
        <ele>216</ele>
        <time>2018-05-18T09:49:24</time>
      </trkpt>
      <trkpt lat="43.40815" lon="6.05558">
        <ele>217</ele>
        <time>2018-05-18T09:49:29</time>
      </trkpt>
      <trkpt lat="43.40817" lon="6.05621">
        <ele>218</ele>
        <time>2018-05-18T09:49:34</time>
      </trkpt>
      <trkpt lat="43.40817" lon="6.05698">
        <ele>216</ele>
        <time>2018-05-18T09:49:40</time>
      </trkpt>
      <trkpt lat="43.40817" lon="6.05757">
        <ele>210</ele>
        <time>2018-05-18T09:49:45</time>
      </trkpt>
      <trkpt lat="43.40817" lon="6.05814">
        <ele>209</ele>
        <time>2018-05-18T09:49:50</time>
      </trkpt>
      <trkpt lat="43.40823" lon="6.05871">
        <ele>211</ele>
        <time>2018-05-18T09:49:55</time>
      </trkpt>
      <trkpt lat="43.40832" lon="6.05923">
        <ele>211</ele>
        <time>2018-05-18T09:50:00</time>
      </trkpt>
      <trkpt lat="43.40845" lon="6.05973">
        <ele>209</ele>
        <time>2018-05-18T09:50:05</time>
      </trkpt>
      <trkpt lat="43.40861" lon="6.06028">
        <ele>210</ele>
        <time>2018-05-18T09:50:10</time>
      </trkpt>
      <trkpt lat="43.40877" lon="6.06075">
        <ele>211</ele>
        <time>2018-05-18T09:50:15</time>
      </trkpt>
      <trkpt lat="43.40894" lon="6.06125">
        <ele>210</ele>
        <time>2018-05-18T09:50:20</time>
      </trkpt>
      <trkpt lat="43.40916" lon="6.06177">
        <ele>210</ele>
        <time>2018-05-18T09:50:25</time>
      </trkpt>
      <trkpt lat="43.40936" lon="6.06219">
        <ele>214</ele>
        <time>2018-05-18T09:50:30</time>
      </trkpt>
      <trkpt lat="43.40946" lon="6.06255">
        <ele>213</ele>
        <time>2018-05-18T09:50:35</time>
      </trkpt>
      <trkpt lat="43.40955" lon="6.06286">
        <ele>216</ele>
        <time>2018-05-18T09:50:40</time>
      </trkpt>
      <trkpt lat="43.40973" lon="6.06327">
        <ele>213</ele>
        <time>2018-05-18T09:50:45</time>
      </trkpt>
      <trkpt lat="43.40992" lon="6.06385">
        <ele>212</ele>
        <time>2018-05-18T09:50:51</time>
      </trkpt>
      <trkpt lat="43.41019" lon="6.06431">
        <ele>209</ele>
        <time>2018-05-18T09:50:56</time>
      </trkpt>
      <trkpt lat="43.41049" lon="6.0647">
        <ele>207</ele>
        <time>2018-05-18T09:51:01</time>
      </trkpt>
      <trkpt lat="43.41077" lon="6.06501">
        <ele>207</ele>
        <time>2018-05-18T09:51:06</time>
      </trkpt>
      <trkpt lat="43.41098" lon="6.06527">
        <ele>213</ele>
        <time>2018-05-18T09:51:11</time>
      </trkpt>
      <trkpt lat="43.4112" lon="6.06556">
        <ele>214</ele>
        <time>2018-05-18T09:51:16</time>
      </trkpt>
      <trkpt lat="43.4114" lon="6.06563">
        <ele>211</ele>
        <time>2018-05-18T09:51:21</time>
      </trkpt>
      <trkpt lat="43.41147" lon="6.06564">
        <ele>207</ele>
        <time>2018-05-18T09:52:07</time>
      </trkpt>
      <trkpt lat="43.4114" lon="6.06564">
        <ele>212</ele>
        <time>2018-05-18T09:54:07</time>
      </trkpt>
      <trkpt lat="43.4114" lon="6.06574">
        <ele>217</ele>
        <time>2018-05-18T09:54:58</time>
      </trkpt>
      <trkpt lat="43.41144" lon="6.06569">
        <ele>221</ele>
        <time>2018-05-18T09:55:17</time>
      </trkpt>
      <trkpt lat="43.41143" lon="6.06577">
        <ele>212</ele>
        <time>2018-05-18T09:55:52</time>
      </trkpt>
      <trkpt lat="43.41147" lon="6.0657">
        <ele>212</ele>
        <time>2018-05-18T09:59:11</time>
      </trkpt>
      <trkpt lat="43.41143" lon="6.06565">
        <ele>206</ele>
        <time>2018-05-18T09:59:23</time>
      </trkpt>
      <trkpt lat="43.41144" lon="6.06557">
        <ele>208</ele>
        <time>2018-05-18T10:01:19</time>
      </trkpt>
      <trkpt lat="43.41142" lon="6.06566">
        <ele>212</ele>
        <time>2018-05-18T10:01:44</time>
      </trkpt>
      <trkpt lat="43.41143" lon="6.06574">
        <ele>225</ele>
        <time>2018-05-18T10:02:20</time>
      </trkpt>
      <trkpt lat="43.41138" lon="6.06578">
        <ele>217</ele>
        <time>2018-05-18T10:03:51</time>
      </trkpt>
      <trkpt lat="43.41143" lon="6.06573">
        <ele>219</ele>
        <time>2018-05-18T10:04:17</time>
      </trkpt>
      <trkpt lat="43.41141" lon="6.06566">
        <ele>194</ele>
        <time>2018-05-18T10:06:30</time>
      </trkpt>
      <trkpt lat="43.41137" lon="6.06572">
        <ele>214</ele>
        <time>2018-05-18T10:07:58</time>
      </trkpt>
      <trkpt lat="43.41137" lon="6.06564">
        <ele>218</ele>
        <time>2018-05-18T10:09:11</time>
      </trkpt>
      <trkpt lat="43.4114" lon="6.06571">
        <ele>214</ele>
        <time>2018-05-18T10:09:31</time>
      </trkpt>
      <trkpt lat="43.41135" lon="6.06575">
        <ele>216</ele>
        <time>2018-05-18T10:10:05</time>
      </trkpt>
      <trkpt lat="43.41147" lon="6.06587">
        <ele>218</ele>
        <time>2018-05-18T10:11:17</time>
      </trkpt>
      <trkpt lat="43.41168" lon="6.0661">
        <ele>215</ele>
        <time>2018-05-18T10:11:22</time>
      </trkpt>
      <trkpt lat="43.41189" lon="6.06632">
        <ele>213</ele>
        <time>2018-05-18T10:11:27</time>
      </trkpt>
      <trkpt lat="43.41216" lon="6.06666">
        <ele>215</ele>
        <time>2018-05-18T10:11:32</time>
      </trkpt>
      <trkpt lat="43.41237" lon="6.06694">
        <ele>217</ele>
        <time>2018-05-18T10:11:37</time>
      </trkpt>
      <trkpt lat="43.41256" lon="6.067">
        <ele>215</ele>
        <time>2018-05-18T10:11:42</time>
      </trkpt>
      <trkpt lat="43.41264" lon="6.067">
        <ele>212</ele>
        <time>2018-05-18T10:11:47</time>
      </trkpt>
      <trkpt lat="43.4127" lon="6.06682">
        <ele>208</ele>
        <time>2018-05-18T10:11:52</time>
      </trkpt>
      <trkpt lat="43.41282" lon="6.06657">
        <ele>203</ele>
        <time>2018-05-18T10:11:57</time>
      </trkpt>
      <trkpt lat="43.4131" lon="6.06648">
        <ele>203</ele>
        <time>2018-05-18T10:12:02</time>
      </trkpt>
      <trkpt lat="43.41329" lon="6.06623">
        <ele>202</ele>
        <time>2018-05-18T10:12:07</time>
      </trkpt>
      <trkpt lat="43.41328" lon="6.06578">
        <ele>200</ele>
        <time>2018-05-18T10:12:12</time>
      </trkpt>
      <trkpt lat="43.41327" lon="6.06545">
        <ele>201</ele>
        <time>2018-05-18T10:12:17</time>
      </trkpt>
      <trkpt lat="43.41324" lon="6.0651">
        <ele>205</ele>
        <time>2018-05-18T10:12:22</time>
      </trkpt>
      <trkpt lat="43.41308" lon="6.06471">
        <ele>205</ele>
        <time>2018-05-18T10:12:28</time>
      </trkpt>
      <trkpt lat="43.41281" lon="6.06471">
        <ele>210</ele>
        <time>2018-05-18T10:12:33</time>
      </trkpt>
      <trkpt lat="43.41256" lon="6.06451">
        <ele>211</ele>
        <time>2018-05-18T10:12:38</time>
      </trkpt>
      <trkpt lat="43.41239" lon="6.06407">
        <ele>211</ele>
        <time>2018-05-18T10:12:43</time>
      </trkpt>
      <trkpt lat="43.41235" lon="6.06353">
        <ele>209</ele>
        <time>2018-05-18T10:12:48</time>
      </trkpt>
      <trkpt lat="43.41223" lon="6.06305">
        <ele>204</ele>
        <time>2018-05-18T10:12:53</time>
      </trkpt>
      <trkpt lat="43.41215" lon="6.06264">
        <ele>206</ele>
        <time>2018-05-18T10:12:58</time>
      </trkpt>
      <trkpt lat="43.41211" lon="6.06245">
        <ele>202</ele>
        <time>2018-05-18T10:13:03</time>
      </trkpt>
      <trkpt lat="43.41209" lon="6.06235">
        <ele>204</ele>
        <time>2018-05-18T10:13:08</time>
      </trkpt>
      <trkpt lat="43.41205" lon="6.06218">
        <ele>207</ele>
        <time>2018-05-18T10:13:18</time>
      </trkpt>
      <trkpt lat="43.41177" lon="6.06215">
        <ele>211</ele>
        <time>2018-05-18T10:13:23</time>
      </trkpt>
      <trkpt lat="43.4114" lon="6.0623">
        <ele>214</ele>
        <time>2018-05-18T10:13:28</time>
      </trkpt>
      <trkpt lat="43.41094" lon="6.06242">
        <ele>211</ele>
        <time>2018-05-18T10:13:33</time>
      </trkpt>
      <trkpt lat="43.41056" lon="6.06255">
        <ele>209</ele>
        <time>2018-05-18T10:13:38</time>
      </trkpt>
      <trkpt lat="43.41008" lon="6.06263">
        <ele>207</ele>
        <time>2018-05-18T10:13:44</time>
      </trkpt>
      <trkpt lat="43.40979" lon="6.06267">
        <ele>207</ele>
        <time>2018-05-18T10:13:49</time>
      </trkpt>
      <trkpt lat="43.40971" lon="6.0627">
        <ele>207</ele>
        <time>2018-05-18T10:13:59</time>
      </trkpt>
      <trkpt lat="43.40958" lon="6.06255">
        <ele>208</ele>
        <time>2018-05-18T10:14:04</time>
      </trkpt>
      <trkpt lat="43.40943" lon="6.06223">
        <ele>209</ele>
        <time>2018-05-18T10:14:09</time>
      </trkpt>
      <trkpt lat="43.40926" lon="6.06179">
        <ele>209</ele>
        <time>2018-05-18T10:14:14</time>
      </trkpt>
      <trkpt lat="43.40906" lon="6.06131">
        <ele>209</ele>
        <time>2018-05-18T10:14:19</time>
      </trkpt>
      <trkpt lat="43.40885" lon="6.06079">
        <ele>211</ele>
        <time>2018-05-18T10:14:24</time>
      </trkpt>
      <trkpt lat="43.40867" lon="6.06025">
        <ele>212</ele>
        <time>2018-05-18T10:14:29</time>
      </trkpt>
      <trkpt lat="43.40852" lon="6.05971">
        <ele>212</ele>
        <time>2018-05-18T10:14:34</time>
      </trkpt>
      <trkpt lat="43.40838" lon="6.05917">
        <ele>212</ele>
        <time>2018-05-18T10:14:39</time>
      </trkpt>
      <trkpt lat="43.40828" lon="6.05865">
        <ele>211</ele>
        <time>2018-05-18T10:14:44</time>
      </trkpt>
      <trkpt lat="43.40821" lon="6.05806">
        <ele>210</ele>
        <time>2018-05-18T10:14:49</time>
      </trkpt>
      <trkpt lat="43.4082" lon="6.05748">
        <ele>208</ele>
        <time>2018-05-18T10:14:54</time>
      </trkpt>
      <trkpt lat="43.40822" lon="6.0568">
        <ele>208</ele>
        <time>2018-05-18T10:15:00</time>
      </trkpt>
      <trkpt lat="43.40823" lon="6.05621">
        <ele>209</ele>
        <time>2018-05-18T10:15:05</time>
      </trkpt>
      <trkpt lat="43.40824" lon="6.05565">
        <ele>206</ele>
        <time>2018-05-18T10:15:10</time>
      </trkpt>
      <trkpt lat="43.40817" lon="6.05516">
        <ele>207</ele>
        <time>2018-05-18T10:15:15</time>
      </trkpt>
      <trkpt lat="43.40796" lon="6.05472">
        <ele>207</ele>
        <time>2018-05-18T10:15:20</time>
      </trkpt>
      <trkpt lat="43.40769" lon="6.05429">
        <ele>202</ele>
        <time>2018-05-18T10:15:25</time>
      </trkpt>
      <trkpt lat="43.40753" lon="6.05402">
        <ele>208</ele>
        <time>2018-05-18T10:15:30</time>
      </trkpt>
      <trkpt lat="43.40744" lon="6.05371">
        <ele>207</ele>
        <time>2018-05-18T10:15:35</time>
      </trkpt>
      <trkpt lat="43.40748" lon="6.05331">
        <ele>205</ele>
        <time>2018-05-18T10:15:40</time>
      </trkpt>
      <trkpt lat="43.40764" lon="6.0528">
        <ele>207</ele>
        <time>2018-05-18T10:15:45</time>
      </trkpt>
      <trkpt lat="43.40773" lon="6.05227">
        <ele>207</ele>
        <time>2018-05-18T10:15:50</time>
      </trkpt>
      <trkpt lat="43.4078" lon="6.05175">
        <ele>209</ele>
        <time>2018-05-18T10:15:55</time>
      </trkpt>
      <trkpt lat="43.40786" lon="6.05121">
        <ele>206</ele>
        <time>2018-05-18T10:16:00</time>
      </trkpt>
      <trkpt lat="43.40789" lon="6.05065">
        <ele>208</ele>
        <time>2018-05-18T10:16:05</time>
      </trkpt>
      <trkpt lat="43.40791" lon="6.0502">
        <ele>208</ele>
        <time>2018-05-18T10:16:10</time>
      </trkpt>
      <trkpt lat="43.40807" lon="6.04991">
        <ele>203</ele>
        <time>2018-05-18T10:16:16</time>
      </trkpt>
      <trkpt lat="43.40819" lon="6.04946">
        <ele>205</ele>
        <time>2018-05-18T10:16:21</time>
      </trkpt>
      <trkpt lat="43.40807" lon="6.04897">
        <ele>200</ele>
        <time>2018-05-18T10:16:26</time>
      </trkpt>
      <trkpt lat="43.40812" lon="6.04852">
        <ele>202</ele>
        <time>2018-05-18T10:16:31</time>
      </trkpt>
      <trkpt lat="43.40821" lon="6.04804">
        <ele>204</ele>
        <time>2018-05-18T10:16:36</time>
      </trkpt>
      <trkpt lat="43.40828" lon="6.04753">
        <ele>203</ele>
        <time>2018-05-18T10:16:41</time>
      </trkpt>
      <trkpt lat="43.40837" lon="6.04684">
        <ele>202</ele>
        <time>2018-05-18T10:16:46</time>
      </trkpt>
      <trkpt lat="43.40852" lon="6.04613">
        <ele>198</ele>
        <time>2018-05-18T10:16:51</time>
      </trkpt>
      <trkpt lat="43.40861" lon="6.04555">
        <ele>200</ele>
        <time>2018-05-18T10:16:56</time>
      </trkpt>
      <trkpt lat="43.40869" lon="6.04499">
        <ele>200</ele>
        <time>2018-05-18T10:17:01</time>
      </trkpt>
      <trkpt lat="43.40876" lon="6.04447">
        <ele>198</ele>
        <time>2018-05-18T10:17:06</time>
      </trkpt>
      <trkpt lat="43.40886" lon="6.04399">
        <ele>200</ele>
        <time>2018-05-18T10:17:11</time>
      </trkpt>
      <trkpt lat="43.40889" lon="6.04362">
        <ele>208</ele>
        <time>2018-05-18T10:17:16</time>
      </trkpt>
      <trkpt lat="43.40898" lon="6.0434">
        <ele>211</ele>
        <time>2018-05-18T10:17:21</time>
      </trkpt>
      <trkpt lat="43.40916" lon="6.04313">
        <ele>210</ele>
        <time>2018-05-18T10:17:26</time>
      </trkpt>
      <trkpt lat="43.40901" lon="6.04271">
        <ele>216</ele>
        <time>2018-05-18T10:17:32</time>
      </trkpt>
      <trkpt lat="43.40861" lon="6.04285">
        <ele>221</ele>
        <time>2018-05-18T10:17:37</time>
      </trkpt>
      <trkpt lat="43.4083" lon="6.04301">
        <ele>224</ele>
        <time>2018-05-18T10:17:42</time>
      </trkpt>
      <trkpt lat="43.40803" lon="6.04324">
        <ele>225</ele>
        <time>2018-05-18T10:17:47</time>
      </trkpt>
      <trkpt lat="43.40773" lon="6.04334">
        <ele>225</ele>
        <time>2018-05-18T10:17:52</time>
      </trkpt>
      <trkpt lat="43.40741" lon="6.04336">
        <ele>225</ele>
        <time>2018-05-18T10:17:57</time>
      </trkpt>
      <trkpt lat="43.40708" lon="6.04337">
        <ele>225</ele>
        <time>2018-05-18T10:18:02</time>
      </trkpt>
      <trkpt lat="43.40672" lon="6.04337">
        <ele>225</ele>
        <time>2018-05-18T10:18:07</time>
      </trkpt>
      <trkpt lat="43.40634" lon="6.04336">
        <ele>225</ele>
        <time>2018-05-18T10:18:12</time>
      </trkpt>
      <trkpt lat="43.406" lon="6.04334">
        <ele>226</ele>
        <time>2018-05-18T10:18:17</time>
      </trkpt>
      <trkpt lat="43.40565" lon="6.04331">
        <ele>226</ele>
        <time>2018-05-18T10:18:22</time>
      </trkpt>
      <trkpt lat="43.4052" lon="6.0433">
        <ele>223</ele>
        <time>2018-05-18T10:18:27</time>
      </trkpt>
      <trkpt lat="43.40471" lon="6.04337">
        <ele>222</ele>
        <time>2018-05-18T10:18:32</time>
      </trkpt>
      <trkpt lat="43.40424" lon="6.04342">
        <ele>222</ele>
        <time>2018-05-18T10:18:37</time>
      </trkpt>
      <trkpt lat="43.40372" lon="6.04352">
        <ele>221</ele>
        <time>2018-05-18T10:18:43</time>
      </trkpt>
      <trkpt lat="43.40325" lon="6.04357">
        <ele>222</ele>
        <time>2018-05-18T10:18:48</time>
      </trkpt>
      <trkpt lat="43.40278" lon="6.04368">
        <ele>219</ele>
        <time>2018-05-18T10:18:53</time>
      </trkpt>
      <trkpt lat="43.40231" lon="6.04379">
        <ele>218</ele>
        <time>2018-05-18T10:18:58</time>
      </trkpt>
      <trkpt lat="43.40186" lon="6.04393">
        <ele>218</ele>
        <time>2018-05-18T10:19:03</time>
      </trkpt>
      <trkpt lat="43.4014" lon="6.04406">
        <ele>217</ele>
        <time>2018-05-18T10:19:08</time>
      </trkpt>
      <trkpt lat="43.40097" lon="6.04424">
        <ele>218</ele>
        <time>2018-05-18T10:19:13</time>
      </trkpt>
      <trkpt lat="43.40058" lon="6.0444">
        <ele>219</ele>
        <time>2018-05-18T10:19:18</time>
      </trkpt>
      <trkpt lat="43.40019" lon="6.04458">
        <ele>219</ele>
        <time>2018-05-18T10:19:23</time>
      </trkpt>
      <trkpt lat="43.39984" lon="6.04473">
        <ele>220</ele>
        <time>2018-05-18T10:19:28</time>
      </trkpt>
      <trkpt lat="43.39949" lon="6.04493">
        <ele>221</ele>
        <time>2018-05-18T10:19:33</time>
      </trkpt>
      <trkpt lat="43.39914" lon="6.04509">
        <ele>222</ele>
        <time>2018-05-18T10:19:38</time>
      </trkpt>
      <trkpt lat="43.3988" lon="6.04523">
        <ele>221</ele>
        <time>2018-05-18T10:19:43</time>
      </trkpt>
      <trkpt lat="43.39845" lon="6.04534">
        <ele>224</ele>
        <time>2018-05-18T10:19:48</time>
      </trkpt>
      <trkpt lat="43.39811" lon="6.04543">
        <ele>224</ele>
        <time>2018-05-18T10:19:53</time>
      </trkpt>
      <trkpt lat="43.39775" lon="6.04547">
        <ele>222</ele>
        <time>2018-05-18T10:19:58</time>
      </trkpt>
      <trkpt lat="43.39734" lon="6.04555">
        <ele>224</ele>
        <time>2018-05-18T10:20:04</time>
      </trkpt>
      <trkpt lat="43.39701" lon="6.04559">
        <ele>225</ele>
        <time>2018-05-18T10:20:09</time>
      </trkpt>
      <trkpt lat="43.39666" lon="6.04571">
        <ele>225</ele>
        <time>2018-05-18T10:20:14</time>
      </trkpt>
      <trkpt lat="43.39633" lon="6.04576">
        <ele>223</ele>
        <time>2018-05-18T10:20:19</time>
      </trkpt>
      <trkpt lat="43.39602" lon="6.04562">
        <ele>224</ele>
        <time>2018-05-18T10:20:24</time>
      </trkpt>
      <trkpt lat="43.39574" lon="6.0458">
        <ele>229</ele>
        <time>2018-05-18T10:20:29</time>
      </trkpt>
      <trkpt lat="43.39569" lon="6.04617">
        <ele>230</ele>
        <time>2018-05-18T10:20:34</time>
      </trkpt>
      <trkpt lat="43.3955" lon="6.04645">
        <ele>229</ele>
        <time>2018-05-18T10:20:39</time>
      </trkpt>
      <trkpt lat="43.39523" lon="6.04672">
        <ele>230</ele>
        <time>2018-05-18T10:20:44</time>
      </trkpt>
      <trkpt lat="43.39496" lon="6.04701">
        <ele>230</ele>
        <time>2018-05-18T10:20:49</time>
      </trkpt>
      <trkpt lat="43.39487" lon="6.04703">
        <ele>231</ele>
        <time>2018-05-18T10:20:52</time>
      </trkpt>
      <trkpt lat="43.39479" lon="6.04716">
        <ele>232</ele>
        <time>2018-05-18T10:21:15</time>
      </trkpt>
      <trkpt lat="43.39459" lon="6.04739">
        <ele>230</ele>
        <time>2018-05-18T10:21:20</time>
      </trkpt>
      <trkpt lat="43.39429" lon="6.04748">
        <ele>230</ele>
        <time>2018-05-18T10:21:25</time>
      </trkpt>
      <trkpt lat="43.39391" lon="6.04741">
        <ele>231</ele>
        <time>2018-05-18T10:21:30</time>
      </trkpt>
      <trkpt lat="43.39354" lon="6.04716">
        <ele>227</ele>
        <time>2018-05-18T10:21:35</time>
      </trkpt>
      <trkpt lat="43.39322" lon="6.04695">
        <ele>221</ele>
        <time>2018-05-18T10:21:40</time>
      </trkpt>
      <trkpt lat="43.3929" lon="6.04685">
        <ele>216</ele>
        <time>2018-05-18T10:21:45</time>
      </trkpt>
      <trkpt lat="43.39258" lon="6.04677">
        <ele>219</ele>
        <time>2018-05-18T10:21:50</time>
      </trkpt>
      <trkpt lat="43.39221" lon="6.04664">
        <ele>220</ele>
        <time>2018-05-18T10:21:55</time>
      </trkpt>
      <trkpt lat="43.39193" lon="6.04652">
        <ele>228</ele>
        <time>2018-05-18T10:22:00</time>
      </trkpt>
      <trkpt lat="43.39157" lon="6.0464">
        <ele>229</ele>
        <time>2018-05-18T10:22:05</time>
      </trkpt>
      <trkpt lat="43.39127" lon="6.04624">
        <ele>232</ele>
        <time>2018-05-18T10:22:10</time>
      </trkpt>
      <trkpt lat="43.39093" lon="6.04618">
        <ele>234</ele>
        <time>2018-05-18T10:22:15</time>
      </trkpt>
      <trkpt lat="43.39063" lon="6.04618">
        <ele>235</ele>
        <time>2018-05-18T10:22:20</time>
      </trkpt>
      <trkpt lat="43.39033" lon="6.04615">
        <ele>237</ele>
        <time>2018-05-18T10:22:25</time>
      </trkpt>
      <trkpt lat="43.39001" lon="6.04612">
        <ele>235</ele>
        <time>2018-05-18T10:22:30</time>
      </trkpt>
      <trkpt lat="43.38972" lon="6.04622">
        <ele>236</ele>
        <time>2018-05-18T10:22:36</time>
      </trkpt>
      <trkpt lat="43.38953" lon="6.04646">
        <ele>235</ele>
        <time>2018-05-18T10:22:41</time>
      </trkpt>
      <trkpt lat="43.38931" lon="6.04652">
        <ele>232</ele>
        <time>2018-05-18T10:22:46</time>
      </trkpt>
      <trkpt lat="43.38904" lon="6.04648">
        <ele>232</ele>
        <time>2018-05-18T10:22:51</time>
      </trkpt>
      <trkpt lat="43.38885" lon="6.04642">
        <ele>231</ele>
        <time>2018-05-18T10:22:56</time>
      </trkpt>
      <trkpt lat="43.38852" lon="6.04641">
        <ele>230</ele>
        <time>2018-05-18T10:23:01</time>
      </trkpt>
      <trkpt lat="43.38833" lon="6.0462">
        <ele>232</ele>
        <time>2018-05-18T10:23:06</time>
      </trkpt>
      <trkpt lat="43.38826" lon="6.0462">
        <ele>232</ele>
        <time>2018-05-18T10:23:15</time>
      </trkpt>
      <trkpt lat="43.38809" lon="6.04639">
        <ele>235</ele>
        <time>2018-05-18T10:23:27</time>
      </trkpt>
      <trkpt lat="43.38783" lon="6.0465">
        <ele>240</ele>
        <time>2018-05-18T10:23:32</time>
      </trkpt>
      <trkpt lat="43.38773" lon="6.04656">
        <ele>240</ele>
        <time>2018-05-18T10:23:37</time>
      </trkpt>
      <trkpt lat="43.38754" lon="6.04665">
        <ele>244</ele>
        <time>2018-05-18T10:23:42</time>
      </trkpt>
      <trkpt lat="43.38738" lon="6.04674">
        <ele>245</ele>
        <time>2018-05-18T10:23:47</time>
      </trkpt>
      <trkpt lat="43.38731" lon="6.04695">
        <ele>251</ele>
        <time>2018-05-18T10:23:52</time>
      </trkpt>
      <trkpt lat="43.38731" lon="6.04727">
        <ele>253</ele>
        <time>2018-05-18T10:23:57</time>
      </trkpt>
      <trkpt lat="43.38731" lon="6.04778">
        <ele>249</ele>
        <time>2018-05-18T10:24:02</time>
      </trkpt>
      <trkpt lat="43.38728" lon="6.04815">
        <ele>249</ele>
        <time>2018-05-18T10:24:07</time>
      </trkpt>
      <trkpt lat="43.38727" lon="6.04858">
        <ele>247</ele>
        <time>2018-05-18T10:24:12</time>
      </trkpt>
      <trkpt lat="43.38723" lon="6.04895">
        <ele>245</ele>
        <time>2018-05-18T10:24:17</time>
      </trkpt>
      <trkpt lat="43.38715" lon="6.04943">
        <ele>239</ele>
        <time>2018-05-18T10:24:23</time>
      </trkpt>
      <trkpt lat="43.38704" lon="6.0498">
        <ele>241</ele>
        <time>2018-05-18T10:24:28</time>
      </trkpt>
      <trkpt lat="43.38696" lon="6.05024">
        <ele>246</ele>
        <time>2018-05-18T10:24:33</time>
      </trkpt>
      <trkpt lat="43.38691" lon="6.05064">
        <ele>246</ele>
        <time>2018-05-18T10:24:38</time>
      </trkpt>
      <trkpt lat="43.3869" lon="6.05101">
        <ele>246</ele>
        <time>2018-05-18T10:24:43</time>
      </trkpt>
      <trkpt lat="43.38689" lon="6.05138">
        <ele>239</ele>
        <time>2018-05-18T10:24:48</time>
      </trkpt>
      <trkpt lat="43.38687" lon="6.05179">
        <ele>242</ele>
        <time>2018-05-18T10:24:53</time>
      </trkpt>
      <trkpt lat="43.38689" lon="6.05214">
        <ele>244</ele>
        <time>2018-05-18T10:24:58</time>
      </trkpt>
      <trkpt lat="43.38687" lon="6.05255">
        <ele>247</ele>
        <time>2018-05-18T10:25:03</time>
      </trkpt>
      <trkpt lat="43.38681" lon="6.05292">
        <ele>246</ele>
        <time>2018-05-18T10:25:08</time>
      </trkpt>
      <trkpt lat="43.3868" lon="6.05317">
        <ele>252</ele>
        <time>2018-05-18T10:25:13</time>
      </trkpt>
      <trkpt lat="43.38674" lon="6.0535">
        <ele>258</ele>
        <time>2018-05-18T10:25:18</time>
      </trkpt>
      <trkpt lat="43.3867" lon="6.05387">
        <ele>253</ele>
        <time>2018-05-18T10:25:23</time>
      </trkpt>
      <trkpt lat="43.38671" lon="6.05414">
        <ele>248</ele>
        <time>2018-05-18T10:25:28</time>
      </trkpt>
      <trkpt lat="43.38675" lon="6.05454">
        <ele>250</ele>
        <time>2018-05-18T10:25:33</time>
      </trkpt>
      <trkpt lat="43.38676" lon="6.05485">
        <ele>251</ele>
        <time>2018-05-18T10:25:38</time>
      </trkpt>
      <trkpt lat="43.38666" lon="6.05519">
        <ele>250</ele>
        <time>2018-05-18T10:25:44</time>
      </trkpt>
      <trkpt lat="43.38657" lon="6.05561">
        <ele>253</ele>
        <time>2018-05-18T10:25:49</time>
      </trkpt>
      <trkpt lat="43.38658" lon="6.05598">
        <ele>254</ele>
        <time>2018-05-18T10:25:54</time>
      </trkpt>
      <trkpt lat="43.38658" lon="6.05625">
        <ele>255</ele>
        <time>2018-05-18T10:25:59</time>
      </trkpt>
      <trkpt lat="43.38661" lon="6.05655">
        <ele>259</ele>
        <time>2018-05-18T10:26:04</time>
      </trkpt>
      <trkpt lat="43.38663" lon="6.05682">
        <ele>260</ele>
        <time>2018-05-18T10:26:09</time>
      </trkpt>
      <trkpt lat="43.38664" lon="6.05713">
        <ele>260</ele>
        <time>2018-05-18T10:26:14</time>
      </trkpt>
      <trkpt lat="43.38664" lon="6.05751">
        <ele>265</ele>
        <time>2018-05-18T10:26:19</time>
      </trkpt>
      <trkpt lat="43.38662" lon="6.05797">
        <ele>263</ele>
        <time>2018-05-18T10:26:24</time>
      </trkpt>
      <trkpt lat="43.38664" lon="6.05838">
        <ele>261</ele>
        <time>2018-05-18T10:26:29</time>
      </trkpt>
      <trkpt lat="43.38659" lon="6.05878">
        <ele>254</ele>
        <time>2018-05-18T10:26:34</time>
      </trkpt>
      <trkpt lat="43.38655" lon="6.05916">
        <ele>256</ele>
        <time>2018-05-18T10:26:39</time>
      </trkpt>
      <trkpt lat="43.38655" lon="6.05952">
        <ele>260</ele>
        <time>2018-05-18T10:26:44</time>
      </trkpt>
      <trkpt lat="43.38652" lon="6.05987">
        <ele>259</ele>
        <time>2018-05-18T10:26:49</time>
      </trkpt>
      <trkpt lat="43.38648" lon="6.0603">
        <ele>253</ele>
        <time>2018-05-18T10:26:54</time>
      </trkpt>
      <trkpt lat="43.38642" lon="6.06074">
        <ele>256</ele>
        <time>2018-05-18T10:27:00</time>
      </trkpt>
      <trkpt lat="43.38638" lon="6.06121">
        <ele>256</ele>
        <time>2018-05-18T10:27:05</time>
      </trkpt>
      <trkpt lat="43.38635" lon="6.06166">
        <ele>257</ele>
        <time>2018-05-18T10:27:10</time>
      </trkpt>
      <trkpt lat="43.38635" lon="6.06204">
        <ele>259</ele>
        <time>2018-05-18T10:27:15</time>
      </trkpt>
      <trkpt lat="43.38632" lon="6.06256">
        <ele>261</ele>
        <time>2018-05-18T10:27:20</time>
      </trkpt>
      <trkpt lat="43.38624" lon="6.06302">
        <ele>264</ele>
        <time>2018-05-18T10:27:25</time>
      </trkpt>
      <trkpt lat="43.38615" lon="6.06367">
        <ele>253</ele>
        <time>2018-05-18T10:27:30</time>
      </trkpt>
      <trkpt lat="43.38606" lon="6.06423">
        <ele>252</ele>
        <time>2018-05-18T10:27:35</time>
      </trkpt>
      <trkpt lat="43.38592" lon="6.06487">
        <ele>249</ele>
        <time>2018-05-18T10:27:40</time>
      </trkpt>
      <trkpt lat="43.38591" lon="6.06539">
        <ele>249</ele>
        <time>2018-05-18T10:27:45</time>
      </trkpt>
      <trkpt lat="43.38592" lon="6.06585">
        <ele>250</ele>
        <time>2018-05-18T10:27:50</time>
      </trkpt>
      <trkpt lat="43.38588" lon="6.06629">
        <ele>255</ele>
        <time>2018-05-18T10:27:55</time>
      </trkpt>
      <trkpt lat="43.38587" lon="6.06681">
        <ele>255</ele>
        <time>2018-05-18T10:28:00</time>
      </trkpt>
      <trkpt lat="43.38592" lon="6.06724">
        <ele>255</ele>
        <time>2018-05-18T10:28:05</time>
      </trkpt>
      <trkpt lat="43.38597" lon="6.06766">
        <ele>258</ele>
        <time>2018-05-18T10:28:11</time>
      </trkpt>
      <trkpt lat="43.38594" lon="6.06801">
        <ele>261</ele>
        <time>2018-05-18T10:28:16</time>
      </trkpt>
      <trkpt lat="43.38597" lon="6.06839">
        <ele>263</ele>
        <time>2018-05-18T10:28:21</time>
      </trkpt>
      <trkpt lat="43.38599" lon="6.0687">
        <ele>266</ele>
        <time>2018-05-18T10:28:26</time>
      </trkpt>
      <trkpt lat="43.38589" lon="6.06911">
        <ele>263</ele>
        <time>2018-05-18T10:28:31</time>
      </trkpt>
      <trkpt lat="43.38572" lon="6.06947">
        <ele>265</ele>
        <time>2018-05-18T10:28:36</time>
      </trkpt>
      <trkpt lat="43.38566" lon="6.07004">
        <ele>261</ele>
        <time>2018-05-18T10:28:41</time>
      </trkpt>
      <trkpt lat="43.38559" lon="6.07051">
        <ele>263</ele>
        <time>2018-05-18T10:28:46</time>
      </trkpt>
      <trkpt lat="43.38551" lon="6.07104">
        <ele>261</ele>
        <time>2018-05-18T10:28:51</time>
      </trkpt>
      <trkpt lat="43.38543" lon="6.07157">
        <ele>256</ele>
        <time>2018-05-18T10:28:56</time>
      </trkpt>
      <trkpt lat="43.38537" lon="6.07205">
        <ele>252</ele>
        <time>2018-05-18T10:29:01</time>
      </trkpt>
      <trkpt lat="43.38534" lon="6.07246">
        <ele>254</ele>
        <time>2018-05-18T10:29:06</time>
      </trkpt>
      <trkpt lat="43.38528" lon="6.07289">
        <ele>254</ele>
        <time>2018-05-18T10:29:11</time>
      </trkpt>
      <trkpt lat="43.38523" lon="6.07332">
        <ele>255</ele>
        <time>2018-05-18T10:29:16</time>
      </trkpt>
      <trkpt lat="43.3852" lon="6.07376">
        <ele>256</ele>
        <time>2018-05-18T10:29:21</time>
      </trkpt>
      <trkpt lat="43.38523" lon="6.07416">
        <ele>259</ele>
        <time>2018-05-18T10:29:26</time>
      </trkpt>
      <trkpt lat="43.38525" lon="6.07468">
        <ele>265</ele>
        <time>2018-05-18T10:29:32</time>
      </trkpt>
      <trkpt lat="43.38526" lon="6.07509">
        <ele>268</ele>
        <time>2018-05-18T10:29:37</time>
      </trkpt>
      <trkpt lat="43.38526" lon="6.07564">
        <ele>264</ele>
        <time>2018-05-18T10:29:42</time>
      </trkpt>
      <trkpt lat="43.38528" lon="6.07612">
        <ele>266</ele>
        <time>2018-05-18T10:29:47</time>
      </trkpt>
      <trkpt lat="43.38529" lon="6.07659">
        <ele>262</ele>
        <time>2018-05-18T10:29:52</time>
      </trkpt>
      <trkpt lat="43.3853" lon="6.07703">
        <ele>263</ele>
        <time>2018-05-18T10:29:57</time>
      </trkpt>
      <trkpt lat="43.38532" lon="6.07747">
        <ele>264</ele>
        <time>2018-05-18T10:30:02</time>
      </trkpt>
      <trkpt lat="43.38543" lon="6.07787">
        <ele>263</ele>
        <time>2018-05-18T10:30:07</time>
      </trkpt>
      <trkpt lat="43.38555" lon="6.07823">
        <ele>262</ele>
        <time>2018-05-18T10:30:12</time>
      </trkpt>
      <trkpt lat="43.38563" lon="6.07866">
        <ele>264</ele>
        <time>2018-05-18T10:30:17</time>
      </trkpt>
      <trkpt lat="43.38568" lon="6.07902">
        <ele>266</ele>
        <time>2018-05-18T10:30:22</time>
      </trkpt>
      <trkpt lat="43.38567" lon="6.0794">
        <ele>265</ele>
        <time>2018-05-18T10:30:27</time>
      </trkpt>
      <trkpt lat="43.38565" lon="6.07982">
        <ele>261</ele>
        <time>2018-05-18T10:30:32</time>
      </trkpt>
      <trkpt lat="43.38568" lon="6.08024">
        <ele>264</ele>
        <time>2018-05-18T10:30:37</time>
      </trkpt>
      <trkpt lat="43.38583" lon="6.08069">
        <ele>265</ele>
        <time>2018-05-18T10:30:43</time>
      </trkpt>
      <trkpt lat="43.38599" lon="6.08104">
        <ele>264</ele>
        <time>2018-05-18T10:30:48</time>
      </trkpt>
      <trkpt lat="43.38614" lon="6.08137">
        <ele>265</ele>
        <time>2018-05-18T10:30:53</time>
      </trkpt>
      <trkpt lat="43.38629" lon="6.08167">
        <ele>265</ele>
        <time>2018-05-18T10:30:58</time>
      </trkpt>
      <trkpt lat="43.38637" lon="6.08198">
        <ele>267</ele>
        <time>2018-05-18T10:31:03</time>
      </trkpt>
      <trkpt lat="43.38636" lon="6.08234">
        <ele>268</ele>
        <time>2018-05-18T10:31:08</time>
      </trkpt>
      <trkpt lat="43.38634" lon="6.0827">
        <ele>270</ele>
        <time>2018-05-18T10:31:13</time>
      </trkpt>
      <trkpt lat="43.38634" lon="6.08306">
        <ele>275</ele>
        <time>2018-05-18T10:31:18</time>
      </trkpt>
      <trkpt lat="43.38635" lon="6.08342">
        <ele>276</ele>
        <time>2018-05-18T10:31:23</time>
      </trkpt>
      <trkpt lat="43.38635" lon="6.0838">
        <ele>273</ele>
        <time>2018-05-18T10:31:28</time>
      </trkpt>
      <trkpt lat="43.38637" lon="6.08416">
        <ele>273</ele>
        <time>2018-05-18T10:31:33</time>
      </trkpt>
      <trkpt lat="43.38644" lon="6.08444">
        <ele>277</ele>
        <time>2018-05-18T10:31:38</time>
      </trkpt>
      <trkpt lat="43.38645" lon="6.08474">
        <ele>277</ele>
        <time>2018-05-18T10:31:43</time>
      </trkpt>
      <trkpt lat="43.38643" lon="6.08502">
        <ele>278</ele>
        <time>2018-05-18T10:31:48</time>
      </trkpt>
      <trkpt lat="43.38639" lon="6.08523">
        <ele>278</ele>
        <time>2018-05-18T10:31:53</time>
      </trkpt>
      <trkpt lat="43.38634" lon="6.08554">
        <ele>279</ele>
        <time>2018-05-18T10:31:58</time>
      </trkpt>
      <trkpt lat="43.38625" lon="6.08596">
        <ele>277</ele>
        <time>2018-05-18T10:32:04</time>
      </trkpt>
      <trkpt lat="43.38613" lon="6.08634">
        <ele>274</ele>
        <time>2018-05-18T10:32:09</time>
      </trkpt>
      <trkpt lat="43.386" lon="6.08664">
        <ele>275</ele>
        <time>2018-05-18T10:32:14</time>
      </trkpt>
      <trkpt lat="43.38584" lon="6.08704">
        <ele>274</ele>
        <time>2018-05-18T10:32:19</time>
      </trkpt>
      <trkpt lat="43.38582" lon="6.08744">
        <ele>274</ele>
        <time>2018-05-18T10:32:24</time>
      </trkpt>
      <trkpt lat="43.38592" lon="6.08779">
        <ele>273</ele>
        <time>2018-05-18T10:32:29</time>
      </trkpt>
      <trkpt lat="43.38602" lon="6.08819">
        <ele>272</ele>
        <time>2018-05-18T10:32:34</time>
      </trkpt>
      <trkpt lat="43.38617" lon="6.08857">
        <ele>273</ele>
        <time>2018-05-18T10:32:38</time>
      </trkpt>
      <trkpt lat="43.38623" lon="6.08898">
        <ele>274</ele>
        <time>2018-05-18T10:32:44</time>
      </trkpt>
      <trkpt lat="43.38621" lon="6.08937">
        <ele>276</ele>
        <time>2018-05-18T10:32:49</time>
      </trkpt>
      <trkpt lat="43.38622" lon="6.08968">
        <ele>278</ele>
        <time>2018-05-18T10:32:54</time>
      </trkpt>
      <trkpt lat="43.38634" lon="6.08993">
        <ele>276</ele>
        <time>2018-05-18T10:32:59</time>
      </trkpt>
      <trkpt lat="43.38646" lon="6.09016">
        <ele>277</ele>
        <time>2018-05-18T10:33:04</time>
      </trkpt>
      <trkpt lat="43.38654" lon="6.0904">
        <ele>279</ele>
        <time>2018-05-18T10:33:09</time>
      </trkpt>
      <trkpt lat="43.38658" lon="6.09069">
        <ele>281</ele>
        <time>2018-05-18T10:33:14</time>
      </trkpt>
      <trkpt lat="43.38649" lon="6.09104">
        <ele>279</ele>
        <time>2018-05-18T10:33:20</time>
      </trkpt>
      <trkpt lat="43.38644" lon="6.09131">
        <ele>281</ele>
        <time>2018-05-18T10:33:25</time>
      </trkpt>
      <trkpt lat="43.38639" lon="6.0916">
        <ele>281</ele>
        <time>2018-05-18T10:33:30</time>
      </trkpt>
      <trkpt lat="43.38636" lon="6.09183">
        <ele>284</ele>
        <time>2018-05-18T10:33:35</time>
      </trkpt>
      <trkpt lat="43.38637" lon="6.09209">
        <ele>283</ele>
        <time>2018-05-18T10:33:40</time>
      </trkpt>
      <trkpt lat="43.38635" lon="6.09236">
        <ele>284</ele>
        <time>2018-05-18T10:33:45</time>
      </trkpt>
      <trkpt lat="43.38635" lon="6.09257">
        <ele>287</ele>
        <time>2018-05-18T10:33:50</time>
      </trkpt>
      <trkpt lat="43.38636" lon="6.09283">
        <ele>284</ele>
        <time>2018-05-18T10:33:55</time>
      </trkpt>
      <trkpt lat="43.38642" lon="6.09308">
        <ele>286</ele>
        <time>2018-05-18T10:34:00</time>
      </trkpt>
      <trkpt lat="43.38648" lon="6.09332">
        <ele>290</ele>
        <time>2018-05-18T10:34:05</time>
      </trkpt>
      <trkpt lat="43.38646" lon="6.09345">
        <ele>291</ele>
        <time>2018-05-18T10:34:10</time>
      </trkpt>
      <trkpt lat="43.38644" lon="6.09366">
        <ele>284</ele>
        <time>2018-05-18T10:34:15</time>
      </trkpt>
      <trkpt lat="43.38648" lon="6.09386">
        <ele>288</ele>
        <time>2018-05-18T10:34:20</time>
      </trkpt>
      <trkpt lat="43.38645" lon="6.09411">
        <ele>288</ele>
        <time>2018-05-18T10:34:25</time>
      </trkpt>
      <trkpt lat="43.38638" lon="6.09439">
        <ele>284</ele>
        <time>2018-05-18T10:34:30</time>
      </trkpt>
      <trkpt lat="43.3863" lon="6.09468">
        <ele>279</ele>
        <time>2018-05-18T10:34:36</time>
      </trkpt>
      <trkpt lat="43.38622" lon="6.09491">
        <ele>280</ele>
        <time>2018-05-18T10:34:41</time>
      </trkpt>
      <trkpt lat="43.3862" lon="6.09526">
        <ele>282</ele>
        <time>2018-05-18T10:34:46</time>
      </trkpt>
      <trkpt lat="43.38622" lon="6.0955">
        <ele>284</ele>
        <time>2018-05-18T10:34:51</time>
      </trkpt>
      <trkpt lat="43.3862" lon="6.09577">
        <ele>282</ele>
        <time>2018-05-18T10:34:56</time>
      </trkpt>
      <trkpt lat="43.3862" lon="6.096">
        <ele>279</ele>
        <time>2018-05-18T10:35:01</time>
      </trkpt>
      <trkpt lat="43.38613" lon="6.0963">
        <ele>282</ele>
        <time>2018-05-18T10:35:06</time>
      </trkpt>
      <trkpt lat="43.38605" lon="6.09655">
        <ele>277</ele>
        <time>2018-05-18T10:35:11</time>
      </trkpt>
      <trkpt lat="43.38604" lon="6.09673">
        <ele>274</ele>
        <time>2018-05-18T10:35:16</time>
      </trkpt>
      <trkpt lat="43.38594" lon="6.09679">
        <ele>275</ele>
        <time>2018-05-18T10:35:21</time>
      </trkpt>
      <trkpt lat="43.38569" lon="6.09684">
        <ele>276</ele>
        <time>2018-05-18T10:35:26</time>
      </trkpt>
      <trkpt lat="43.38563" lon="6.09686">
        <ele>277</ele>
        <time>2018-05-18T10:35:29</time>
      </trkpt>
      <trkpt lat="43.38556" lon="6.09684">
        <ele>268</ele>
        <time>2018-05-18T10:35:50</time>
      </trkpt>
      <trkpt lat="43.3855" lon="6.09683">
        <ele>280</ele>
        <time>2018-05-18T10:37:53</time>
      </trkpt>
      <trkpt lat="43.38539" lon="6.09689">
        <ele>281</ele>
        <time>2018-05-18T10:37:58</time>
      </trkpt>
      <trkpt lat="43.38526" lon="6.09696">
        <ele>278</ele>
        <time>2018-05-18T10:38:03</time>
      </trkpt>
      <trkpt lat="43.38491" lon="6.09692">
        <ele>280</ele>
        <time>2018-05-18T10:38:08</time>
      </trkpt>
      <trkpt lat="43.38452" lon="6.09701">
        <ele>280</ele>
        <time>2018-05-18T10:38:13</time>
      </trkpt>
      <trkpt lat="43.3842" lon="6.09705">
        <ele>277</ele>
        <time>2018-05-18T10:38:18</time>
      </trkpt>
      <trkpt lat="43.3838" lon="6.09711">
        <ele>278</ele>
        <time>2018-05-18T10:38:23</time>
      </trkpt>
      <trkpt lat="43.38342" lon="6.09718">
        <ele>276</ele>
        <time>2018-05-18T10:38:28</time>
      </trkpt>
      <trkpt lat="43.38305" lon="6.09724">
        <ele>283</ele>
        <time>2018-05-18T10:38:33</time>
      </trkpt>
      <trkpt lat="43.38268" lon="6.09741">
        <ele>280</ele>
        <time>2018-05-18T10:38:38</time>
      </trkpt>
      <trkpt lat="43.38237" lon="6.09752">
        <ele>279</ele>
        <time>2018-05-18T10:38:43</time>
      </trkpt>
      <trkpt lat="43.38204" lon="6.0977">
        <ele>280</ele>
        <time>2018-05-18T10:38:48</time>
      </trkpt>
      <trkpt lat="43.38172" lon="6.09783">
        <ele>281</ele>
        <time>2018-05-18T10:38:53</time>
      </trkpt>
      <trkpt lat="43.38134" lon="6.09795">
        <ele>281</ele>
        <time>2018-05-18T10:38:59</time>
      </trkpt>
      <trkpt lat="43.38105" lon="6.09799">
        <ele>280</ele>
        <time>2018-05-18T10:39:04</time>
      </trkpt>
      <trkpt lat="43.38076" lon="6.09802">
        <ele>278</ele>
        <time>2018-05-18T10:39:09</time>
      </trkpt>
      <trkpt lat="43.38042" lon="6.09796">
        <ele>276</ele>
        <time>2018-05-18T10:39:14</time>
      </trkpt>
      <trkpt lat="43.38006" lon="6.09783">
        <ele>278</ele>
        <time>2018-05-18T10:39:19</time>
      </trkpt>
      <trkpt lat="43.37964" lon="6.09771">
        <ele>272</ele>
        <time>2018-05-18T10:39:24</time>
      </trkpt>
      <trkpt lat="43.37922" lon="6.09755">
        <ele>273</ele>
        <time>2018-05-18T10:39:29</time>
      </trkpt>
      <trkpt lat="43.3788" lon="6.09739">
        <ele>274</ele>
        <time>2018-05-18T10:39:34</time>
      </trkpt>
      <trkpt lat="43.37837" lon="6.09729">
        <ele>271</ele>
        <time>2018-05-18T10:39:39</time>
      </trkpt>
      <trkpt lat="43.37802" lon="6.09717">
        <ele>269</ele>
        <time>2018-05-18T10:39:44</time>
      </trkpt>
      <trkpt lat="43.37798" lon="6.09665">
        <ele>265</ele>
        <time>2018-05-18T10:39:49</time>
      </trkpt>
      <trkpt lat="43.37798" lon="6.09617">
        <ele>263</ele>
        <time>2018-05-18T10:39:54</time>
      </trkpt>
      <trkpt lat="43.37801" lon="6.09578">
        <ele>265</ele>
        <time>2018-05-18T10:39:59</time>
      </trkpt>
      <trkpt lat="43.37785" lon="6.09549">
        <ele>268</ele>
        <time>2018-05-18T10:40:04</time>
      </trkpt>
      <trkpt lat="43.37753" lon="6.09539">
        <ele>267</ele>
        <time>2018-05-18T10:40:10</time>
      </trkpt>
      <trkpt lat="43.37732" lon="6.09537">
        <ele>267</ele>
        <time>2018-05-18T10:40:14</time>
      </trkpt>
      <trkpt lat="43.37706" lon="6.09532">
        <ele>276</ele>
        <time>2018-05-18T10:40:20</time>
      </trkpt>
      <trkpt lat="43.37677" lon="6.09548">
        <ele>278</ele>
        <time>2018-05-18T10:40:25</time>
      </trkpt>
      <trkpt lat="43.37657" lon="6.09572">
        <ele>279</ele>
        <time>2018-05-18T10:40:30</time>
      </trkpt>
      <trkpt lat="43.37636" lon="6.09593">
        <ele>280</ele>
        <time>2018-05-18T10:40:35</time>
      </trkpt>
      <trkpt lat="43.37619" lon="6.09605">
        <ele>276</ele>
        <time>2018-05-18T10:40:40</time>
      </trkpt>
      <trkpt lat="43.37597" lon="6.0962">
        <ele>275</ele>
        <time>2018-05-18T10:40:45</time>
      </trkpt>
      <trkpt lat="43.37568" lon="6.0963">
        <ele>276</ele>
        <time>2018-05-18T10:40:50</time>
      </trkpt>
      <trkpt lat="43.37543" lon="6.0964">
        <ele>272</ele>
        <time>2018-05-18T10:40:55</time>
      </trkpt>
      <trkpt lat="43.37523" lon="6.0965">
        <ele>271</ele>
        <time>2018-05-18T10:41:00</time>
      </trkpt>
      <trkpt lat="43.37502" lon="6.09661">
        <ele>273</ele>
        <time>2018-05-18T10:41:05</time>
      </trkpt>
      <trkpt lat="43.37489" lon="6.09693">
        <ele>281</ele>
        <time>2018-05-18T10:41:10</time>
      </trkpt>
      <trkpt lat="43.37479" lon="6.09728">
        <ele>283</ele>
        <time>2018-05-18T10:41:15</time>
      </trkpt>
      <trkpt lat="43.37464" lon="6.09756">
        <ele>286</ele>
        <time>2018-05-18T10:41:20</time>
      </trkpt>
      <trkpt lat="43.37444" lon="6.09773">
        <ele>288</ele>
        <time>2018-05-18T10:41:25</time>
      </trkpt>
      <trkpt lat="43.3742" lon="6.09784">
        <ele>287</ele>
        <time>2018-05-18T10:41:31</time>
      </trkpt>
      <trkpt lat="43.37399" lon="6.09789">
        <ele>291</ele>
        <time>2018-05-18T10:41:36</time>
      </trkpt>
      <trkpt lat="43.37383" lon="6.09804">
        <ele>298</ele>
        <time>2018-05-18T10:41:41</time>
      </trkpt>
      <trkpt lat="43.37368" lon="6.09828">
        <ele>300</ele>
        <time>2018-05-18T10:41:46</time>
      </trkpt>
      <trkpt lat="43.37359" lon="6.09856">
        <ele>301</ele>
        <time>2018-05-18T10:41:51</time>
      </trkpt>
      <trkpt lat="43.37353" lon="6.09886">
        <ele>303</ele>
        <time>2018-05-18T10:41:56</time>
      </trkpt>
      <trkpt lat="43.37352" lon="6.09919">
        <ele>303</ele>
        <time>2018-05-18T10:42:01</time>
      </trkpt>
      <trkpt lat="43.37351" lon="6.09956">
        <ele>300</ele>
        <time>2018-05-18T10:42:06</time>
      </trkpt>
      <trkpt lat="43.37345" lon="6.09988">
        <ele>300</ele>
        <time>2018-05-18T10:42:11</time>
      </trkpt>
      <trkpt lat="43.37328" lon="6.10006">
        <ele>305</ele>
        <time>2018-05-18T10:42:16</time>
      </trkpt>
      <trkpt lat="43.37303" lon="6.10009">
        <ele>305</ele>
        <time>2018-05-18T10:42:21</time>
      </trkpt>
      <trkpt lat="43.37277" lon="6.09998">
        <ele>304</ele>
        <time>2018-05-18T10:42:26</time>
      </trkpt>
      <trkpt lat="43.37251" lon="6.09997">
        <ele>305</ele>
        <time>2018-05-18T10:42:31</time>
      </trkpt>
      <trkpt lat="43.37223" lon="6.09995">
        <ele>303</ele>
        <time>2018-05-18T10:42:36</time>
      </trkpt>
      <trkpt lat="43.37196" lon="6.10003">
        <ele>307</ele>
        <time>2018-05-18T10:42:41</time>
      </trkpt>
      <trkpt lat="43.37161" lon="6.10008">
        <ele>304</ele>
        <time>2018-05-18T10:42:47</time>
      </trkpt>
      <trkpt lat="43.37128" lon="6.09994">
        <ele>304</ele>
        <time>2018-05-18T10:42:52</time>
      </trkpt>
      <trkpt lat="43.37098" lon="6.09955">
        <ele>304</ele>
        <time>2018-05-18T10:42:57</time>
      </trkpt>
      <trkpt lat="43.37069" lon="6.09911">
        <ele>304</ele>
        <time>2018-05-18T10:43:02</time>
      </trkpt>
      <trkpt lat="43.37029" lon="6.09893">
        <ele>304</ele>
        <time>2018-05-18T10:43:07</time>
      </trkpt>
      <trkpt lat="43.36988" lon="6.0988">
        <ele>301</ele>
        <time>2018-05-18T10:43:12</time>
      </trkpt>
      <trkpt lat="43.36943" lon="6.09864">
        <ele>300</ele>
        <time>2018-05-18T10:43:17</time>
      </trkpt>
      <trkpt lat="43.36904" lon="6.09846">
        <ele>298</ele>
        <time>2018-05-18T10:43:22</time>
      </trkpt>
      <trkpt lat="43.36869" lon="6.09832">
        <ele>298</ele>
        <time>2018-05-18T10:43:27</time>
      </trkpt>
      <trkpt lat="43.36829" lon="6.09818">
        <ele>299</ele>
        <time>2018-05-18T10:43:32</time>
      </trkpt>
      <trkpt lat="43.36797" lon="6.09797">
        <ele>297</ele>
        <time>2018-05-18T10:43:37</time>
      </trkpt>
      <trkpt lat="43.36775" lon="6.09772">
        <ele>298</ele>
        <time>2018-05-18T10:43:42</time>
      </trkpt>
      <trkpt lat="43.36749" lon="6.09751">
        <ele>298</ele>
        <time>2018-05-18T10:43:47</time>
      </trkpt>
      <trkpt lat="43.36724" lon="6.09733">
        <ele>298</ele>
        <time>2018-05-18T10:43:52</time>
      </trkpt>
      <trkpt lat="43.36699" lon="6.09715">
        <ele>299</ele>
        <time>2018-05-18T10:43:57</time>
      </trkpt>
      <trkpt lat="43.36664" lon="6.09693">
        <ele>300</ele>
        <time>2018-05-18T10:44:03</time>
      </trkpt>
      <trkpt lat="43.36638" lon="6.09675">
        <ele>298</ele>
        <time>2018-05-18T10:44:08</time>
      </trkpt>
      <trkpt lat="43.36612" lon="6.09655">
        <ele>297</ele>
        <time>2018-05-18T10:44:13</time>
      </trkpt>
      <trkpt lat="43.36586" lon="6.09634">
        <ele>300</ele>
        <time>2018-05-18T10:44:18</time>
      </trkpt>
      <trkpt lat="43.36562" lon="6.09605">
        <ele>301</ele>
        <time>2018-05-18T10:44:23</time>
      </trkpt>
      <trkpt lat="43.36539" lon="6.09574">
        <ele>302</ele>
        <time>2018-05-18T10:44:28</time>
      </trkpt>
      <trkpt lat="43.36514" lon="6.09543">
        <ele>300</ele>
        <time>2018-05-18T10:44:33</time>
      </trkpt>
      <trkpt lat="43.36492" lon="6.09503">
        <ele>299</ele>
        <time>2018-05-18T10:44:38</time>
      </trkpt>
      <trkpt lat="43.36469" lon="6.09475">
        <ele>298</ele>
        <time>2018-05-18T10:44:43</time>
      </trkpt>
      <trkpt lat="43.36429" lon="6.09458">
        <ele>298</ele>
        <time>2018-05-18T10:44:48</time>
      </trkpt>
      <trkpt lat="43.36392" lon="6.0944">
        <ele>289</ele>
        <time>2018-05-18T10:44:53</time>
      </trkpt>
      <trkpt lat="43.3636" lon="6.09435">
        <ele>297</ele>
        <time>2018-05-18T10:44:58</time>
      </trkpt>
      <trkpt lat="43.36334" lon="6.09416">
        <ele>296</ele>
        <time>2018-05-18T10:45:03</time>
      </trkpt>
      <trkpt lat="43.36323" lon="6.09392">
        <ele>296</ele>
        <time>2018-05-18T10:45:08</time>
      </trkpt>
      <trkpt lat="43.363" lon="6.09375">
        <ele>299</ele>
        <time>2018-05-18T10:45:14</time>
      </trkpt>
      <trkpt lat="43.3627" lon="6.09381">
        <ele>303</ele>
        <time>2018-05-18T10:45:19</time>
      </trkpt>
      <trkpt lat="43.36234" lon="6.0938">
        <ele>300</ele>
        <time>2018-05-18T10:45:24</time>
      </trkpt>
      <trkpt lat="43.36197" lon="6.09375">
        <ele>300</ele>
        <time>2018-05-18T10:45:29</time>
      </trkpt>
      <trkpt lat="43.36163" lon="6.09368">
        <ele>300</ele>
        <time>2018-05-18T10:45:34</time>
      </trkpt>
      <trkpt lat="43.36129" lon="6.09357">
        <ele>301</ele>
        <time>2018-05-18T10:45:39</time>
      </trkpt>
      <trkpt lat="43.36096" lon="6.09342">
        <ele>300</ele>
        <time>2018-05-18T10:45:44</time>
      </trkpt>
      <trkpt lat="43.36062" lon="6.09327">
        <ele>299</ele>
        <time>2018-05-18T10:45:49</time>
      </trkpt>
      <trkpt lat="43.36027" lon="6.09312">
        <ele>299</ele>
        <time>2018-05-18T10:45:54</time>
      </trkpt>
      <trkpt lat="43.35992" lon="6.09298">
        <ele>299</ele>
        <time>2018-05-18T10:45:59</time>
      </trkpt>
      <trkpt lat="43.35958" lon="6.09284">
        <ele>300</ele>
        <time>2018-05-18T10:46:04</time>
      </trkpt>
      <trkpt lat="43.35925" lon="6.09269">
        <ele>299</ele>
        <time>2018-05-18T10:46:09</time>
      </trkpt>
      <trkpt lat="43.35893" lon="6.09255">
        <ele>301</ele>
        <time>2018-05-18T10:46:14</time>
      </trkpt>
      <trkpt lat="43.35858" lon="6.09239">
        <ele>303</ele>
        <time>2018-05-18T10:46:19</time>
      </trkpt>
      <trkpt lat="43.35828" lon="6.0922">
        <ele>300</ele>
        <time>2018-05-18T10:46:24</time>
      </trkpt>
      <trkpt lat="43.35792" lon="6.09203">
        <ele>298</ele>
        <time>2018-05-18T10:46:29</time>
      </trkpt>
      <trkpt lat="43.3575" lon="6.09181">
        <ele>298</ele>
        <time>2018-05-18T10:46:35</time>
      </trkpt>
      <trkpt lat="43.35713" lon="6.09161">
        <ele>300</ele>
        <time>2018-05-18T10:46:40</time>
      </trkpt>
      <trkpt lat="43.35678" lon="6.09142">
        <ele>301</ele>
        <time>2018-05-18T10:46:45</time>
      </trkpt>
      <trkpt lat="43.35644" lon="6.09121">
        <ele>301</ele>
        <time>2018-05-18T10:46:50</time>
      </trkpt>
      <trkpt lat="43.35611" lon="6.09103">
        <ele>302</ele>
        <time>2018-05-18T10:46:55</time>
      </trkpt>
      <trkpt lat="43.35579" lon="6.09083">
        <ele>300</ele>
        <time>2018-05-18T10:47:00</time>
      </trkpt>
      <trkpt lat="43.35547" lon="6.09064">
        <ele>301</ele>
        <time>2018-05-18T10:47:05</time>
      </trkpt>
      <trkpt lat="43.35517" lon="6.09042">
        <ele>300</ele>
        <time>2018-05-18T10:47:10</time>
      </trkpt>
      <trkpt lat="43.35488" lon="6.09022">
        <ele>300</ele>
        <time>2018-05-18T10:47:15</time>
      </trkpt>
      <trkpt lat="43.35458" lon="6.09003">
        <ele>300</ele>
        <time>2018-05-18T10:47:20</time>
      </trkpt>
      <trkpt lat="43.35429" lon="6.08983">
        <ele>299</ele>
        <time>2018-05-18T10:47:25</time>
      </trkpt>
      <trkpt lat="43.354" lon="6.08963">
        <ele>299</ele>
        <time>2018-05-18T10:47:30</time>
      </trkpt>
      <trkpt lat="43.35371" lon="6.08943">
        <ele>302</ele>
        <time>2018-05-18T10:47:35</time>
      </trkpt>
      <trkpt lat="43.35342" lon="6.08921">
        <ele>302</ele>
        <time>2018-05-18T10:47:40</time>
      </trkpt>
      <trkpt lat="43.35307" lon="6.0889">
        <ele>299</ele>
        <time>2018-05-18T10:47:46</time>
      </trkpt>
      <trkpt lat="43.35278" lon="6.08866">
        <ele>297</ele>
        <time>2018-05-18T10:47:51</time>
      </trkpt>
      <trkpt lat="43.35252" lon="6.08841">
        <ele>298</ele>
        <time>2018-05-18T10:47:56</time>
      </trkpt>
      <trkpt lat="43.35232" lon="6.08813">
        <ele>299</ele>
        <time>2018-05-18T10:48:01</time>
      </trkpt>
      <trkpt lat="43.35211" lon="6.08786">
        <ele>299</ele>
        <time>2018-05-18T10:48:06</time>
      </trkpt>
      <trkpt lat="43.35183" lon="6.08759">
        <ele>302</ele>
        <time>2018-05-18T10:48:11</time>
      </trkpt>
      <trkpt lat="43.35161" lon="6.08724">
        <ele>303</ele>
        <time>2018-05-18T10:48:16</time>
      </trkpt>
      <trkpt lat="43.35132" lon="6.08689">
        <ele>303</ele>
        <time>2018-05-18T10:48:21</time>
      </trkpt>
      <trkpt lat="43.35106" lon="6.08649">
        <ele>302</ele>
        <time>2018-05-18T10:48:26</time>
      </trkpt>
      <trkpt lat="43.35078" lon="6.08606">
        <ele>301</ele>
        <time>2018-05-18T10:48:31</time>
      </trkpt>
      <trkpt lat="43.35048" lon="6.08563">
        <ele>301</ele>
        <time>2018-05-18T10:48:36</time>
      </trkpt>
      <trkpt lat="43.35011" lon="6.08532">
        <ele>300</ele>
        <time>2018-05-18T10:48:41</time>
      </trkpt>
      <trkpt lat="43.34969" lon="6.08516">
        <ele>295</ele>
        <time>2018-05-18T10:48:46</time>
      </trkpt>
      <trkpt lat="43.3493" lon="6.08504">
        <ele>297</ele>
        <time>2018-05-18T10:48:51</time>
      </trkpt>
      <trkpt lat="43.34888" lon="6.08494">
        <ele>299</ele>
        <time>2018-05-18T10:48:56</time>
      </trkpt>
      <trkpt lat="43.34846" lon="6.08484">
        <ele>300</ele>
        <time>2018-05-18T10:49:01</time>
      </trkpt>
      <trkpt lat="43.348" lon="6.08471">
        <ele>303</ele>
        <time>2018-05-18T10:49:07</time>
      </trkpt>
      <trkpt lat="43.34764" lon="6.08461">
        <ele>302</ele>
        <time>2018-05-18T10:49:12</time>
      </trkpt>
      <trkpt lat="43.3473" lon="6.08454">
        <ele>304</ele>
        <time>2018-05-18T10:49:17</time>
      </trkpt>
      <trkpt lat="43.34701" lon="6.0845">
        <ele>303</ele>
        <time>2018-05-18T10:49:22</time>
      </trkpt>
      <trkpt lat="43.34666" lon="6.08449">
        <ele>298</ele>
        <time>2018-05-18T10:49:27</time>
      </trkpt>
      <trkpt lat="43.34628" lon="6.08454">
        <ele>302</ele>
        <time>2018-05-18T10:49:32</time>
      </trkpt>
      <trkpt lat="43.3459" lon="6.08449">
        <ele>298</ele>
        <time>2018-05-18T10:49:37</time>
      </trkpt>
      <trkpt lat="43.34549" lon="6.08448">
        <ele>295</ele>
        <time>2018-05-18T10:49:42</time>
      </trkpt>
      <trkpt lat="43.34498" lon="6.08451">
        <ele>298</ele>
        <time>2018-05-18T10:49:47</time>
      </trkpt>
      <trkpt lat="43.34443" lon="6.0844">
        <ele>289</ele>
        <time>2018-05-18T10:49:52</time>
      </trkpt>
      <trkpt lat="43.34398" lon="6.08409">
        <ele>294</ele>
        <time>2018-05-18T10:49:57</time>
      </trkpt>
      <trkpt lat="43.34358" lon="6.08376">
        <ele>296</ele>
        <time>2018-05-18T10:50:02</time>
      </trkpt>
      <trkpt lat="43.34324" lon="6.08344">
        <ele>293</ele>
        <time>2018-05-18T10:50:07</time>
      </trkpt>
      <trkpt lat="43.34291" lon="6.08318">
        <ele>299</ele>
        <time>2018-05-18T10:50:12</time>
      </trkpt>
      <trkpt lat="43.34251" lon="6.08292">
        <ele>294</ele>
        <time>2018-05-18T10:50:17</time>
      </trkpt>
      <trkpt lat="43.342" lon="6.08301">
        <ele>291</ele>
        <time>2018-05-18T10:50:23</time>
      </trkpt>
      <trkpt lat="43.34161" lon="6.08323">
        <ele>293</ele>
        <time>2018-05-18T10:50:28</time>
      </trkpt>
      <trkpt lat="43.34121" lon="6.08346">
        <ele>294</ele>
        <time>2018-05-18T10:50:33</time>
      </trkpt>
      <trkpt lat="43.34078" lon="6.08363">
        <ele>290</ele>
        <time>2018-05-18T10:50:38</time>
      </trkpt>
      <trkpt lat="43.34029" lon="6.08388">
        <ele>296</ele>
        <time>2018-05-18T10:50:42</time>
      </trkpt>
      <trkpt lat="43.3399" lon="6.08408">
        <ele>297</ele>
        <time>2018-05-18T10:50:48</time>
      </trkpt>
      <trkpt lat="43.33957" lon="6.08421">
        <ele>295</ele>
        <time>2018-05-18T10:50:53</time>
      </trkpt>
      <trkpt lat="43.33931" lon="6.08395">
        <ele>295</ele>
        <time>2018-05-18T10:50:58</time>
      </trkpt>
      <trkpt lat="43.33911" lon="6.08358">
        <ele>295</ele>
        <time>2018-05-18T10:51:03</time>
      </trkpt>
      <trkpt lat="43.33888" lon="6.08328">
        <ele>296</ele>
        <time>2018-05-18T10:51:08</time>
      </trkpt>
      <trkpt lat="43.33868" lon="6.08298">
        <ele>296</ele>
        <time>2018-05-18T10:51:13</time>
      </trkpt>
      <trkpt lat="43.33844" lon="6.08269">
        <ele>296</ele>
        <time>2018-05-18T10:51:18</time>
      </trkpt>
      <trkpt lat="43.33815" lon="6.0824">
        <ele>294</ele>
        <time>2018-05-18T10:51:23</time>
      </trkpt>
      <trkpt lat="43.33791" lon="6.08208">
        <ele>292</ele>
        <time>2018-05-18T10:51:28</time>
      </trkpt>
      <trkpt lat="43.33762" lon="6.08167">
        <ele>287</ele>
        <time>2018-05-18T10:51:33</time>
      </trkpt>
      <trkpt lat="43.33733" lon="6.08135">
        <ele>282</ele>
        <time>2018-05-18T10:51:38</time>
      </trkpt>
      <trkpt lat="43.33717" lon="6.08094">
        <ele>286</ele>
        <time>2018-05-18T10:51:44</time>
      </trkpt>
      <trkpt lat="43.33709" lon="6.08056">
        <ele>288</ele>
        <time>2018-05-18T10:51:49</time>
      </trkpt>
      <trkpt lat="43.33687" lon="6.08031">
        <ele>291</ele>
        <time>2018-05-18T10:51:54</time>
      </trkpt>
      <trkpt lat="43.33654" lon="6.08018">
        <ele>296</ele>
        <time>2018-05-18T10:51:59</time>
      </trkpt>
      <trkpt lat="43.33616" lon="6.08027">
        <ele>302</ele>
        <time>2018-05-18T10:52:04</time>
      </trkpt>
      <trkpt lat="43.33584" lon="6.08009">
        <ele>300</ele>
        <time>2018-05-18T10:52:09</time>
      </trkpt>
      <trkpt lat="43.33555" lon="6.07985">
        <ele>298</ele>
        <time>2018-05-18T10:52:14</time>
      </trkpt>
      <trkpt lat="43.33526" lon="6.07963">
        <ele>297</ele>
        <time>2018-05-18T10:52:19</time>
      </trkpt>
      <trkpt lat="43.33505" lon="6.07936">
        <ele>297</ele>
        <time>2018-05-18T10:52:24</time>
      </trkpt>
      <trkpt lat="43.33486" lon="6.07907">
        <ele>297</ele>
        <time>2018-05-18T10:52:29</time>
      </trkpt>
      <trkpt lat="43.33467" lon="6.07879">
        <ele>297</ele>
        <time>2018-05-18T10:52:34</time>
      </trkpt>
      <trkpt lat="43.33452" lon="6.07844">
        <ele>293</ele>
        <time>2018-05-18T10:52:39</time>
      </trkpt>
      <trkpt lat="43.33446" lon="6.07812">
        <ele>297</ele>
        <time>2018-05-18T10:52:44</time>
      </trkpt>
      <trkpt lat="43.33437" lon="6.07782">
        <ele>302</ele>
        <time>2018-05-18T10:52:49</time>
      </trkpt>
      <trkpt lat="43.3342" lon="6.07741">
        <ele>297</ele>
        <time>2018-05-18T10:52:55</time>
      </trkpt>
      <trkpt lat="43.33402" lon="6.0771">
        <ele>296</ele>
        <time>2018-05-18T10:53:00</time>
      </trkpt>
      <trkpt lat="43.33379" lon="6.07679">
        <ele>294</ele>
        <time>2018-05-18T10:53:05</time>
      </trkpt>
      <trkpt lat="43.33367" lon="6.07634">
        <ele>299</ele>
        <time>2018-05-18T10:53:10</time>
      </trkpt>
      <trkpt lat="43.33353" lon="6.07585">
        <ele>301</ele>
        <time>2018-05-18T10:53:15</time>
      </trkpt>
      <trkpt lat="43.33343" lon="6.07542">
        <ele>303</ele>
        <time>2018-05-18T10:53:20</time>
      </trkpt>
      <trkpt lat="43.33337" lon="6.07479">
        <ele>303</ele>
        <time>2018-05-18T10:53:25</time>
      </trkpt>
      <trkpt lat="43.33334" lon="6.07414">
        <ele>298</ele>
        <time>2018-05-18T10:53:30</time>
      </trkpt>
      <trkpt lat="43.33334" lon="6.07345">
        <ele>301</ele>
        <time>2018-05-18T10:53:35</time>
      </trkpt>
      <trkpt lat="43.33334" lon="6.07277">
        <ele>302</ele>
        <time>2018-05-18T10:53:40</time>
      </trkpt>
      <trkpt lat="43.33337" lon="6.07211">
        <ele>298</ele>
        <time>2018-05-18T10:53:45</time>
      </trkpt>
      <trkpt lat="43.33345" lon="6.07149">
        <ele>287</ele>
        <time>2018-05-18T10:53:50</time>
      </trkpt>
      <trkpt lat="43.33356" lon="6.07098">
        <ele>289</ele>
        <time>2018-05-18T10:53:55</time>
      </trkpt>
      <trkpt lat="43.33375" lon="6.07051">
        <ele>289</ele>
        <time>2018-05-18T10:54:00</time>
      </trkpt>
      <trkpt lat="43.33389" lon="6.06995">
        <ele>288</ele>
        <time>2018-05-18T10:54:06</time>
      </trkpt>
      <trkpt lat="43.3337" lon="6.06951">
        <ele>291</ele>
        <time>2018-05-18T10:54:11</time>
      </trkpt>
      <trkpt lat="43.33348" lon="6.06906">
        <ele>292</ele>
        <time>2018-05-18T10:54:16</time>
      </trkpt>
      <trkpt lat="43.33329" lon="6.06855">
        <ele>295</ele>
        <time>2018-05-18T10:54:21</time>
      </trkpt>
      <trkpt lat="43.3331" lon="6.06803">
        <ele>292</ele>
        <time>2018-05-18T10:54:26</time>
      </trkpt>
      <trkpt lat="43.3331" lon="6.06743">
        <ele>289</ele>
        <time>2018-05-18T10:54:31</time>
      </trkpt>
      <trkpt lat="43.33312" lon="6.06687">
        <ele>290</ele>
        <time>2018-05-18T10:54:36</time>
      </trkpt>
      <trkpt lat="43.33313" lon="6.06627">
        <ele>288</ele>
        <time>2018-05-18T10:54:41</time>
      </trkpt>
      <trkpt lat="43.33309" lon="6.06556">
        <ele>286</ele>
        <time>2018-05-18T10:54:47</time>
      </trkpt>
      <trkpt lat="43.33304" lon="6.06499">
        <ele>287</ele>
        <time>2018-05-18T10:54:52</time>
      </trkpt>
      <trkpt lat="43.333" lon="6.0644">
        <ele>291</ele>
        <time>2018-05-18T10:54:57</time>
      </trkpt>
      <trkpt lat="43.33297" lon="6.06383">
        <ele>290</ele>
        <time>2018-05-18T10:55:02</time>
      </trkpt>
      <trkpt lat="43.33292" lon="6.06327">
        <ele>289</ele>
        <time>2018-05-18T10:55:07</time>
      </trkpt>
      <trkpt lat="43.33282" lon="6.06273">
        <ele>290</ele>
        <time>2018-05-18T10:55:12</time>
      </trkpt>
      <trkpt lat="43.33261" lon="6.06228">
        <ele>290</ele>
        <time>2018-05-18T10:55:17</time>
      </trkpt>
      <trkpt lat="43.33237" lon="6.06181">
        <ele>292</ele>
        <time>2018-05-18T10:55:22</time>
      </trkpt>
      <trkpt lat="43.33216" lon="6.06134">
        <ele>294</ele>
        <time>2018-05-18T10:55:27</time>
      </trkpt>
      <trkpt lat="43.33206" lon="6.0608">
        <ele>294</ele>
        <time>2018-05-18T10:55:32</time>
      </trkpt>
      <trkpt lat="43.33198" lon="6.06026">
        <ele>291</ele>
        <time>2018-05-18T10:55:37</time>
      </trkpt>
      <trkpt lat="43.332" lon="6.05971">
        <ele>287</ele>
        <time>2018-05-18T10:55:42</time>
      </trkpt>
      <trkpt lat="43.33199" lon="6.0592">
        <ele>281</ele>
        <time>2018-05-18T10:55:47</time>
      </trkpt>
      <trkpt lat="43.33195" lon="6.05874">
        <ele>284</ele>
        <time>2018-05-18T10:55:52</time>
      </trkpt>
      <trkpt lat="43.3319" lon="6.05829">
        <ele>284</ele>
        <time>2018-05-18T10:55:57</time>
      </trkpt>
      <trkpt lat="43.33179" lon="6.05778">
        <ele>287</ele>
        <time>2018-05-18T10:56:03</time>
      </trkpt>
      <trkpt lat="43.3319" lon="6.05774">
        <ele>295</ele>
        <time>2018-05-18T10:56:08</time>
      </trkpt>
      <trkpt lat="43.33195" lon="6.05804">
        <ele>300</ele>
        <time>2018-05-18T10:56:13</time>
      </trkpt>
      <trkpt lat="43.33206" lon="6.05826">
        <ele>301</ele>
        <time>2018-05-18T10:56:18</time>
      </trkpt>
      <trkpt lat="43.33213" lon="6.05819">
        <ele>301</ele>
        <time>2018-05-18T10:56:23</time>
      </trkpt>
      <trkpt lat="43.33206" lon="6.05818">
        <ele>302</ele>
        <time>2018-05-18T10:57:03</time>
      </trkpt>
      <trkpt lat="43.33207" lon="6.05808">
        <ele>303</ele>
        <time>2018-05-18T10:57:12</time>
      </trkpt>
      <trkpt lat="43.3321" lon="6.05802">
        <ele>301</ele>
        <time>2018-05-18T10:57:19</time>
      </trkpt>
      <trkpt lat="43.33216" lon="6.05796">
        <ele>301</ele>
        <time>2018-05-18T10:57:29</time>
      </trkpt>
      <trkpt lat="43.33224" lon="6.05797">
        <ele>304</ele>
        <time>2018-05-18T10:57:44</time>
      </trkpt>
      <trkpt lat="43.33231" lon="6.058">
        <ele>302</ele>
        <time>2018-05-18T10:58:08</time>
      </trkpt>
      <trkpt lat="43.33237" lon="6.05803">
        <ele>304</ele>
        <time>2018-05-18T10:58:24</time>
      </trkpt>
      <trkpt lat="43.33243" lon="6.05807">
        <ele>308</ele>
        <time>2018-05-18T10:58:54</time>
      </trkpt>
      <trkpt lat="43.33248" lon="6.05816">
        <ele>304</ele>
        <time>2018-05-18T10:59:23</time>
      </trkpt>
      <trkpt lat="43.33249" lon="6.05802">
        <ele>303</ele>
        <time>2018-05-18T11:00:15</time>
      </trkpt>
      <trkpt lat="43.33247" lon="6.05794">
        <ele>297</ele>
        <time>2018-05-18T11:00:25</time>
      </trkpt>
      <trkpt lat="43.33241" lon="6.05788">
        <ele>300</ele>
        <time>2018-05-18T11:00:40</time>
      </trkpt>
      <trkpt lat="43.33232" lon="6.05794">
        <ele>296</ele>
        <time>2018-05-18T11:00:51</time>
      </trkpt>
      <trkpt lat="43.33226" lon="6.05799">
        <ele>301</ele>
        <time>2018-05-18T11:00:56</time>
      </trkpt>
      <trkpt lat="43.33221" lon="6.05805">
        <ele>304</ele>
        <time>2018-05-18T11:01:01</time>
      </trkpt>
      <trkpt lat="43.33216" lon="6.0581">
        <ele>306</ele>
        <time>2018-05-18T11:01:15</time>
      </trkpt>
      <trkpt lat="43.33218" lon="6.05818">
        <ele>302</ele>
        <time>2018-05-18T11:01:35</time>
      </trkpt>
      <trkpt lat="43.33212" lon="6.05804">
        <ele>307</ele>
        <time>2018-05-18T11:01:52</time>
      </trkpt>
      <trkpt lat="43.3321" lon="6.05793">
        <ele>310</ele>
        <time>2018-05-18T11:01:57</time>
      </trkpt>
      <trkpt lat="43.33207" lon="6.05779">
        <ele>312</ele>
        <time>2018-05-18T11:02:02</time>
      </trkpt>
      <trkpt lat="43.33193" lon="6.05773">
        <ele>304</ele>
        <time>2018-05-18T11:02:07</time>
      </trkpt>
      <trkpt lat="43.33181" lon="6.05774">
        <ele>304</ele>
        <time>2018-05-18T11:02:12</time>
      </trkpt>
      <trkpt lat="43.33169" lon="6.05751">
        <ele>303</ele>
        <time>2018-05-18T11:02:17</time>
      </trkpt>
      <trkpt lat="43.3316" lon="6.05722">
        <ele>301</ele>
        <time>2018-05-18T11:02:22</time>
      </trkpt>
      <trkpt lat="43.33154" lon="6.05676">
        <ele>304</ele>
        <time>2018-05-18T11:02:27</time>
      </trkpt>
      <trkpt lat="43.33143" lon="6.05638">
        <ele>303</ele>
        <time>2018-05-18T11:02:32</time>
      </trkpt>
      <trkpt lat="43.33127" lon="6.05598">
        <ele>303</ele>
        <time>2018-05-18T11:02:36</time>
      </trkpt>
      <trkpt lat="43.33116" lon="6.05552">
        <ele>301</ele>
        <time>2018-05-18T11:02:42</time>
      </trkpt>
      <trkpt lat="43.33106" lon="6.05511">
        <ele>302</ele>
        <time>2018-05-18T11:02:47</time>
      </trkpt>
      <trkpt lat="43.33108" lon="6.05469">
        <ele>304</ele>
        <time>2018-05-18T11:02:52</time>
      </trkpt>
      <trkpt lat="43.33086" lon="6.05427">
        <ele>304</ele>
        <time>2018-05-18T11:02:58</time>
      </trkpt>
      <trkpt lat="43.33071" lon="6.0539">
        <ele>304</ele>
        <time>2018-05-18T11:03:03</time>
      </trkpt>
      <trkpt lat="43.33064" lon="6.05346">
        <ele>299</ele>
        <time>2018-05-18T11:03:08</time>
      </trkpt>
      <trkpt lat="43.33062" lon="6.05305">
        <ele>294</ele>
        <time>2018-05-18T11:03:13</time>
      </trkpt>
      <trkpt lat="43.33061" lon="6.05263">
        <ele>291</ele>
        <time>2018-05-18T11:03:18</time>
      </trkpt>
      <trkpt lat="43.33057" lon="6.05212">
        <ele>287</ele>
        <time>2018-05-18T11:03:23</time>
      </trkpt>
      <trkpt lat="43.33056" lon="6.0516">
        <ele>286</ele>
        <time>2018-05-18T11:03:28</time>
      </trkpt>
      <trkpt lat="43.33053" lon="6.05109">
        <ele>283</ele>
        <time>2018-05-18T11:03:33</time>
      </trkpt>
      <trkpt lat="43.33042" lon="6.05061">
        <ele>283</ele>
        <time>2018-05-18T11:03:38</time>
      </trkpt>
      <trkpt lat="43.33029" lon="6.05014">
        <ele>284</ele>
        <time>2018-05-18T11:03:43</time>
      </trkpt>
      <trkpt lat="43.33029" lon="6.04967">
        <ele>288</ele>
        <time>2018-05-18T11:03:48</time>
      </trkpt>
      <trkpt lat="43.3304" lon="6.04927">
        <ele>289</ele>
        <time>2018-05-18T11:03:53</time>
      </trkpt>
      <trkpt lat="43.3305" lon="6.04887">
        <ele>293</ele>
        <time>2018-05-18T11:03:58</time>
      </trkpt>
      <trkpt lat="43.33059" lon="6.04847">
        <ele>299</ele>
        <time>2018-05-18T11:04:03</time>
      </trkpt>
      <trkpt lat="43.33066" lon="6.04803">
        <ele>302</ele>
        <time>2018-05-18T11:04:08</time>
      </trkpt>
      <trkpt lat="43.33074" lon="6.0476">
        <ele>301</ele>
        <time>2018-05-18T11:04:13</time>
      </trkpt>
      <trkpt lat="43.33083" lon="6.0471">
        <ele>298</ele>
        <time>2018-05-18T11:04:19</time>
      </trkpt>
      <trkpt lat="43.33096" lon="6.04674">
        <ele>300</ele>
        <time>2018-05-18T11:04:24</time>
      </trkpt>
      <trkpt lat="43.33089" lon="6.04634">
        <ele>300</ele>
        <time>2018-05-18T11:04:29</time>
      </trkpt>
      <trkpt lat="43.33086" lon="6.04588">
        <ele>302</ele>
        <time>2018-05-18T11:04:34</time>
      </trkpt>
      <trkpt lat="43.3308" lon="6.04541">
        <ele>302</ele>
        <time>2018-05-18T11:04:39</time>
      </trkpt>
      <trkpt lat="43.33068" lon="6.04498">
        <ele>301</ele>
        <time>2018-05-18T11:04:44</time>
      </trkpt>
      <trkpt lat="43.33052" lon="6.04453">
        <ele>296</ele>
        <time>2018-05-18T11:04:49</time>
      </trkpt>
      <trkpt lat="43.33035" lon="6.04413">
        <ele>296</ele>
        <time>2018-05-18T11:04:54</time>
      </trkpt>
      <trkpt lat="43.33015" lon="6.04378">
        <ele>296</ele>
        <time>2018-05-18T11:04:59</time>
      </trkpt>
      <trkpt lat="43.3299" lon="6.04344">
        <ele>298</ele>
        <time>2018-05-18T11:05:04</time>
      </trkpt>
      <trkpt lat="43.32966" lon="6.04313">
        <ele>296</ele>
        <time>2018-05-18T11:05:09</time>
      </trkpt>
      <trkpt lat="43.32936" lon="6.04282">
        <ele>296</ele>
        <time>2018-05-18T11:05:14</time>
      </trkpt>
      <trkpt lat="43.32911" lon="6.04246">
        <ele>294</ele>
        <time>2018-05-18T11:05:19</time>
      </trkpt>
      <trkpt lat="43.32883" lon="6.04203">
        <ele>295</ele>
        <time>2018-05-18T11:05:25</time>
      </trkpt>
      <trkpt lat="43.32861" lon="6.04169">
        <ele>294</ele>
        <time>2018-05-18T11:05:30</time>
      </trkpt>
      <trkpt lat="43.32838" lon="6.04136">
        <ele>295</ele>
        <time>2018-05-18T11:05:35</time>
      </trkpt>
      <trkpt lat="43.32818" lon="6.04101">
        <ele>298</ele>
        <time>2018-05-18T11:05:40</time>
      </trkpt>
      <trkpt lat="43.32815" lon="6.04055">
        <ele>299</ele>
        <time>2018-05-18T11:05:45</time>
      </trkpt>
      <trkpt lat="43.32828" lon="6.04013">
        <ele>301</ele>
        <time>2018-05-18T11:05:50</time>
      </trkpt>
      <trkpt lat="43.32839" lon="6.03981">
        <ele>306</ele>
        <time>2018-05-18T11:05:55</time>
      </trkpt>
      <trkpt lat="43.32847" lon="6.03955">
        <ele>309</ele>
        <time>2018-05-18T11:06:00</time>
      </trkpt>
      <trkpt lat="43.32854" lon="6.0393">
        <ele>311</ele>
        <time>2018-05-18T11:06:05</time>
      </trkpt>
      <trkpt lat="43.32863" lon="6.03907">
        <ele>313</ele>
        <time>2018-05-18T11:06:10</time>
      </trkpt>
      <trkpt lat="43.3287" lon="6.03878">
        <ele>313</ele>
        <time>2018-05-18T11:06:15</time>
      </trkpt>
      <trkpt lat="43.32881" lon="6.03842">
        <ele>314</ele>
        <time>2018-05-18T11:06:20</time>
      </trkpt>
      <trkpt lat="43.32891" lon="6.03805">
        <ele>314</ele>
        <time>2018-05-18T11:06:25</time>
      </trkpt>
      <trkpt lat="43.32901" lon="6.03769">
        <ele>316</ele>
        <time>2018-05-18T11:06:30</time>
      </trkpt>
      <trkpt lat="43.3291" lon="6.0373">
        <ele>316</ele>
        <time>2018-05-18T11:06:35</time>
      </trkpt>
      <trkpt lat="43.32921" lon="6.03691">
        <ele>313</ele>
        <time>2018-05-18T11:06:40</time>
      </trkpt>
      <trkpt lat="43.32928" lon="6.03642">
        <ele>310</ele>
        <time>2018-05-18T11:06:46</time>
      </trkpt>
      <trkpt lat="43.32932" lon="6.03611">
        <ele>311</ele>
        <time>2018-05-18T11:06:51</time>
      </trkpt>
      <trkpt lat="43.32939" lon="6.03557">
        <ele>301</ele>
        <time>2018-05-18T11:06:56</time>
      </trkpt>
      <trkpt lat="43.32934" lon="6.03528">
        <ele>300</ele>
        <time>2018-05-18T11:07:01</time>
      </trkpt>
      <trkpt lat="43.32934" lon="6.03497">
        <ele>300</ele>
        <time>2018-05-18T11:07:06</time>
      </trkpt>
      <trkpt lat="43.32944" lon="6.03464">
        <ele>302</ele>
        <time>2018-05-18T11:07:11</time>
      </trkpt>
      <trkpt lat="43.32951" lon="6.03431">
        <ele>303</ele>
        <time>2018-05-18T11:07:16</time>
      </trkpt>
      <trkpt lat="43.32955" lon="6.03391">
        <ele>303</ele>
        <time>2018-05-18T11:07:21</time>
      </trkpt>
      <trkpt lat="43.32962" lon="6.03358">
        <ele>307</ele>
        <time>2018-05-18T11:07:26</time>
      </trkpt>
      <trkpt lat="43.32969" lon="6.03318">
        <ele>309</ele>
        <time>2018-05-18T11:07:31</time>
      </trkpt>
      <trkpt lat="43.32977" lon="6.03277">
        <ele>310</ele>
        <time>2018-05-18T11:07:36</time>
      </trkpt>
      <trkpt lat="43.32986" lon="6.03238">
        <ele>311</ele>
        <time>2018-05-18T11:07:41</time>
      </trkpt>
      <trkpt lat="43.32994" lon="6.03197">
        <ele>315</ele>
        <time>2018-05-18T11:07:46</time>
      </trkpt>
      <trkpt lat="43.33" lon="6.03154">
        <ele>315</ele>
        <time>2018-05-18T11:07:51</time>
      </trkpt>
      <trkpt lat="43.33006" lon="6.03111">
        <ele>316</ele>
        <time>2018-05-18T11:07:56</time>
      </trkpt>
      <trkpt lat="43.33009" lon="6.03069">
        <ele>318</ele>
        <time>2018-05-18T11:08:01</time>
      </trkpt>
      <trkpt lat="43.33011" lon="6.03029">
        <ele>317</ele>
        <time>2018-05-18T11:08:06</time>
      </trkpt>
      <trkpt lat="43.33012" lon="6.02976">
        <ele>319</ele>
        <time>2018-05-18T11:08:12</time>
      </trkpt>
      <trkpt lat="43.33013" lon="6.02938">
        <ele>321</ele>
        <time>2018-05-18T11:08:17</time>
      </trkpt>
      <trkpt lat="43.33018" lon="6.029">
        <ele>322</ele>
        <time>2018-05-18T11:08:22</time>
      </trkpt>
      <trkpt lat="43.3302" lon="6.0286">
        <ele>324</ele>
        <time>2018-05-18T11:08:27</time>
      </trkpt>
      <trkpt lat="43.33026" lon="6.02819">
        <ele>326</ele>
        <time>2018-05-18T11:08:32</time>
      </trkpt>
      <trkpt lat="43.33033" lon="6.02776">
        <ele>325</ele>
        <time>2018-05-18T11:08:37</time>
      </trkpt>
      <trkpt lat="43.33037" lon="6.02733">
        <ele>325</ele>
        <time>2018-05-18T11:08:42</time>
      </trkpt>
      <trkpt lat="43.33044" lon="6.02694">
        <ele>326</ele>
        <time>2018-05-18T11:08:47</time>
      </trkpt>
      <trkpt lat="43.33054" lon="6.02652">
        <ele>325</ele>
        <time>2018-05-18T11:08:52</time>
      </trkpt>
      <trkpt lat="43.33067" lon="6.02614">
        <ele>324</ele>
        <time>2018-05-18T11:08:57</time>
      </trkpt>
      <trkpt lat="43.33082" lon="6.02572">
        <ele>325</ele>
        <time>2018-05-18T11:09:02</time>
      </trkpt>
      <trkpt lat="43.33097" lon="6.02534">
        <ele>323</ele>
        <time>2018-05-18T11:09:07</time>
      </trkpt>
      <trkpt lat="43.33107" lon="6.02496">
        <ele>328</ele>
        <time>2018-05-18T11:09:12</time>
      </trkpt>
      <trkpt lat="43.3312" lon="6.02456">
        <ele>327</ele>
        <time>2018-05-18T11:09:17</time>
      </trkpt>
      <trkpt lat="43.33133" lon="6.02416">
        <ele>329</ele>
        <time>2018-05-18T11:09:23</time>
      </trkpt>
      <trkpt lat="43.33143" lon="6.02381">
        <ele>333</ele>
        <time>2018-05-18T11:09:28</time>
      </trkpt>
      <trkpt lat="43.33155" lon="6.02346">
        <ele>333</ele>
        <time>2018-05-18T11:09:33</time>
      </trkpt>
      <trkpt lat="43.33167" lon="6.02311">
        <ele>334</ele>
        <time>2018-05-18T11:09:38</time>
      </trkpt>
      <trkpt lat="43.3318" lon="6.02274">
        <ele>334</ele>
        <time>2018-05-18T11:09:43</time>
      </trkpt>
      <trkpt lat="43.3319" lon="6.02241">
        <ele>334</ele>
        <time>2018-05-18T11:09:48</time>
      </trkpt>
      <trkpt lat="43.33198" lon="6.02205">
        <ele>335</ele>
        <time>2018-05-18T11:09:53</time>
      </trkpt>
      <trkpt lat="43.33202" lon="6.02169">
        <ele>338</ele>
        <time>2018-05-18T11:09:58</time>
      </trkpt>
      <trkpt lat="43.33202" lon="6.02129">
        <ele>339</ele>
        <time>2018-05-18T11:10:03</time>
      </trkpt>
      <trkpt lat="43.33198" lon="6.02079">
        <ele>334</ele>
        <time>2018-05-18T11:10:08</time>
      </trkpt>
      <trkpt lat="43.33187" lon="6.02035">
        <ele>335</ele>
        <time>2018-05-18T11:10:13</time>
      </trkpt>
      <trkpt lat="43.33173" lon="6.01991">
        <ele>335</ele>
        <time>2018-05-18T11:10:18</time>
      </trkpt>
      <trkpt lat="43.33156" lon="6.01947">
        <ele>335</ele>
        <time>2018-05-18T11:10:23</time>
      </trkpt>
      <trkpt lat="43.33141" lon="6.01903">
        <ele>336</ele>
        <time>2018-05-18T11:10:28</time>
      </trkpt>
      <trkpt lat="43.33124" lon="6.01862">
        <ele>335</ele>
        <time>2018-05-18T11:10:33</time>
      </trkpt>
      <trkpt lat="43.33112" lon="6.01813">
        <ele>334</ele>
        <time>2018-05-18T11:10:38</time>
      </trkpt>
      <trkpt lat="43.33106" lon="6.01755">
        <ele>333</ele>
        <time>2018-05-18T11:10:44</time>
      </trkpt>
      <trkpt lat="43.33104" lon="6.01702">
        <ele>326</ele>
        <time>2018-05-18T11:10:49</time>
      </trkpt>
      <trkpt lat="43.33097" lon="6.01644">
        <ele>324</ele>
        <time>2018-05-18T11:10:54</time>
      </trkpt>
      <trkpt lat="43.33086" lon="6.0159">
        <ele>328</ele>
        <time>2018-05-18T11:10:59</time>
      </trkpt>
      <trkpt lat="43.33078" lon="6.01534">
        <ele>330</ele>
        <time>2018-05-18T11:11:04</time>
      </trkpt>
      <trkpt lat="43.3307" lon="6.01474">
        <ele>329</ele>
        <time>2018-05-18T11:11:09</time>
      </trkpt>
      <trkpt lat="43.33061" lon="6.01413">
        <ele>328</ele>
        <time>2018-05-18T11:11:14</time>
      </trkpt>
      <trkpt lat="43.33052" lon="6.01355">
        <ele>332</ele>
        <time>2018-05-18T11:11:19</time>
      </trkpt>
      <trkpt lat="43.33045" lon="6.01291">
        <ele>330</ele>
        <time>2018-05-18T11:11:24</time>
      </trkpt>
      <trkpt lat="43.33041" lon="6.01225">
        <ele>325</ele>
        <time>2018-05-18T11:11:29</time>
      </trkpt>
      <trkpt lat="43.33035" lon="6.01164">
        <ele>326</ele>
        <time>2018-05-18T11:11:34</time>
      </trkpt>
      <trkpt lat="43.33041" lon="6.01099">
        <ele>324</ele>
        <time>2018-05-18T11:11:39</time>
      </trkpt>
      <trkpt lat="43.33051" lon="6.01036">
        <ele>322</ele>
        <time>2018-05-18T11:11:44</time>
      </trkpt>
      <trkpt lat="43.33064" lon="6.0097">
        <ele>320</ele>
        <time>2018-05-18T11:11:49</time>
      </trkpt>
      <trkpt lat="43.33073" lon="6.00895">
        <ele>313</ele>
        <time>2018-05-18T11:11:55</time>
      </trkpt>
      <trkpt lat="43.33064" lon="6.00833">
        <ele>316</ele>
        <time>2018-05-18T11:12:00</time>
      </trkpt>
      <trkpt lat="43.33047" lon="6.00773">
        <ele>320</ele>
        <time>2018-05-18T11:12:05</time>
      </trkpt>
      <trkpt lat="43.33032" lon="6.00718">
        <ele>321</ele>
        <time>2018-05-18T11:12:10</time>
      </trkpt>
      <trkpt lat="43.33021" lon="6.00663">
        <ele>323</ele>
        <time>2018-05-18T11:12:15</time>
      </trkpt>
      <trkpt lat="43.33019" lon="6.00615">
        <ele>330</ele>
        <time>2018-05-18T11:12:20</time>
      </trkpt>
      <trkpt lat="43.33029" lon="6.00562">
        <ele>326</ele>
        <time>2018-05-18T11:12:25</time>
      </trkpt>
      <trkpt lat="43.3304" lon="6.00521">
        <ele>329</ele>
        <time>2018-05-18T11:12:30</time>
      </trkpt>
      <trkpt lat="43.33051" lon="6.00487">
        <ele>331</ele>
        <time>2018-05-18T11:12:35</time>
      </trkpt>
      <trkpt lat="43.33069" lon="6.00455">
        <ele>332</ele>
        <time>2018-05-18T11:12:40</time>
      </trkpt>
      <trkpt lat="43.33081" lon="6.00414">
        <ele>330</ele>
        <time>2018-05-18T11:12:45</time>
      </trkpt>
      <trkpt lat="43.33092" lon="6.00374">
        <ele>323</ele>
        <time>2018-05-18T11:12:50</time>
      </trkpt>
      <trkpt lat="43.33092" lon="6.00335">
        <ele>327</ele>
        <time>2018-05-18T11:12:55</time>
      </trkpt>
      <trkpt lat="43.33094" lon="6.00296">
        <ele>329</ele>
        <time>2018-05-18T11:13:00</time>
      </trkpt>
      <trkpt lat="43.33095" lon="6.00259">
        <ele>331</ele>
        <time>2018-05-18T11:13:05</time>
      </trkpt>
      <trkpt lat="43.33101" lon="6.0021">
        <ele>331</ele>
        <time>2018-05-18T11:13:11</time>
      </trkpt>
      <trkpt lat="43.3311" lon="6.00172">
        <ele>330</ele>
        <time>2018-05-18T11:13:16</time>
      </trkpt>
      <trkpt lat="43.33122" lon="6.00129">
        <ele>330</ele>
        <time>2018-05-18T11:13:21</time>
      </trkpt>
      <trkpt lat="43.33134" lon="6.00092">
        <ele>331</ele>
        <time>2018-05-18T11:13:26</time>
      </trkpt>
      <trkpt lat="43.33151" lon="6.00048">
        <ele>326</ele>
        <time>2018-05-18T11:13:31</time>
      </trkpt>
      <trkpt lat="43.33162" lon="6.00011">
        <ele>328</ele>
        <time>2018-05-18T11:13:36</time>
      </trkpt>
      <trkpt lat="43.33175" lon="5.99979">
        <ele>327</ele>
        <time>2018-05-18T11:13:41</time>
      </trkpt>
      <trkpt lat="43.33188" lon="6.00009">
        <ele>342</ele>
        <time>2018-05-18T11:13:46</time>
      </trkpt>
      <trkpt lat="43.33201" lon="6.00039">
        <ele>344</ele>
        <time>2018-05-18T11:13:51</time>
      </trkpt>
      <trkpt lat="43.33218" lon="6.00074">
        <ele>346</ele>
        <time>2018-05-18T11:13:56</time>
      </trkpt>
      <trkpt lat="43.33237" lon="6.00111">
        <ele>347</ele>
        <time>2018-05-18T11:14:01</time>
      </trkpt>
      <trkpt lat="43.33257" lon="6.00145">
        <ele>349</ele>
        <time>2018-05-18T11:14:06</time>
      </trkpt>
      <trkpt lat="43.33272" lon="6.00183">
        <ele>351</ele>
        <time>2018-05-18T11:14:11</time>
      </trkpt>
      <trkpt lat="43.33288" lon="6.0022">
        <ele>352</ele>
        <time>2018-05-18T11:14:16</time>
      </trkpt>
      <trkpt lat="43.33309" lon="6.00253">
        <ele>354</ele>
        <time>2018-05-18T11:14:21</time>
      </trkpt>
      <trkpt lat="43.33335" lon="6.0029">
        <ele>354</ele>
        <time>2018-05-18T11:14:27</time>
      </trkpt>
      <trkpt lat="43.33346" lon="6.00315">
        <ele>354</ele>
        <time>2018-05-18T11:14:32</time>
      </trkpt>
      <trkpt lat="43.33356" lon="6.00353">
        <ele>355</ele>
        <time>2018-05-18T11:14:37</time>
      </trkpt>
      <trkpt lat="43.33364" lon="6.00395">
        <ele>356</ele>
        <time>2018-05-18T11:14:42</time>
      </trkpt>
      <trkpt lat="43.33375" lon="6.00436">
        <ele>357</ele>
        <time>2018-05-18T11:14:47</time>
      </trkpt>
      <trkpt lat="43.33395" lon="6.00473">
        <ele>357</ele>
        <time>2018-05-18T11:14:52</time>
      </trkpt>
      <trkpt lat="43.33411" lon="6.00507">
        <ele>358</ele>
        <time>2018-05-18T11:14:57</time>
      </trkpt>
      <trkpt lat="43.33427" lon="6.00551">
        <ele>353</ele>
        <time>2018-05-18T11:15:02</time>
      </trkpt>
      <trkpt lat="43.33443" lon="6.00595">
        <ele>354</ele>
        <time>2018-05-18T11:15:07</time>
      </trkpt>
      <trkpt lat="43.33461" lon="6.00639">
        <ele>354</ele>
        <time>2018-05-18T11:15:12</time>
      </trkpt>
      <trkpt lat="43.33479" lon="6.00683">
        <ele>355</ele>
        <time>2018-05-18T11:15:17</time>
      </trkpt>
      <trkpt lat="43.33497" lon="6.00722">
        <ele>356</ele>
        <time>2018-05-18T11:15:22</time>
      </trkpt>
      <trkpt lat="43.33509" lon="6.00763">
        <ele>357</ele>
        <time>2018-05-18T11:15:27</time>
      </trkpt>
      <trkpt lat="43.33518" lon="6.00808">
        <ele>356</ele>
        <time>2018-05-18T11:15:32</time>
      </trkpt>
      <trkpt lat="43.33527" lon="6.00852">
        <ele>356</ele>
        <time>2018-05-18T11:15:37</time>
      </trkpt>
      <trkpt lat="43.3355" lon="6.00875">
        <ele>356</ele>
        <time>2018-05-18T11:15:43</time>
      </trkpt>
      <trkpt lat="43.33573" lon="6.00861">
        <ele>357</ele>
        <time>2018-05-18T11:15:48</time>
      </trkpt>
      <trkpt lat="43.33593" lon="6.00844">
        <ele>356</ele>
        <time>2018-05-18T11:15:53</time>
      </trkpt>
      <trkpt lat="43.33613" lon="6.00823">
        <ele>356</ele>
        <time>2018-05-18T11:15:58</time>
      </trkpt>
      <trkpt lat="43.33622" lon="6.0079">
        <ele>356</ele>
        <time>2018-05-18T11:16:03</time>
      </trkpt>
      <trkpt lat="43.33629" lon="6.00768">
        <ele>354</ele>
        <time>2018-05-18T11:16:08</time>
      </trkpt>
      <trkpt lat="43.33637" lon="6.00755">
        <ele>354</ele>
        <time>2018-05-18T11:16:13</time>
      </trkpt>
      <trkpt lat="43.33642" lon="6.00723">
        <ele>357</ele>
        <time>2018-05-18T11:16:18</time>
      </trkpt>
      <trkpt lat="43.33646" lon="6.00694">
        <ele>361</ele>
        <time>2018-05-18T11:16:23</time>
      </trkpt>
      <trkpt lat="43.33651" lon="6.00667">
        <ele>366</ele>
        <time>2018-05-18T11:16:28</time>
      </trkpt>
      <trkpt lat="43.33663" lon="6.00631">
        <ele>365</ele>
        <time>2018-05-18T11:16:33</time>
      </trkpt>
      <trkpt lat="43.3367" lon="6.00606">
        <ele>367</ele>
        <time>2018-05-18T11:16:38</time>
      </trkpt>
      <trkpt lat="43.33679" lon="6.00571">
        <ele>367</ele>
        <time>2018-05-18T11:16:43</time>
      </trkpt>
      <trkpt lat="43.33685" lon="6.00541">
        <ele>368</ele>
        <time>2018-05-18T11:16:48</time>
      </trkpt>
      <trkpt lat="43.33687" lon="6.00509">
        <ele>368</ele>
        <time>2018-05-18T11:16:53</time>
      </trkpt>
      <trkpt lat="43.33687" lon="6.00486">
        <ele>368</ele>
        <time>2018-05-18T11:16:59</time>
      </trkpt>
      <trkpt lat="43.3369" lon="6.00462">
        <ele>367</ele>
        <time>2018-05-18T11:17:04</time>
      </trkpt>
      <trkpt lat="43.33696" lon="6.00439">
        <ele>367</ele>
        <time>2018-05-18T11:17:09</time>
      </trkpt>
      <trkpt lat="43.33703" lon="6.00411">
        <ele>370</ele>
        <time>2018-05-18T11:17:14</time>
      </trkpt>
      <trkpt lat="43.33712" lon="6.00368">
        <ele>369</ele>
        <time>2018-05-18T11:17:19</time>
      </trkpt>
      <trkpt lat="43.33724" lon="6.00331">
        <ele>367</ele>
        <time>2018-05-18T11:17:24</time>
      </trkpt>
      <trkpt lat="43.33737" lon="6.00292">
        <ele>365</ele>
        <time>2018-05-18T11:17:29</time>
      </trkpt>
      <trkpt lat="43.33747" lon="6.0026">
        <ele>367</ele>
        <time>2018-05-18T11:17:34</time>
      </trkpt>
      <trkpt lat="43.33759" lon="6.00228">
        <ele>368</ele>
        <time>2018-05-18T11:17:39</time>
      </trkpt>
      <trkpt lat="43.3377" lon="6.00202">
        <ele>370</ele>
        <time>2018-05-18T11:17:44</time>
      </trkpt>
      <trkpt lat="43.33779" lon="6.00181">
        <ele>374</ele>
        <time>2018-05-18T11:17:49</time>
      </trkpt>
      <trkpt lat="43.33789" lon="6.00151">
        <ele>374</ele>
        <time>2018-05-18T11:17:54</time>
      </trkpt>
      <trkpt lat="43.338" lon="6.00122">
        <ele>375</ele>
        <time>2018-05-18T11:17:59</time>
      </trkpt>
      <trkpt lat="43.33807" lon="6.00089">
        <ele>374</ele>
        <time>2018-05-18T11:18:04</time>
      </trkpt>
      <trkpt lat="43.33817" lon="6.00054">
        <ele>373</ele>
        <time>2018-05-18T11:18:09</time>
      </trkpt>
      <trkpt lat="43.33831" lon="6.00007">
        <ele>367</ele>
        <time>2018-05-18T11:18:15</time>
      </trkpt>
      <trkpt lat="43.33839" lon="5.99976">
        <ele>365</ele>
        <time>2018-05-18T11:18:20</time>
      </trkpt>
      <trkpt lat="43.33847" lon="5.9995">
        <ele>369</ele>
        <time>2018-05-18T11:18:25</time>
      </trkpt>
      <trkpt lat="43.33856" lon="5.99928">
        <ele>370</ele>
        <time>2018-05-18T11:18:30</time>
      </trkpt>
      <trkpt lat="43.33878" lon="5.99907">
        <ele>365</ele>
        <time>2018-05-18T11:18:35</time>
      </trkpt>
      <trkpt lat="43.33888" lon="5.99937">
        <ele>367</ele>
        <time>2018-05-18T11:18:40</time>
      </trkpt>
      <trkpt lat="43.33904" lon="5.99955">
        <ele>369</ele>
        <time>2018-05-18T11:18:45</time>
      </trkpt>
      <trkpt lat="43.33927" lon="5.99967">
        <ele>371</ele>
        <time>2018-05-18T11:18:50</time>
      </trkpt>
      <trkpt lat="43.33946" lon="5.99984">
        <ele>377</ele>
        <time>2018-05-18T11:18:55</time>
      </trkpt>
      <trkpt lat="43.33958" lon="6.00015">
        <ele>381</ele>
        <time>2018-05-18T11:19:00</time>
      </trkpt>
      <trkpt lat="43.33979" lon="6.00005">
        <ele>378</ele>
        <time>2018-05-18T11:19:05</time>
      </trkpt>
      <trkpt lat="43.34004" lon="5.99983">
        <ele>379</ele>
        <time>2018-05-18T11:19:10</time>
      </trkpt>
      <trkpt lat="43.34023" lon="5.99954">
        <ele>380</ele>
        <time>2018-05-18T11:19:15</time>
      </trkpt>
      <trkpt lat="43.34037" lon="5.99935">
        <ele>383</ele>
        <time>2018-05-18T11:19:20</time>
      </trkpt>
      <trkpt lat="43.34052" lon="5.9992">
        <ele>384</ele>
        <time>2018-05-18T11:19:25</time>
      </trkpt>
      <trkpt lat="43.34077" lon="5.99924">
        <ele>383</ele>
        <time>2018-05-18T11:19:31</time>
      </trkpt>
      <trkpt lat="43.34098" lon="5.99921">
        <ele>386</ele>
        <time>2018-05-18T11:19:36</time>
      </trkpt>
      <trkpt lat="43.34111" lon="5.99905">
        <ele>385</ele>
        <time>2018-05-18T11:19:41</time>
      </trkpt>
      <trkpt lat="43.34126" lon="5.99888">
        <ele>383</ele>
        <time>2018-05-18T11:19:46</time>
      </trkpt>
      <trkpt lat="43.34139" lon="5.99874">
        <ele>386</ele>
        <time>2018-05-18T11:19:51</time>
      </trkpt>
      <trkpt lat="43.34155" lon="5.99869">
        <ele>379</ele>
        <time>2018-05-18T11:19:56</time>
      </trkpt>
      <trkpt lat="43.34149" lon="5.9983">
        <ele>378</ele>
        <time>2018-05-18T11:20:01</time>
      </trkpt>
      <trkpt lat="43.34144" lon="5.99778">
        <ele>372</ele>
        <time>2018-05-18T11:20:06</time>
      </trkpt>
      <trkpt lat="43.34113" lon="5.99752">
        <ele>375</ele>
        <time>2018-05-18T11:20:11</time>
      </trkpt>
      <trkpt lat="43.34081" lon="5.9973">
        <ele>377</ele>
        <time>2018-05-18T11:20:16</time>
      </trkpt>
      <trkpt lat="43.34056" lon="5.99699">
        <ele>379</ele>
        <time>2018-05-18T11:20:21</time>
      </trkpt>
      <trkpt lat="43.34038" lon="5.99672">
        <ele>381</ele>
        <time>2018-05-18T11:20:26</time>
      </trkpt>
      <trkpt lat="43.3402" lon="5.99638">
        <ele>381</ele>
        <time>2018-05-18T11:20:31</time>
      </trkpt>
      <trkpt lat="43.34004" lon="5.99598">
        <ele>382</ele>
        <time>2018-05-18T11:20:36</time>
      </trkpt>
      <trkpt lat="43.33986" lon="5.99548">
        <ele>380</ele>
        <time>2018-05-18T11:20:42</time>
      </trkpt>
      <trkpt lat="43.33971" lon="5.99514">
        <ele>381</ele>
        <time>2018-05-18T11:20:47</time>
      </trkpt>
      <trkpt lat="43.33961" lon="5.99474">
        <ele>378</ele>
        <time>2018-05-18T11:20:52</time>
      </trkpt>
      <trkpt lat="43.33952" lon="5.99436">
        <ele>378</ele>
        <time>2018-05-18T11:20:57</time>
      </trkpt>
      <trkpt lat="43.33942" lon="5.994">
        <ele>377</ele>
        <time>2018-05-18T11:21:02</time>
      </trkpt>
      <trkpt lat="43.3394" lon="5.99355">
        <ele>378</ele>
        <time>2018-05-18T11:21:07</time>
      </trkpt>
      <trkpt lat="43.33946" lon="5.99307">
        <ele>378</ele>
        <time>2018-05-18T11:21:12</time>
      </trkpt>
      <trkpt lat="43.33957" lon="5.99256">
        <ele>380</ele>
        <time>2018-05-18T11:21:17</time>
      </trkpt>
      <trkpt lat="43.33958" lon="5.99212">
        <ele>382</ele>
        <time>2018-05-18T11:21:22</time>
      </trkpt>
      <trkpt lat="43.33963" lon="5.9916">
        <ele>376</ele>
        <time>2018-05-18T11:21:27</time>
      </trkpt>
      <trkpt lat="43.33968" lon="5.9911">
        <ele>374</ele>
        <time>2018-05-18T11:21:32</time>
      </trkpt>
      <trkpt lat="43.33968" lon="5.99043">
        <ele>367</ele>
        <time>2018-05-18T11:21:37</time>
      </trkpt>
      <trkpt lat="43.33958" lon="5.98981">
        <ele>367</ele>
        <time>2018-05-18T11:21:42</time>
      </trkpt>
      <trkpt lat="43.33961" lon="5.98918">
        <ele>367</ele>
        <time>2018-05-18T11:21:47</time>
      </trkpt>
      <trkpt lat="43.33965" lon="5.98866">
        <ele>370</ele>
        <time>2018-05-18T11:21:52</time>
      </trkpt>
      <trkpt lat="43.33977" lon="5.98815">
        <ele>365</ele>
        <time>2018-05-18T11:21:57</time>
      </trkpt>
      <trkpt lat="43.33998" lon="5.98775">
        <ele>362</ele>
        <time>2018-05-18T11:22:02</time>
      </trkpt>
      <trkpt lat="43.34036" lon="5.98744">
        <ele>366</ele>
        <time>2018-05-18T11:22:08</time>
      </trkpt>
      <trkpt lat="43.34061" lon="5.98711">
        <ele>366</ele>
        <time>2018-05-18T11:22:13</time>
      </trkpt>
      <trkpt lat="43.3408" lon="5.9866">
        <ele>365</ele>
        <time>2018-05-18T11:22:18</time>
      </trkpt>
      <trkpt lat="43.34095" lon="5.98614">
        <ele>367</ele>
        <time>2018-05-18T11:22:23</time>
      </trkpt>
      <trkpt lat="43.34118" lon="5.98591">
        <ele>367</ele>
        <time>2018-05-18T11:22:28</time>
      </trkpt>
      <trkpt lat="43.34119" lon="5.9857">
        <ele>372</ele>
        <time>2018-05-18T11:22:33</time>
      </trkpt>
      <trkpt lat="43.34102" lon="5.98553">
        <ele>370</ele>
        <time>2018-05-18T11:22:38</time>
      </trkpt>
      <trkpt lat="43.34097" lon="5.98528">
        <ele>371</ele>
        <time>2018-05-18T11:22:43</time>
      </trkpt>
      <trkpt lat="43.34092" lon="5.98504">
        <ele>374</ele>
        <time>2018-05-18T11:22:48</time>
      </trkpt>
      <trkpt lat="43.3409" lon="5.98487">
        <ele>375</ele>
        <time>2018-05-18T11:22:53</time>
      </trkpt>
      <trkpt lat="43.34095" lon="5.98464">
        <ele>368</ele>
        <time>2018-05-18T11:22:58</time>
      </trkpt>
      <trkpt lat="43.34103" lon="5.98449">
        <ele>375</ele>
        <time>2018-05-18T11:23:03</time>
      </trkpt>
      <trkpt lat="43.34106" lon="5.98437">
        <ele>381</ele>
        <time>2018-05-18T11:23:08</time>
      </trkpt>
      <trkpt lat="43.34108" lon="5.98428">
        <ele>385</ele>
        <time>2018-05-18T11:23:13</time>
      </trkpt>
      <trkpt lat="43.34113" lon="5.98409">
        <ele>390</ele>
        <time>2018-05-18T11:23:19</time>
      </trkpt>
      <trkpt lat="43.34116" lon="5.98397">
        <ele>392</ele>
        <time>2018-05-18T11:23:24</time>
      </trkpt>
      <trkpt lat="43.34123" lon="5.98379">
        <ele>388</ele>
        <time>2018-05-18T11:23:29</time>
      </trkpt>
      <trkpt lat="43.34128" lon="5.9837">
        <ele>390</ele>
        <time>2018-05-18T11:23:34</time>
      </trkpt>
      <trkpt lat="43.34133" lon="5.98361">
        <ele>394</ele>
        <time>2018-05-18T11:23:39</time>
      </trkpt>
      <trkpt lat="43.34143" lon="5.98345">
        <ele>396</ele>
        <time>2018-05-18T11:23:44</time>
      </trkpt>
      <trkpt lat="43.34149" lon="5.98333">
        <ele>400</ele>
        <time>2018-05-18T11:23:49</time>
      </trkpt>
      <trkpt lat="43.34157" lon="5.98321">
        <ele>399</ele>
        <time>2018-05-18T11:23:54</time>
      </trkpt>
      <trkpt lat="43.34165" lon="5.983">
        <ele>396</ele>
        <time>2018-05-18T11:23:59</time>
      </trkpt>
      <trkpt lat="43.34171" lon="5.98293">
        <ele>407</ele>
        <time>2018-05-18T11:24:04</time>
      </trkpt>
      <trkpt lat="43.34175" lon="5.98271">
        <ele>409</ele>
        <time>2018-05-18T11:24:09</time>
      </trkpt>
      <trkpt lat="43.34176" lon="5.9825">
        <ele>404</ele>
        <time>2018-05-18T11:24:14</time>
      </trkpt>
      <trkpt lat="43.34173" lon="5.98239">
        <ele>407</ele>
        <time>2018-05-18T11:24:19</time>
      </trkpt>
      <trkpt lat="43.34173" lon="5.98223">
        <ele>404</ele>
        <time>2018-05-18T11:24:24</time>
      </trkpt>
      <trkpt lat="43.34177" lon="5.98195">
        <ele>405</ele>
        <time>2018-05-18T11:24:29</time>
      </trkpt>
      <trkpt lat="43.34173" lon="5.98159">
        <ele>404</ele>
        <time>2018-05-18T11:24:35</time>
      </trkpt>
      <trkpt lat="43.34184" lon="5.9812">
        <ele>404</ele>
        <time>2018-05-18T11:24:40</time>
      </trkpt>
      <trkpt lat="43.34194" lon="5.98087">
        <ele>397</ele>
        <time>2018-05-18T11:24:45</time>
      </trkpt>
      <trkpt lat="43.34228" lon="5.98059">
        <ele>399</ele>
        <time>2018-05-18T11:24:50</time>
      </trkpt>
      <trkpt lat="43.3426" lon="5.98038">
        <ele>399</ele>
        <time>2018-05-18T11:24:55</time>
      </trkpt>
      <trkpt lat="43.34268" lon="5.97998">
        <ele>401</ele>
        <time>2018-05-18T11:25:00</time>
      </trkpt>
      <trkpt lat="43.34269" lon="5.97959">
        <ele>399</ele>
        <time>2018-05-18T11:25:05</time>
      </trkpt>
      <trkpt lat="43.34273" lon="5.97935">
        <ele>400</ele>
        <time>2018-05-18T11:25:10</time>
      </trkpt>
      <trkpt lat="43.34276" lon="5.97889">
        <ele>396</ele>
        <time>2018-05-18T11:25:15</time>
      </trkpt>
      <trkpt lat="43.34259" lon="5.97861">
        <ele>397</ele>
        <time>2018-05-18T11:25:20</time>
      </trkpt>
      <trkpt lat="43.3425" lon="5.97828">
        <ele>392</ele>
        <time>2018-05-18T11:25:25</time>
      </trkpt>
      <trkpt lat="43.34235" lon="5.97796">
        <ele>392</ele>
        <time>2018-05-18T11:25:30</time>
      </trkpt>
      <trkpt lat="43.34214" lon="5.97775">
        <ele>391</ele>
        <time>2018-05-18T11:25:35</time>
      </trkpt>
      <trkpt lat="43.34191" lon="5.9775">
        <ele>387</ele>
        <time>2018-05-18T11:25:40</time>
      </trkpt>
      <trkpt lat="43.34168" lon="5.97726">
        <ele>386</ele>
        <time>2018-05-18T11:25:45</time>
      </trkpt>
      <trkpt lat="43.34141" lon="5.97715">
        <ele>381</ele>
        <time>2018-05-18T11:25:50</time>
      </trkpt>
      <trkpt lat="43.34107" lon="5.97709">
        <ele>372</ele>
        <time>2018-05-18T11:25:56</time>
      </trkpt>
      <trkpt lat="43.34081" lon="5.97702">
        <ele>370</ele>
        <time>2018-05-18T11:26:01</time>
      </trkpt>
      <trkpt lat="43.34059" lon="5.97701">
        <ele>368</ele>
        <time>2018-05-18T11:26:06</time>
      </trkpt>
      <trkpt lat="43.34042" lon="5.97673">
        <ele>364</ele>
        <time>2018-05-18T11:26:11</time>
      </trkpt>
      <trkpt lat="43.34037" lon="5.97636">
        <ele>364</ele>
        <time>2018-05-18T11:26:16</time>
      </trkpt>
      <trkpt lat="43.34044" lon="5.9761">
        <ele>360</ele>
        <time>2018-05-18T11:26:21</time>
      </trkpt>
      <trkpt lat="43.34057" lon="5.97602">
        <ele>363</ele>
        <time>2018-05-18T11:26:26</time>
      </trkpt>
      <trkpt lat="43.34091" lon="5.97587">
        <ele>364</ele>
        <time>2018-05-18T11:26:31</time>
      </trkpt>
      <trkpt lat="43.34128" lon="5.97566">
        <ele>362</ele>
        <time>2018-05-18T11:26:36</time>
      </trkpt>
      <trkpt lat="43.34157" lon="5.97554">
        <ele>363</ele>
        <time>2018-05-18T11:26:41</time>
      </trkpt>
      <trkpt lat="43.34183" lon="5.9754">
        <ele>366</ele>
        <time>2018-05-18T11:26:46</time>
      </trkpt>
      <trkpt lat="43.34212" lon="5.9752">
        <ele>365</ele>
        <time>2018-05-18T11:26:51</time>
      </trkpt>
      <trkpt lat="43.3424" lon="5.97505">
        <ele>366</ele>
        <time>2018-05-18T11:26:56</time>
      </trkpt>
      <trkpt lat="43.34267" lon="5.97486">
        <ele>368</ele>
        <time>2018-05-18T11:27:01</time>
      </trkpt>
      <trkpt lat="43.34299" lon="5.97469">
        <ele>369</ele>
        <time>2018-05-18T11:27:07</time>
      </trkpt>
      <trkpt lat="43.34329" lon="5.97451">
        <ele>371</ele>
        <time>2018-05-18T11:27:12</time>
      </trkpt>
      <trkpt lat="43.34355" lon="5.97436">
        <ele>372</ele>
        <time>2018-05-18T11:27:17</time>
      </trkpt>
      <trkpt lat="43.34385" lon="5.97418">
        <ele>372</ele>
        <time>2018-05-18T11:27:22</time>
      </trkpt>
      <trkpt lat="43.34411" lon="5.97402">
        <ele>373</ele>
        <time>2018-05-18T11:27:27</time>
      </trkpt>
      <trkpt lat="43.34442" lon="5.97383">
        <ele>376</ele>
        <time>2018-05-18T11:27:32</time>
      </trkpt>
      <trkpt lat="43.34469" lon="5.97365">
        <ele>376</ele>
        <time>2018-05-18T11:27:37</time>
      </trkpt>
      <trkpt lat="43.34496" lon="5.97349">
        <ele>376</ele>
        <time>2018-05-18T11:27:42</time>
      </trkpt>
      <trkpt lat="43.34503" lon="5.97334">
        <ele>377</ele>
        <time>2018-05-18T11:27:47</time>
      </trkpt>
      <trkpt lat="43.345" lon="5.97343">
        <ele>379</ele>
        <time>2018-05-18T11:28:01</time>
      </trkpt>
      <trkpt lat="43.34496" lon="5.97334">
        <ele>378</ele>
        <time>2018-05-18T11:28:07</time>
      </trkpt>
      <trkpt lat="43.34466" lon="5.97327">
        <ele>374</ele>
        <time>2018-05-18T11:28:12</time>
      </trkpt>
      <trkpt lat="43.34431" lon="5.97329">
        <ele>374</ele>
        <time>2018-05-18T11:28:17</time>
      </trkpt>
      <trkpt lat="43.34392" lon="5.97322">
        <ele>373</ele>
        <time>2018-05-18T11:28:23</time>
      </trkpt>
      <trkpt lat="43.3438" lon="5.97294">
        <ele>370</ele>
        <time>2018-05-18T11:28:28</time>
      </trkpt>
      <trkpt lat="43.34373" lon="5.9726">
        <ele>370</ele>
        <time>2018-05-18T11:28:33</time>
      </trkpt>
      <trkpt lat="43.34362" lon="5.97219">
        <ele>376</ele>
        <time>2018-05-18T11:28:38</time>
      </trkpt>
      <trkpt lat="43.3435" lon="5.97174">
        <ele>372</ele>
        <time>2018-05-18T11:28:43</time>
      </trkpt>
      <trkpt lat="43.34336" lon="5.97136">
        <ele>370</ele>
        <time>2018-05-18T11:28:48</time>
      </trkpt>
      <trkpt lat="43.34319" lon="5.97104">
        <ele>372</ele>
        <time>2018-05-18T11:28:53</time>
      </trkpt>
      <trkpt lat="43.343" lon="5.97066">
        <ele>371</ele>
        <time>2018-05-18T11:28:58</time>
      </trkpt>
      <trkpt lat="43.34277" lon="5.9704">
        <ele>373</ele>
        <time>2018-05-18T11:29:03</time>
      </trkpt>
      <trkpt lat="43.34257" lon="5.97019">
        <ele>375</ele>
        <time>2018-05-18T11:29:08</time>
      </trkpt>
      <trkpt lat="43.34256" lon="5.97004">
        <ele>375</ele>
        <time>2018-05-18T11:29:13</time>
      </trkpt>
      <trkpt lat="43.3427" lon="5.96987">
        <ele>374</ele>
        <time>2018-05-18T11:29:18</time>
      </trkpt>
      <trkpt lat="43.34283" lon="5.96975">
        <ele>375</ele>
        <time>2018-05-18T11:29:23</time>
      </trkpt>
      <trkpt lat="43.34298" lon="5.96965">
        <ele>379</ele>
        <time>2018-05-18T11:29:28</time>
      </trkpt>
      <trkpt lat="43.34314" lon="5.96951">
        <ele>379</ele>
        <time>2018-05-18T11:29:33</time>
      </trkpt>
      <trkpt lat="43.34331" lon="5.96934">
        <ele>380</ele>
        <time>2018-05-18T11:29:39</time>
      </trkpt>
      <trkpt lat="43.34348" lon="5.96922">
        <ele>377</ele>
        <time>2018-05-18T11:29:44</time>
      </trkpt>
      <trkpt lat="43.34353" lon="5.96902">
        <ele>384</ele>
        <time>2018-05-18T11:29:49</time>
      </trkpt>
      <trkpt lat="43.34342" lon="5.96877">
        <ele>384</ele>
        <time>2018-05-18T11:29:54</time>
      </trkpt>
      <trkpt lat="43.34333" lon="5.96858">
        <ele>390</ele>
        <time>2018-05-18T11:29:59</time>
      </trkpt>
      <trkpt lat="43.34324" lon="5.96852">
        <ele>384</ele>
        <time>2018-05-18T11:30:04</time>
      </trkpt>
      <trkpt lat="43.34319" lon="5.96849">
        <ele>378</ele>
        <time>2018-05-18T11:31:13</time>
      </trkpt>
    </trkseg>
  </trk>
</gpx>